<?xml version="1.0" encoding="UTF-8" standalone="no" ?>
<gpx xmlns="http://www.topografix.com/GPX/1/1" xmlns:xsi="http://www.w3.org/2001/XMLSchema-instance" xsi:schemaLocation="http://www.topografix.com/GPX/1/1 http://www.topografix.com/GPX/1/1/gpx.xsd" version="1.1" creator="VisuGPX - https://www.visugpx.com">
  <metadata>
    <name>lundi 2017 04 17</name>
    <desc><![CDATA[rando du lundi en groupe d'amis]]></desc>
  </metadata>
  <trk>
    <name><![CDATA[Lundi 2017 04 17]]></name>
    <trkseg>
      <trkpt lat="48.85721" lon="2.34752">
        <ele>40.599998474121</ele>
        <time>2017-04-17T18:24:50.000Z</time>
      </trkpt>
      <trkpt lat="48.8574" lon="2.3472">
        <ele>40.400001525879</ele>
        <time>2017-04-17T18:24:55.000Z</time>
      </trkpt>
      <trkpt lat="48.85785" lon="2.34665">
        <ele>38.799999237061</ele>
        <time>2017-04-17T18:24:58.000Z</time>
      </trkpt>
      <trkpt lat="48.85743" lon="2.34705">
        <ele>40</ele>
        <time>2017-04-17T18:25:01.000Z</time>
      </trkpt>
      <trkpt lat="48.85731" lon="2.34712">
        <ele>40.400001525879</ele>
        <time>2017-04-17T18:25:04.000Z</time>
      </trkpt>
      <trkpt lat="48.85736" lon="2.34705">
        <ele>40.200000762939</ele>
        <time>2017-04-17T18:25:05.000Z</time>
      </trkpt>
      <trkpt lat="48.85738" lon="2.34703">
        <ele>40</ele>
        <time>2017-04-17T18:25:10.000Z</time>
      </trkpt>
      <trkpt lat="48.85746" lon="2.34728">
        <ele>40.400001525879</ele>
        <time>2017-04-17T18:25:11.000Z</time>
      </trkpt>
      <trkpt lat="48.85736" lon="2.34708">
        <ele>40.400001525879</ele>
        <time>2017-04-17T18:25:15.000Z</time>
      </trkpt>
      <trkpt lat="48.85728" lon="2.34705">
        <ele>40.599998474121</ele>
        <time>2017-04-17T18:25:21.000Z</time>
      </trkpt>
      <trkpt lat="48.85719" lon="2.34702">
        <ele>40.599998474121</ele>
        <time>2017-04-17T18:25:24.000Z</time>
      </trkpt>
      <trkpt lat="48.85701" lon="2.34697">
        <ele>40.799999237061</ele>
        <time>2017-04-17T18:25:29.000Z</time>
      </trkpt>
      <trkpt lat="48.85698" lon="2.34695">
        <ele>41</ele>
        <time>2017-04-17T18:25:30.000Z</time>
      </trkpt>
      <trkpt lat="48.85687" lon="2.3469">
        <ele>41.200000762939</ele>
        <time>2017-04-17T18:25:33.000Z</time>
      </trkpt>
      <trkpt lat="48.85668" lon="2.34678">
        <ele>42.799999237061</ele>
        <time>2017-04-17T18:25:39.000Z</time>
      </trkpt>
      <trkpt lat="48.85653" lon="2.34665">
        <ele>44</ele>
        <time>2017-04-17T18:25:44.000Z</time>
      </trkpt>
      <trkpt lat="48.85648" lon="2.3466">
        <ele>44.400001525879</ele>
        <time>2017-04-17T18:25:46.000Z</time>
      </trkpt>
      <trkpt lat="48.85639" lon="2.34654">
        <ele>45.200000762939</ele>
        <time>2017-04-17T18:25:49.000Z</time>
      </trkpt>
      <trkpt lat="48.85626" lon="2.34646">
        <ele>46.400001525879</ele>
        <time>2017-04-17T18:25:54.000Z</time>
      </trkpt>
      <trkpt lat="48.85623" lon="2.34645">
        <ele>46.599998474121</ele>
        <time>2017-04-17T18:25:55.000Z</time>
      </trkpt>
      <trkpt lat="48.85603" lon="2.3464">
        <ele>48</ele>
        <time>2017-04-17T18:26:01.000Z</time>
      </trkpt>
      <trkpt lat="48.85594" lon="2.34632">
        <ele>47.799999237061</ele>
        <time>2017-04-17T18:26:04.000Z</time>
      </trkpt>
      <trkpt lat="48.85574" lon="2.34619">
        <ele>47.599998474121</ele>
        <time>2017-04-17T18:26:09.000Z</time>
      </trkpt>
      <trkpt lat="48.85555" lon="2.34613">
        <ele>47.400001525879</ele>
        <time>2017-04-17T18:26:13.000Z</time>
      </trkpt>
      <trkpt lat="48.85538" lon="2.34598">
        <ele>47.200000762939</ele>
        <time>2017-04-17T18:26:18.000Z</time>
      </trkpt>
      <trkpt lat="48.85522" lon="2.34579">
        <ele>47</ele>
        <time>2017-04-17T18:26:23.000Z</time>
      </trkpt>
      <trkpt lat="48.85505" lon="2.34562">
        <ele>45.599998474121</ele>
        <time>2017-04-17T18:26:29.000Z</time>
      </trkpt>
      <trkpt lat="48.85486" lon="2.34548">
        <ele>44.400001525879</ele>
        <time>2017-04-17T18:26:37.000Z</time>
      </trkpt>
      <trkpt lat="48.85466" lon="2.34539">
        <ele>43</ele>
        <time>2017-04-17T18:26:42.000Z</time>
      </trkpt>
      <trkpt lat="48.85444" lon="2.34526">
        <ele>41.400001525879</ele>
        <time>2017-04-17T18:26:45.000Z</time>
      </trkpt>
      <trkpt lat="48.85432" lon="2.34504">
        <ele>41.200000762939</ele>
        <time>2017-04-17T18:26:48.000Z</time>
      </trkpt>
      <trkpt lat="48.85424" lon="2.34493">
        <ele>41.599998474121</ele>
        <time>2017-04-17T18:26:50.000Z</time>
      </trkpt>
      <trkpt lat="48.85408" lon="2.34473">
        <ele>42.200000762939</ele>
        <time>2017-04-17T18:26:55.000Z</time>
      </trkpt>
      <trkpt lat="48.85397" lon="2.34461">
        <ele>42.599998474121</ele>
        <time>2017-04-17T18:27:00.000Z</time>
      </trkpt>
      <trkpt lat="48.85392" lon="2.34455">
        <ele>42.799999237061</ele>
        <time>2017-04-17T18:27:03.000Z</time>
      </trkpt>
      <trkpt lat="48.85382" lon="2.34447">
        <ele>43</ele>
        <time>2017-04-17T18:27:09.000Z</time>
      </trkpt>
      <trkpt lat="48.85378" lon="2.34442">
        <ele>43.200000762939</ele>
        <time>2017-04-17T18:27:15.000Z</time>
      </trkpt>
      <trkpt lat="48.85376" lon="2.34418">
        <ele>42.799999237061</ele>
        <time>2017-04-17T18:27:42.000Z</time>
      </trkpt>
      <trkpt lat="48.85362" lon="2.34398">
        <ele>44.200000762939</ele>
        <time>2017-04-17T18:27:47.000Z</time>
      </trkpt>
      <trkpt lat="48.85349" lon="2.34374">
        <ele>45.599998474121</ele>
        <time>2017-04-17T18:27:52.000Z</time>
      </trkpt>
      <trkpt lat="48.85339" lon="2.34349">
        <ele>46.799999237061</ele>
        <time>2017-04-17T18:27:57.000Z</time>
      </trkpt>
      <trkpt lat="48.85329" lon="2.34327">
        <ele>47.599998474121</ele>
        <time>2017-04-17T18:28:03.000Z</time>
      </trkpt>
      <trkpt lat="48.85333" lon="2.34299">
        <ele>47.799999237061</ele>
        <time>2017-04-17T18:28:10.000Z</time>
      </trkpt>
      <trkpt lat="48.85347" lon="2.34278">
        <ele>47.400001525879</ele>
        <time>2017-04-17T18:28:15.000Z</time>
      </trkpt>
      <trkpt lat="48.85365" lon="2.34258">
        <ele>46.200000762939</ele>
        <time>2017-04-17T18:28:20.000Z</time>
      </trkpt>
      <trkpt lat="48.85369" lon="2.34227">
        <ele>45.400001525879</ele>
        <time>2017-04-17T18:28:25.000Z</time>
      </trkpt>
      <trkpt lat="48.85367" lon="2.34191">
        <ele>43.799999237061</ele>
        <time>2017-04-17T18:28:29.000Z</time>
      </trkpt>
      <trkpt lat="48.85358" lon="2.34156">
        <ele>43.200000762939</ele>
        <time>2017-04-17T18:28:34.000Z</time>
      </trkpt>
      <trkpt lat="48.85345" lon="2.34126">
        <ele>43.400001525879</ele>
        <time>2017-04-17T18:28:39.000Z</time>
      </trkpt>
      <trkpt lat="48.85343" lon="2.34109">
        <ele>43.599998474121</ele>
        <time>2017-04-17T18:28:42.000Z</time>
      </trkpt>
      <trkpt lat="48.85347" lon="2.34077">
        <ele>44</ele>
        <time>2017-04-17T18:28:48.000Z</time>
      </trkpt>
      <trkpt lat="48.85351" lon="2.34057">
        <ele>43.799999237061</ele>
        <time>2017-04-17T18:28:51.000Z</time>
      </trkpt>
      <trkpt lat="48.85355" lon="2.34024">
        <ele>43.400001525879</ele>
        <time>2017-04-17T18:28:55.000Z</time>
      </trkpt>
      <trkpt lat="48.85357" lon="2.33991">
        <ele>43.200000762939</ele>
        <time>2017-04-17T18:28:59.000Z</time>
      </trkpt>
      <trkpt lat="48.85361" lon="2.33959">
        <ele>44.200000762939</ele>
        <time>2017-04-17T18:29:03.000Z</time>
      </trkpt>
      <trkpt lat="48.85362" lon="2.33931">
        <ele>44.799999237061</ele>
        <time>2017-04-17T18:29:07.000Z</time>
      </trkpt>
      <trkpt lat="48.85364" lon="2.33913">
        <ele>45.200000762939</ele>
        <time>2017-04-17T18:29:11.000Z</time>
      </trkpt>
      <trkpt lat="48.85367" lon="2.33897">
        <ele>46</ele>
        <time>2017-04-17T18:29:16.000Z</time>
      </trkpt>
      <trkpt lat="48.85381" lon="2.33876">
        <ele>47.400001525879</ele>
        <time>2017-04-17T18:29:22.000Z</time>
      </trkpt>
      <trkpt lat="48.85383" lon="2.33874">
        <ele>47.599998474121</ele>
        <time>2017-04-17T18:29:23.000Z</time>
      </trkpt>
      <trkpt lat="48.8539" lon="2.33848">
        <ele>48.599998474121</ele>
        <time>2017-04-17T18:29:36.000Z</time>
      </trkpt>
      <trkpt lat="48.854" lon="2.33822">
        <ele>49.200000762939</ele>
        <time>2017-04-17T18:29:43.000Z</time>
      </trkpt>
      <trkpt lat="48.85408" lon="2.33795">
        <ele>49.400001525879</ele>
        <time>2017-04-17T18:29:50.000Z</time>
      </trkpt>
      <trkpt lat="48.85407" lon="2.33761">
        <ele>49</ele>
        <time>2017-04-17T18:29:58.000Z</time>
      </trkpt>
      <trkpt lat="48.854" lon="2.33734">
        <ele>49.200000762939</ele>
        <time>2017-04-17T18:30:04.000Z</time>
      </trkpt>
      <trkpt lat="48.85384" lon="2.33701">
        <ele>49.799999237061</ele>
        <time>2017-04-17T18:30:09.000Z</time>
      </trkpt>
      <trkpt lat="48.85373" lon="2.33677">
        <ele>50.400001525879</ele>
        <time>2017-04-17T18:30:13.000Z</time>
      </trkpt>
      <trkpt lat="48.85358" lon="2.33659">
        <ele>51</ele>
        <time>2017-04-17T18:30:17.000Z</time>
      </trkpt>
      <trkpt lat="48.85342" lon="2.3364">
        <ele>50.799999237061</ele>
        <time>2017-04-17T18:30:21.000Z</time>
      </trkpt>
      <trkpt lat="48.85329" lon="2.33618">
        <ele>50.599998474121</ele>
        <time>2017-04-17T18:30:27.000Z</time>
      </trkpt>
      <trkpt lat="48.85324" lon="2.33584">
        <ele>50.799999237061</ele>
        <time>2017-04-17T18:30:38.000Z</time>
      </trkpt>
      <trkpt lat="48.85323" lon="2.33574">
        <ele>50.799999237061</ele>
        <time>2017-04-17T18:30:42.000Z</time>
      </trkpt>
      <trkpt lat="48.85314" lon="2.33576">
        <ele>50.400001525879</ele>
        <time>2017-04-17T18:31:11.000Z</time>
      </trkpt>
      <trkpt lat="48.85296" lon="2.33588">
        <ele>49.799999237061</ele>
        <time>2017-04-17T18:31:19.000Z</time>
      </trkpt>
      <trkpt lat="48.85278" lon="2.33588">
        <ele>49.200000762939</ele>
        <time>2017-04-17T18:31:25.000Z</time>
      </trkpt>
      <trkpt lat="48.85264" lon="2.3359">
        <ele>49</ele>
        <time>2017-04-17T18:31:31.000Z</time>
      </trkpt>
      <trkpt lat="48.85254" lon="2.33565">
        <ele>49.200000762939</ele>
        <time>2017-04-17T18:31:38.000Z</time>
      </trkpt>
      <trkpt lat="48.85248" lon="2.33538">
        <ele>49.200000762939</ele>
        <time>2017-04-17T18:31:43.000Z</time>
      </trkpt>
      <trkpt lat="48.8524" lon="2.33541">
        <ele>49.400001525879</ele>
        <time>2017-04-17T18:31:50.000Z</time>
      </trkpt>
      <trkpt lat="48.85237" lon="2.33547">
        <ele>49.400001525879</ele>
        <time>2017-04-17T18:31:57.000Z</time>
      </trkpt>
      <trkpt lat="48.85239" lon="2.33518">
        <ele>49.400001525879</ele>
        <time>2017-04-17T18:32:01.000Z</time>
      </trkpt>
      <trkpt lat="48.8524" lon="2.33498">
        <ele>49.400001525879</ele>
        <time>2017-04-17T18:32:03.000Z</time>
      </trkpt>
      <trkpt lat="48.85241" lon="2.33467">
        <ele>49</ele>
        <time>2017-04-17T18:32:07.000Z</time>
      </trkpt>
      <trkpt lat="48.85238" lon="2.3344">
        <ele>49</ele>
        <time>2017-04-17T18:32:11.000Z</time>
      </trkpt>
      <trkpt lat="48.85231" lon="2.33413">
        <ele>49</ele>
        <time>2017-04-17T18:32:16.000Z</time>
      </trkpt>
      <trkpt lat="48.85222" lon="2.33397">
        <ele>48.599998474121</ele>
        <time>2017-04-17T18:32:22.000Z</time>
      </trkpt>
      <trkpt lat="48.852" lon="2.33391">
        <ele>48.400001525879</ele>
        <time>2017-04-17T18:32:24.000Z</time>
      </trkpt>
      <trkpt lat="48.85182" lon="2.33387">
        <ele>48.400001525879</ele>
        <time>2017-04-17T18:32:26.000Z</time>
      </trkpt>
      <trkpt lat="48.85159" lon="2.33382">
        <ele>48.599998474121</ele>
        <time>2017-04-17T18:32:28.000Z</time>
      </trkpt>
      <trkpt lat="48.85144" lon="2.33381">
        <ele>49</ele>
        <time>2017-04-17T18:32:29.000Z</time>
      </trkpt>
      <trkpt lat="48.85125" lon="2.33381">
        <ele>49.799999237061</ele>
        <time>2017-04-17T18:32:33.000Z</time>
      </trkpt>
      <trkpt lat="48.85123" lon="2.33379">
        <ele>49.799999237061</ele>
        <time>2017-04-17T18:32:35.000Z</time>
      </trkpt>
      <trkpt lat="48.85125" lon="2.33363">
        <ele>48.799999237061</ele>
        <time>2017-04-17T18:32:40.000Z</time>
      </trkpt>
      <trkpt lat="48.85127" lon="2.3334">
        <ele>48</ele>
        <time>2017-04-17T18:32:45.000Z</time>
      </trkpt>
      <trkpt lat="48.85127" lon="2.33325">
        <ele>47.599998474121</ele>
        <time>2017-04-17T18:32:49.000Z</time>
      </trkpt>
      <trkpt lat="48.85134" lon="2.33297">
        <ele>47.200000762939</ele>
        <time>2017-04-17T18:32:54.000Z</time>
      </trkpt>
      <trkpt lat="48.85146" lon="2.33274">
        <ele>47</ele>
        <time>2017-04-17T18:32:58.000Z</time>
      </trkpt>
      <trkpt lat="48.85155" lon="2.33246">
        <ele>47</ele>
        <time>2017-04-17T18:33:03.000Z</time>
      </trkpt>
      <trkpt lat="48.85157" lon="2.33213">
        <ele>47.799999237061</ele>
        <time>2017-04-17T18:33:08.000Z</time>
      </trkpt>
      <trkpt lat="48.85163" lon="2.33179">
        <ele>49.200000762939</ele>
        <time>2017-04-17T18:33:13.000Z</time>
      </trkpt>
      <trkpt lat="48.85163" lon="2.33166">
        <ele>49.599998474121</ele>
        <time>2017-04-17T18:33:15.000Z</time>
      </trkpt>
      <trkpt lat="48.85168" lon="2.33137">
        <ele>50.599998474121</ele>
        <time>2017-04-17T18:33:20.000Z</time>
      </trkpt>
      <trkpt lat="48.85171" lon="2.33123">
        <ele>51.200000762939</ele>
        <time>2017-04-17T18:33:23.000Z</time>
      </trkpt>
      <trkpt lat="48.8518" lon="2.33099">
        <ele>52.200000762939</ele>
        <time>2017-04-17T18:33:28.000Z</time>
      </trkpt>
      <trkpt lat="48.85183" lon="2.33088">
        <ele>52.599998474121</ele>
        <time>2017-04-17T18:33:30.000Z</time>
      </trkpt>
      <trkpt lat="48.85193" lon="2.33064">
        <ele>52</ele>
        <time>2017-04-17T18:33:35.000Z</time>
      </trkpt>
      <trkpt lat="48.85204" lon="2.33041">
        <ele>50</ele>
        <time>2017-04-17T18:33:40.000Z</time>
      </trkpt>
      <trkpt lat="48.85212" lon="2.33013">
        <ele>48.400001525879</ele>
        <time>2017-04-17T18:33:46.000Z</time>
      </trkpt>
      <trkpt lat="48.8522" lon="2.33">
        <ele>48.200000762939</ele>
        <time>2017-04-17T18:33:52.000Z</time>
      </trkpt>
      <trkpt lat="48.85237" lon="2.32993">
        <ele>47.799999237061</ele>
        <time>2017-04-17T18:33:57.000Z</time>
      </trkpt>
      <trkpt lat="48.85244" lon="2.32986">
        <ele>47.400001525879</ele>
        <time>2017-04-17T18:33:59.000Z</time>
      </trkpt>
      <trkpt lat="48.85259" lon="2.32965">
        <ele>47.400001525879</ele>
        <time>2017-04-17T18:34:03.000Z</time>
      </trkpt>
      <trkpt lat="48.85274" lon="2.32946">
        <ele>48.200000762939</ele>
        <time>2017-04-17T18:34:07.000Z</time>
      </trkpt>
      <trkpt lat="48.85291" lon="2.32928">
        <ele>48.799999237061</ele>
        <time>2017-04-17T18:34:12.000Z</time>
      </trkpt>
      <trkpt lat="48.8531" lon="2.32914">
        <ele>49</ele>
        <time>2017-04-17T18:34:16.000Z</time>
      </trkpt>
      <trkpt lat="48.85328" lon="2.32894">
        <ele>49</ele>
        <time>2017-04-17T18:34:21.000Z</time>
      </trkpt>
      <trkpt lat="48.85339" lon="2.32867">
        <ele>49</ele>
        <time>2017-04-17T18:34:26.000Z</time>
      </trkpt>
      <trkpt lat="48.85344" lon="2.32855">
        <ele>49</ele>
        <time>2017-04-17T18:34:28.000Z</time>
      </trkpt>
      <trkpt lat="48.85354" lon="2.32825">
        <ele>49</ele>
        <time>2017-04-17T18:34:33.000Z</time>
      </trkpt>
      <trkpt lat="48.85365" lon="2.32798">
        <ele>48.599998474121</ele>
        <time>2017-04-17T18:34:38.000Z</time>
      </trkpt>
      <trkpt lat="48.85369" lon="2.3278">
        <ele>48.200000762939</ele>
        <time>2017-04-17T18:34:41.000Z</time>
      </trkpt>
      <trkpt lat="48.8537" lon="2.3276">
        <ele>48</ele>
        <time>2017-04-17T18:34:44.000Z</time>
      </trkpt>
      <trkpt lat="48.8538" lon="2.32729">
        <ele>48.599998474121</ele>
        <time>2017-04-17T18:34:49.000Z</time>
      </trkpt>
      <trkpt lat="48.85392" lon="2.32706">
        <ele>48.799999237061</ele>
        <time>2017-04-17T18:34:53.000Z</time>
      </trkpt>
      <trkpt lat="48.85396" lon="2.32703">
        <ele>49</ele>
        <time>2017-04-17T18:34:54.000Z</time>
      </trkpt>
      <trkpt lat="48.85414" lon="2.32685">
        <ele>49.400001525879</ele>
        <time>2017-04-17T18:34:59.000Z</time>
      </trkpt>
      <trkpt lat="48.85419" lon="2.32674">
        <ele>49.599998474121</ele>
        <time>2017-04-17T18:35:01.000Z</time>
      </trkpt>
      <trkpt lat="48.85429" lon="2.32646">
        <ele>49.400001525879</ele>
        <time>2017-04-17T18:35:06.000Z</time>
      </trkpt>
      <trkpt lat="48.8543" lon="2.32633">
        <ele>49.200000762939</ele>
        <time>2017-04-17T18:35:09.000Z</time>
      </trkpt>
      <trkpt lat="48.8543" lon="2.32614">
        <ele>48.599998474121</ele>
        <time>2017-04-17T18:35:13.000Z</time>
      </trkpt>
      <trkpt lat="48.8543" lon="2.32607">
        <ele>48.599998474121</ele>
        <time>2017-04-17T18:35:14.000Z</time>
      </trkpt>
      <trkpt lat="48.85444" lon="2.32589">
        <ele>48.200000762939</ele>
        <time>2017-04-17T18:35:19.000Z</time>
      </trkpt>
      <trkpt lat="48.85465" lon="2.32576">
        <ele>47.799999237061</ele>
        <time>2017-04-17T18:35:24.000Z</time>
      </trkpt>
      <trkpt lat="48.85469" lon="2.32575">
        <ele>47.799999237061</ele>
        <time>2017-04-17T18:35:25.000Z</time>
      </trkpt>
      <trkpt lat="48.85488" lon="2.32559">
        <ele>47.400001525879</ele>
        <time>2017-04-17T18:35:30.000Z</time>
      </trkpt>
      <trkpt lat="48.85492" lon="2.32554">
        <ele>47.400001525879</ele>
        <time>2017-04-17T18:35:31.000Z</time>
      </trkpt>
      <trkpt lat="48.85507" lon="2.32533">
        <ele>47.200000762939</ele>
        <time>2017-04-17T18:35:35.000Z</time>
      </trkpt>
      <trkpt lat="48.8551" lon="2.32519">
        <ele>47.200000762939</ele>
        <time>2017-04-17T18:35:37.000Z</time>
      </trkpt>
      <trkpt lat="48.85521" lon="2.32492">
        <ele>47</ele>
        <time>2017-04-17T18:35:41.000Z</time>
      </trkpt>
      <trkpt lat="48.85525" lon="2.32487">
        <ele>47</ele>
        <time>2017-04-17T18:35:42.000Z</time>
      </trkpt>
      <trkpt lat="48.85536" lon="2.32458">
        <ele>47.200000762939</ele>
        <time>2017-04-17T18:35:47.000Z</time>
      </trkpt>
      <trkpt lat="48.85547" lon="2.32433">
        <ele>47.200000762939</ele>
        <time>2017-04-17T18:35:51.000Z</time>
      </trkpt>
      <trkpt lat="48.85554" lon="2.32406">
        <ele>47.400001525879</ele>
        <time>2017-04-17T18:35:55.000Z</time>
      </trkpt>
      <trkpt lat="48.85556" lon="2.32371">
        <ele>46.599998474121</ele>
        <time>2017-04-17T18:35:59.000Z</time>
      </trkpt>
      <trkpt lat="48.85562" lon="2.32343">
        <ele>44.799999237061</ele>
        <time>2017-04-17T18:36:03.000Z</time>
      </trkpt>
      <trkpt lat="48.85566" lon="2.32323">
        <ele>43.400001525879</ele>
        <time>2017-04-17T18:36:06.000Z</time>
      </trkpt>
      <trkpt lat="48.85572" lon="2.32292">
        <ele>41.599998474121</ele>
        <time>2017-04-17T18:36:10.000Z</time>
      </trkpt>
      <trkpt lat="48.85582" lon="2.32269">
        <ele>41.799999237061</ele>
        <time>2017-04-17T18:36:14.000Z</time>
      </trkpt>
      <trkpt lat="48.85597" lon="2.32253">
        <ele>41.799999237061</ele>
        <time>2017-04-17T18:36:17.000Z</time>
      </trkpt>
      <trkpt lat="48.85608" lon="2.32226">
        <ele>42.799999237061</ele>
        <time>2017-04-17T18:36:20.000Z</time>
      </trkpt>
      <trkpt lat="48.85614" lon="2.32199">
        <ele>43.599998474121</ele>
        <time>2017-04-17T18:36:23.000Z</time>
      </trkpt>
      <trkpt lat="48.85625" lon="2.32171">
        <ele>44.200000762939</ele>
        <time>2017-04-17T18:36:27.000Z</time>
      </trkpt>
      <trkpt lat="48.85633" lon="2.32141">
        <ele>45.200000762939</ele>
        <time>2017-04-17T18:36:31.000Z</time>
      </trkpt>
      <trkpt lat="48.85641" lon="2.32113">
        <ele>46</ele>
        <time>2017-04-17T18:36:35.000Z</time>
      </trkpt>
      <trkpt lat="48.85651" lon="2.32084">
        <ele>46.799999237061</ele>
        <time>2017-04-17T18:36:39.000Z</time>
      </trkpt>
      <trkpt lat="48.85658" lon="2.32054">
        <ele>46.400001525879</ele>
        <time>2017-04-17T18:36:43.000Z</time>
      </trkpt>
      <trkpt lat="48.85662" lon="2.32022">
        <ele>45.599998474121</ele>
        <time>2017-04-17T18:36:47.000Z</time>
      </trkpt>
      <trkpt lat="48.8567" lon="2.31994">
        <ele>44.599998474121</ele>
        <time>2017-04-17T18:36:51.000Z</time>
      </trkpt>
      <trkpt lat="48.8568" lon="2.31968">
        <ele>44.599998474121</ele>
        <time>2017-04-17T18:36:55.000Z</time>
      </trkpt>
      <trkpt lat="48.85693" lon="2.31948">
        <ele>45.599998474121</ele>
        <time>2017-04-17T18:36:59.000Z</time>
      </trkpt>
      <trkpt lat="48.85702" lon="2.31923">
        <ele>46.200000762939</ele>
        <time>2017-04-17T18:37:02.000Z</time>
      </trkpt>
      <trkpt lat="48.85707" lon="2.31909">
        <ele>46.200000762939</ele>
        <time>2017-04-17T18:37:04.000Z</time>
      </trkpt>
      <trkpt lat="48.85718" lon="2.31884">
        <ele>46.400001525879</ele>
        <time>2017-04-17T18:37:08.000Z</time>
      </trkpt>
      <trkpt lat="48.85725" lon="2.3187">
        <ele>46.400001525879</ele>
        <time>2017-04-17T18:37:11.000Z</time>
      </trkpt>
      <trkpt lat="48.8574" lon="2.31845">
        <ele>47</ele>
        <time>2017-04-17T18:37:16.000Z</time>
      </trkpt>
      <trkpt lat="48.85751" lon="2.31821">
        <ele>47.400001525879</ele>
        <time>2017-04-17T18:37:20.000Z</time>
      </trkpt>
      <trkpt lat="48.85755" lon="2.3181">
        <ele>47.200000762939</ele>
        <time>2017-04-17T18:37:22.000Z</time>
      </trkpt>
      <trkpt lat="48.85765" lon="2.31783">
        <ele>46.200000762939</ele>
        <time>2017-04-17T18:37:26.000Z</time>
      </trkpt>
      <trkpt lat="48.85773" lon="2.31753">
        <ele>45.200000762939</ele>
        <time>2017-04-17T18:37:31.000Z</time>
      </trkpt>
      <trkpt lat="48.85772" lon="2.31743">
        <ele>44.799999237061</ele>
        <time>2017-04-17T18:37:34.000Z</time>
      </trkpt>
      <trkpt lat="48.85779" lon="2.31727">
        <ele>44</ele>
        <time>2017-04-17T18:37:52.000Z</time>
      </trkpt>
      <trkpt lat="48.85792" lon="2.31701">
        <ele>42.599998474121</ele>
        <time>2017-04-17T18:37:57.000Z</time>
      </trkpt>
      <trkpt lat="48.85803" lon="2.31677">
        <ele>41.400001525879</ele>
        <time>2017-04-17T18:38:01.000Z</time>
      </trkpt>
      <trkpt lat="48.85813" lon="2.31651">
        <ele>40.200000762939</ele>
        <time>2017-04-17T18:38:05.000Z</time>
      </trkpt>
      <trkpt lat="48.85814" lon="2.31645">
        <ele>40</ele>
        <time>2017-04-17T18:38:06.000Z</time>
      </trkpt>
      <trkpt lat="48.85821" lon="2.31614">
        <ele>39.400001525879</ele>
        <time>2017-04-17T18:38:11.000Z</time>
      </trkpt>
      <trkpt lat="48.85824" lon="2.31582">
        <ele>39.400001525879</ele>
        <time>2017-04-17T18:38:16.000Z</time>
      </trkpt>
      <trkpt lat="48.85819" lon="2.31552">
        <ele>38</ele>
        <time>2017-04-17T18:38:20.000Z</time>
      </trkpt>
      <trkpt lat="48.85818" lon="2.31521">
        <ele>37.400001525879</ele>
        <time>2017-04-17T18:38:24.000Z</time>
      </trkpt>
      <trkpt lat="48.85819" lon="2.31489">
        <ele>37</ele>
        <time>2017-04-17T18:38:29.000Z</time>
      </trkpt>
      <trkpt lat="48.8582" lon="2.31484">
        <ele>37</ele>
        <time>2017-04-17T18:38:30.000Z</time>
      </trkpt>
      <trkpt lat="48.8583" lon="2.31463">
        <ele>37</ele>
        <time>2017-04-17T18:38:36.000Z</time>
      </trkpt>
      <trkpt lat="48.85831" lon="2.3146">
        <ele>37</ele>
        <time>2017-04-17T18:38:37.000Z</time>
      </trkpt>
      <trkpt lat="48.85831" lon="2.3144">
        <ele>37.200000762939</ele>
        <time>2017-04-17T18:38:41.000Z</time>
      </trkpt>
      <trkpt lat="48.85829" lon="2.31435">
        <ele>37</ele>
        <time>2017-04-17T18:38:42.000Z</time>
      </trkpt>
      <trkpt lat="48.85833" lon="2.31412">
        <ele>37</ele>
        <time>2017-04-17T18:38:46.000Z</time>
      </trkpt>
      <trkpt lat="48.85836" lon="2.31381">
        <ele>34.799999237061</ele>
        <time>2017-04-17T18:38:51.000Z</time>
      </trkpt>
      <trkpt lat="48.8584" lon="2.31353">
        <ele>33.400001525879</ele>
        <time>2017-04-17T18:38:56.000Z</time>
      </trkpt>
      <trkpt lat="48.85855" lon="2.31334">
        <ele>33.200000762939</ele>
        <time>2017-04-17T18:39:01.000Z</time>
      </trkpt>
      <trkpt lat="48.85869" lon="2.31314">
        <ele>31.799999237061</ele>
        <time>2017-04-17T18:39:06.000Z</time>
      </trkpt>
      <trkpt lat="48.85876" lon="2.31286">
        <ele>31</ele>
        <time>2017-04-17T18:39:11.000Z</time>
      </trkpt>
      <trkpt lat="48.8587" lon="2.31257">
        <ele>31.200000762939</ele>
        <time>2017-04-17T18:39:16.000Z</time>
      </trkpt>
      <trkpt lat="48.85854" lon="2.31237">
        <ele>32.599998474121</ele>
        <time>2017-04-17T18:39:21.000Z</time>
      </trkpt>
      <trkpt lat="48.85846" lon="2.31208">
        <ele>34.599998474121</ele>
        <time>2017-04-17T18:39:26.000Z</time>
      </trkpt>
      <trkpt lat="48.85846" lon="2.3118">
        <ele>36.400001525879</ele>
        <time>2017-04-17T18:39:30.000Z</time>
      </trkpt>
      <trkpt lat="48.85846" lon="2.31167">
        <ele>37.200000762939</ele>
        <time>2017-04-17T18:39:32.000Z</time>
      </trkpt>
      <trkpt lat="48.85843" lon="2.3115">
        <ele>37.799999237061</ele>
        <time>2017-04-17T18:39:35.000Z</time>
      </trkpt>
      <trkpt lat="48.85837" lon="2.31134">
        <ele>38.799999237061</ele>
        <time>2017-04-17T18:39:38.000Z</time>
      </trkpt>
      <trkpt lat="48.85826" lon="2.31119">
        <ele>39.799999237061</ele>
        <time>2017-04-17T18:39:42.000Z</time>
      </trkpt>
      <trkpt lat="48.85816" lon="2.31104">
        <ele>40.799999237061</ele>
        <time>2017-04-17T18:39:46.000Z</time>
      </trkpt>
      <trkpt lat="48.8581" lon="2.31075">
        <ele>42.599998474121</ele>
        <time>2017-04-17T18:39:51.000Z</time>
      </trkpt>
      <trkpt lat="48.85809" lon="2.31069">
        <ele>42.599998474121</ele>
        <time>2017-04-17T18:39:52.000Z</time>
      </trkpt>
      <trkpt lat="48.85807" lon="2.31038">
        <ele>43</ele>
        <time>2017-04-17T18:39:57.000Z</time>
      </trkpt>
      <trkpt lat="48.85806" lon="2.3101">
        <ele>43.200000762939</ele>
        <time>2017-04-17T18:40:02.000Z</time>
      </trkpt>
      <trkpt lat="48.85805" lon="2.30999">
        <ele>43.400001525879</ele>
        <time>2017-04-17T18:40:06.000Z</time>
      </trkpt>
      <trkpt lat="48.85802" lon="2.30973">
        <ele>44.599998474121</ele>
        <time>2017-04-17T18:40:20.000Z</time>
      </trkpt>
      <trkpt lat="48.85802" lon="2.30944">
        <ele>45.799999237061</ele>
        <time>2017-04-17T18:40:24.000Z</time>
      </trkpt>
      <trkpt lat="48.85802" lon="2.30913">
        <ele>46.599998474121</ele>
        <time>2017-04-17T18:40:28.000Z</time>
      </trkpt>
      <trkpt lat="48.85801" lon="2.30883">
        <ele>46.599998474121</ele>
        <time>2017-04-17T18:40:32.000Z</time>
      </trkpt>
      <trkpt lat="48.858" lon="2.30854">
        <ele>46.599998474121</ele>
        <time>2017-04-17T18:40:36.000Z</time>
      </trkpt>
      <trkpt lat="48.85803" lon="2.30825">
        <ele>45.400001525879</ele>
        <time>2017-04-17T18:40:40.000Z</time>
      </trkpt>
      <trkpt lat="48.85801" lon="2.30792">
        <ele>44.200000762939</ele>
        <time>2017-04-17T18:40:44.000Z</time>
      </trkpt>
      <trkpt lat="48.85798" lon="2.30761">
        <ele>43.599998474121</ele>
        <time>2017-04-17T18:40:48.000Z</time>
      </trkpt>
      <trkpt lat="48.85792" lon="2.3073">
        <ele>43.799999237061</ele>
        <time>2017-04-17T18:40:52.000Z</time>
      </trkpt>
      <trkpt lat="48.8579" lon="2.307">
        <ele>43.799999237061</ele>
        <time>2017-04-17T18:40:56.000Z</time>
      </trkpt>
      <trkpt lat="48.85786" lon="2.30672">
        <ele>43.799999237061</ele>
        <time>2017-04-17T18:41:00.000Z</time>
      </trkpt>
      <trkpt lat="48.85786" lon="2.30643">
        <ele>43.799999237061</ele>
        <time>2017-04-17T18:41:04.000Z</time>
      </trkpt>
      <trkpt lat="48.8578" lon="2.30613">
        <ele>44</ele>
        <time>2017-04-17T18:41:09.000Z</time>
      </trkpt>
      <trkpt lat="48.85771" lon="2.30594">
        <ele>44.200000762939</ele>
        <time>2017-04-17T18:41:13.000Z</time>
      </trkpt>
      <trkpt lat="48.85756" lon="2.30569">
        <ele>44.599998474121</ele>
        <time>2017-04-17T18:41:18.000Z</time>
      </trkpt>
      <trkpt lat="48.8574" lon="2.30546">
        <ele>44.799999237061</ele>
        <time>2017-04-17T18:41:23.000Z</time>
      </trkpt>
      <trkpt lat="48.85739" lon="2.3054">
        <ele>44.799999237061</ele>
        <time>2017-04-17T18:41:24.000Z</time>
      </trkpt>
      <trkpt lat="48.85731" lon="2.30511">
        <ele>45</ele>
        <time>2017-04-17T18:41:28.000Z</time>
      </trkpt>
      <trkpt lat="48.85729" lon="2.3049">
        <ele>45.200000762939</ele>
        <time>2017-04-17T18:41:31.000Z</time>
      </trkpt>
      <trkpt lat="48.85724" lon="2.30462">
        <ele>45.599998474121</ele>
        <time>2017-04-17T18:41:36.000Z</time>
      </trkpt>
      <trkpt lat="48.85722" lon="2.30455">
        <ele>45.799999237061</ele>
        <time>2017-04-17T18:41:38.000Z</time>
      </trkpt>
      <trkpt lat="48.85719" lon="2.30451">
        <ele>45.799999237061</ele>
        <time>2017-04-17T18:41:52.000Z</time>
      </trkpt>
      <trkpt lat="48.85707" lon="2.3044">
        <ele>46.200000762939</ele>
        <time>2017-04-17T18:42:09.000Z</time>
      </trkpt>
      <trkpt lat="48.85692" lon="2.30426">
        <ele>46.799999237061</ele>
        <time>2017-04-17T18:42:16.000Z</time>
      </trkpt>
      <trkpt lat="48.85674" lon="2.30411">
        <ele>47</ele>
        <time>2017-04-17T18:42:22.000Z</time>
      </trkpt>
      <trkpt lat="48.85658" lon="2.30391">
        <ele>47.200000762939</ele>
        <time>2017-04-17T18:42:27.000Z</time>
      </trkpt>
      <trkpt lat="48.85649" lon="2.30361">
        <ele>47.400001525879</ele>
        <time>2017-04-17T18:42:34.000Z</time>
      </trkpt>
      <trkpt lat="48.85641" lon="2.30332">
        <ele>47.599998474121</ele>
        <time>2017-04-17T18:42:41.000Z</time>
      </trkpt>
      <trkpt lat="48.85629" lon="2.30309">
        <ele>47.799999237061</ele>
        <time>2017-04-17T18:42:46.000Z</time>
      </trkpt>
      <trkpt lat="48.85615" lon="2.30288">
        <ele>47.799999237061</ele>
        <time>2017-04-17T18:42:51.000Z</time>
      </trkpt>
      <trkpt lat="48.85599" lon="2.30264">
        <ele>47.799999237061</ele>
        <time>2017-04-17T18:42:58.000Z</time>
      </trkpt>
      <trkpt lat="48.85591" lon="2.30225">
        <ele>47.200000762939</ele>
        <time>2017-04-17T18:43:06.000Z</time>
      </trkpt>
      <trkpt lat="48.85579" lon="2.30205">
        <ele>46.599998474121</ele>
        <time>2017-04-17T18:43:11.000Z</time>
      </trkpt>
      <trkpt lat="48.85565" lon="2.30183">
        <ele>45.799999237061</ele>
        <time>2017-04-17T18:43:16.000Z</time>
      </trkpt>
      <trkpt lat="48.85552" lon="2.30166">
        <ele>45.200000762939</ele>
        <time>2017-04-17T18:43:23.000Z</time>
      </trkpt>
      <trkpt lat="48.85539" lon="2.30147">
        <ele>44.200000762939</ele>
        <time>2017-04-17T18:43:29.000Z</time>
      </trkpt>
      <trkpt lat="48.85538" lon="2.30142">
        <ele>44</ele>
        <time>2017-04-17T18:43:31.000Z</time>
      </trkpt>
      <trkpt lat="48.85522" lon="2.30117">
        <ele>42.799999237061</ele>
        <time>2017-04-17T18:43:37.000Z</time>
      </trkpt>
      <trkpt lat="48.8551" lon="2.30091">
        <ele>41.400001525879</ele>
        <time>2017-04-17T18:43:42.000Z</time>
      </trkpt>
      <trkpt lat="48.85508" lon="2.30086">
        <ele>41</ele>
        <time>2017-04-17T18:43:43.000Z</time>
      </trkpt>
      <trkpt lat="48.85491" lon="2.30066">
        <ele>40</ele>
        <time>2017-04-17T18:43:47.000Z</time>
      </trkpt>
      <trkpt lat="48.85478" lon="2.30047">
        <ele>39.599998474121</ele>
        <time>2017-04-17T18:43:51.000Z</time>
      </trkpt>
      <trkpt lat="48.85467" lon="2.30023">
        <ele>39.200000762939</ele>
        <time>2017-04-17T18:43:56.000Z</time>
      </trkpt>
      <trkpt lat="48.85459" lon="2.30014">
        <ele>38.799999237061</ele>
        <time>2017-04-17T18:44:01.000Z</time>
      </trkpt>
      <trkpt lat="48.85469" lon="2.30024">
        <ele>39.200000762939</ele>
        <time>2017-04-17T18:45:21.000Z</time>
      </trkpt>
      <trkpt lat="48.85462" lon="2.30012">
        <ele>38.599998474121</ele>
        <time>2017-04-17T18:46:15.000Z</time>
      </trkpt>
      <trkpt lat="48.85443" lon="2.29995">
        <ele>38</ele>
        <time>2017-04-17T18:46:21.000Z</time>
      </trkpt>
      <trkpt lat="48.85429" lon="2.29978">
        <ele>38.599998474121</ele>
        <time>2017-04-17T18:46:25.000Z</time>
      </trkpt>
      <trkpt lat="48.85411" lon="2.29958">
        <ele>40.200000762939</ele>
        <time>2017-04-17T18:46:30.000Z</time>
      </trkpt>
      <trkpt lat="48.85394" lon="2.29941">
        <ele>41.599998474121</ele>
        <time>2017-04-17T18:46:35.000Z</time>
      </trkpt>
      <trkpt lat="48.85381" lon="2.29922">
        <ele>42.599998474121</ele>
        <time>2017-04-17T18:46:43.000Z</time>
      </trkpt>
      <trkpt lat="48.85373" lon="2.29895">
        <ele>43.799999237061</ele>
        <time>2017-04-17T18:46:51.000Z</time>
      </trkpt>
      <trkpt lat="48.85361" lon="2.29872">
        <ele>46</ele>
        <time>2017-04-17T18:46:57.000Z</time>
      </trkpt>
      <trkpt lat="48.85347" lon="2.29853">
        <ele>46.599998474121</ele>
        <time>2017-04-17T18:47:03.000Z</time>
      </trkpt>
      <trkpt lat="48.8533" lon="2.2984">
        <ele>46</ele>
        <time>2017-04-17T18:47:08.000Z</time>
      </trkpt>
      <trkpt lat="48.85315" lon="2.2982">
        <ele>44.799999237061</ele>
        <time>2017-04-17T18:47:14.000Z</time>
      </trkpt>
      <trkpt lat="48.85316" lon="2.2981">
        <ele>44.200000762939</ele>
        <time>2017-04-17T18:47:17.000Z</time>
      </trkpt>
      <trkpt lat="48.85328" lon="2.29788">
        <ele>44.400001525879</ele>
        <time>2017-04-17T18:47:43.000Z</time>
      </trkpt>
      <trkpt lat="48.8534" lon="2.29767">
        <ele>46</ele>
        <time>2017-04-17T18:47:47.000Z</time>
      </trkpt>
      <trkpt lat="48.85349" lon="2.29752">
        <ele>47</ele>
        <time>2017-04-17T18:47:51.000Z</time>
      </trkpt>
      <trkpt lat="48.85334" lon="2.29733">
        <ele>45.200000762939</ele>
        <time>2017-04-17T18:47:57.000Z</time>
      </trkpt>
      <trkpt lat="48.85331" lon="2.2973">
        <ele>45</ele>
        <time>2017-04-17T18:47:58.000Z</time>
      </trkpt>
      <trkpt lat="48.85315" lon="2.29724">
        <ele>42.799999237061</ele>
        <time>2017-04-17T18:48:04.000Z</time>
      </trkpt>
      <trkpt lat="48.85302" lon="2.29733">
        <ele>41</ele>
        <time>2017-04-17T18:48:09.000Z</time>
      </trkpt>
      <trkpt lat="48.8529" lon="2.29716">
        <ele>39.599998474121</ele>
        <time>2017-04-17T18:48:16.000Z</time>
      </trkpt>
      <trkpt lat="48.85271" lon="2.297">
        <ele>37.599998474121</ele>
        <time>2017-04-17T18:48:21.000Z</time>
      </trkpt>
      <trkpt lat="48.85255" lon="2.29685">
        <ele>38.200000762939</ele>
        <time>2017-04-17T18:48:27.000Z</time>
      </trkpt>
      <trkpt lat="48.85235" lon="2.29669">
        <ele>38.799999237061</ele>
        <time>2017-04-17T18:48:32.000Z</time>
      </trkpt>
      <trkpt lat="48.85208" lon="2.29652">
        <ele>40</ele>
        <time>2017-04-17T18:48:36.000Z</time>
      </trkpt>
      <trkpt lat="48.85191" lon="2.2964">
        <ele>40.799999237061</ele>
        <time>2017-04-17T18:48:37.000Z</time>
      </trkpt>
      <trkpt lat="48.85176" lon="2.29624">
        <ele>41</ele>
        <time>2017-04-17T18:48:40.000Z</time>
      </trkpt>
      <trkpt lat="48.85159" lon="2.29606">
        <ele>41.400001525879</ele>
        <time>2017-04-17T18:48:45.000Z</time>
      </trkpt>
      <trkpt lat="48.85143" lon="2.29589">
        <ele>41.599998474121</ele>
        <time>2017-04-17T18:48:52.000Z</time>
      </trkpt>
      <trkpt lat="48.85131" lon="2.29569">
        <ele>41.599998474121</ele>
        <time>2017-04-17T18:48:56.000Z</time>
      </trkpt>
      <trkpt lat="48.85122" lon="2.29548">
        <ele>41.400001525879</ele>
        <time>2017-04-17T18:49:00.000Z</time>
      </trkpt>
      <trkpt lat="48.85117" lon="2.29531">
        <ele>41.200000762939</ele>
        <time>2017-04-17T18:49:04.000Z</time>
      </trkpt>
      <trkpt lat="48.85116" lon="2.29516">
        <ele>41.200000762939</ele>
        <time>2017-04-17T18:49:08.000Z</time>
      </trkpt>
      <trkpt lat="48.85125" lon="2.29502">
        <ele>40.599998474121</ele>
        <time>2017-04-17T18:49:16.000Z</time>
      </trkpt>
      <trkpt lat="48.85126" lon="2.29501">
        <ele>40.599998474121</ele>
        <time>2017-04-17T18:49:17.000Z</time>
      </trkpt>
      <trkpt lat="48.85132" lon="2.29473">
        <ele>40.599998474121</ele>
        <time>2017-04-17T18:49:30.000Z</time>
      </trkpt>
      <trkpt lat="48.85139" lon="2.29447">
        <ele>41</ele>
        <time>2017-04-17T18:49:36.000Z</time>
      </trkpt>
      <trkpt lat="48.85143" lon="2.29417">
        <ele>42</ele>
        <time>2017-04-17T18:49:43.000Z</time>
      </trkpt>
      <trkpt lat="48.85144" lon="2.29385">
        <ele>41.799999237061</ele>
        <time>2017-04-17T18:49:49.000Z</time>
      </trkpt>
      <trkpt lat="48.85148" lon="2.29357">
        <ele>42</ele>
        <time>2017-04-17T18:49:54.000Z</time>
      </trkpt>
      <trkpt lat="48.8515" lon="2.29326">
        <ele>43</ele>
        <time>2017-04-17T18:49:59.000Z</time>
      </trkpt>
      <trkpt lat="48.85156" lon="2.29296">
        <ele>42</ele>
        <time>2017-04-17T18:50:04.000Z</time>
      </trkpt>
      <trkpt lat="48.85159" lon="2.29264">
        <ele>41.799999237061</ele>
        <time>2017-04-17T18:50:09.000Z</time>
      </trkpt>
      <trkpt lat="48.85161" lon="2.29236">
        <ele>41.599998474121</ele>
        <time>2017-04-17T18:50:13.000Z</time>
      </trkpt>
      <trkpt lat="48.85163" lon="2.29209">
        <ele>41.400001525879</ele>
        <time>2017-04-17T18:50:18.000Z</time>
      </trkpt>
      <trkpt lat="48.85159" lon="2.29197">
        <ele>41</ele>
        <time>2017-04-17T18:50:21.000Z</time>
      </trkpt>
      <trkpt lat="48.85164" lon="2.29178">
        <ele>40.799999237061</ele>
        <time>2017-04-17T18:50:26.000Z</time>
      </trkpt>
      <trkpt lat="48.85166" lon="2.29138">
        <ele>40.400001525879</ele>
        <time>2017-04-17T18:50:39.000Z</time>
      </trkpt>
      <trkpt lat="48.8518" lon="2.29115">
        <ele>39.400001525879</ele>
        <time>2017-04-17T18:50:45.000Z</time>
      </trkpt>
      <trkpt lat="48.85196" lon="2.29095">
        <ele>38.799999237061</ele>
        <time>2017-04-17T18:50:50.000Z</time>
      </trkpt>
      <trkpt lat="48.85212" lon="2.29081">
        <ele>39.200000762939</ele>
        <time>2017-04-17T18:50:55.000Z</time>
      </trkpt>
      <trkpt lat="48.8523" lon="2.29067">
        <ele>39.799999237061</ele>
        <time>2017-04-17T18:51:01.000Z</time>
      </trkpt>
      <trkpt lat="48.85247" lon="2.29052">
        <ele>40.400001525879</ele>
        <time>2017-04-17T18:51:05.000Z</time>
      </trkpt>
      <trkpt lat="48.85262" lon="2.29035">
        <ele>40.200000762939</ele>
        <time>2017-04-17T18:51:10.000Z</time>
      </trkpt>
      <trkpt lat="48.85279" lon="2.29015">
        <ele>39.799999237061</ele>
        <time>2017-04-17T18:51:15.000Z</time>
      </trkpt>
      <trkpt lat="48.85296" lon="2.28999">
        <ele>39.599998474121</ele>
        <time>2017-04-17T18:51:19.000Z</time>
      </trkpt>
      <trkpt lat="48.85315" lon="2.28988">
        <ele>40.200000762939</ele>
        <time>2017-04-17T18:51:22.000Z</time>
      </trkpt>
      <trkpt lat="48.85336" lon="2.28976">
        <ele>40.799999237061</ele>
        <time>2017-04-17T18:51:25.000Z</time>
      </trkpt>
      <trkpt lat="48.85356" lon="2.28961">
        <ele>41.799999237061</ele>
        <time>2017-04-17T18:51:28.000Z</time>
      </trkpt>
      <trkpt lat="48.85371" lon="2.28948">
        <ele>42.400001525879</ele>
        <time>2017-04-17T18:51:31.000Z</time>
      </trkpt>
      <trkpt lat="48.85382" lon="2.28931">
        <ele>42.799999237061</ele>
        <time>2017-04-17T18:51:34.000Z</time>
      </trkpt>
      <trkpt lat="48.85396" lon="2.28906">
        <ele>43.200000762939</ele>
        <time>2017-04-17T18:51:39.000Z</time>
      </trkpt>
      <trkpt lat="48.8541" lon="2.28882">
        <ele>42.799999237061</ele>
        <time>2017-04-17T18:51:47.000Z</time>
      </trkpt>
      <trkpt lat="48.85414" lon="2.28881">
        <ele>42.799999237061</ele>
        <time>2017-04-17T18:51:50.000Z</time>
      </trkpt>
      <trkpt lat="48.85428" lon="2.28899">
        <ele>43.400001525879</ele>
        <time>2017-04-17T18:52:06.000Z</time>
      </trkpt>
      <trkpt lat="48.85434" lon="2.28904">
        <ele>43.599998474121</ele>
        <time>2017-04-17T18:52:11.000Z</time>
      </trkpt>
      <trkpt lat="48.85442" lon="2.28896">
        <ele>43.200000762939</ele>
        <time>2017-04-17T18:52:21.000Z</time>
      </trkpt>
      <trkpt lat="48.85442" lon="2.28882">
        <ele>42.799999237061</ele>
        <time>2017-04-17T18:52:25.000Z</time>
      </trkpt>
      <trkpt lat="48.8543" lon="2.28862">
        <ele>42.200000762939</ele>
        <time>2017-04-17T18:52:34.000Z</time>
      </trkpt>
      <trkpt lat="48.85427" lon="2.28858">
        <ele>42</ele>
        <time>2017-04-17T18:52:35.000Z</time>
      </trkpt>
      <trkpt lat="48.85415" lon="2.28836">
        <ele>41.200000762939</ele>
        <time>2017-04-17T18:52:39.000Z</time>
      </trkpt>
      <trkpt lat="48.85411" lon="2.28829">
        <ele>41</ele>
        <time>2017-04-17T18:52:40.000Z</time>
      </trkpt>
      <trkpt lat="48.85399" lon="2.28809">
        <ele>40.799999237061</ele>
        <time>2017-04-17T18:52:43.000Z</time>
      </trkpt>
      <trkpt lat="48.85382" lon="2.28785">
        <ele>40.400001525879</ele>
        <time>2017-04-17T18:52:46.000Z</time>
      </trkpt>
      <trkpt lat="48.85367" lon="2.2876">
        <ele>40.200000762939</ele>
        <time>2017-04-17T18:52:49.000Z</time>
      </trkpt>
      <trkpt lat="48.85353" lon="2.28737">
        <ele>39.599998474121</ele>
        <time>2017-04-17T18:52:52.000Z</time>
      </trkpt>
      <trkpt lat="48.85339" lon="2.28714">
        <ele>38.799999237061</ele>
        <time>2017-04-17T18:52:55.000Z</time>
      </trkpt>
      <trkpt lat="48.85326" lon="2.28692">
        <ele>38.200000762939</ele>
        <time>2017-04-17T18:52:58.000Z</time>
      </trkpt>
      <trkpt lat="48.85312" lon="2.2867">
        <ele>37.599998474121</ele>
        <time>2017-04-17T18:53:01.000Z</time>
      </trkpt>
      <trkpt lat="48.85293" lon="2.28647">
        <ele>37.400001525879</ele>
        <time>2017-04-17T18:53:04.000Z</time>
      </trkpt>
      <trkpt lat="48.85276" lon="2.2863">
        <ele>37.599998474121</ele>
        <time>2017-04-17T18:53:06.000Z</time>
      </trkpt>
      <trkpt lat="48.85261" lon="2.28611">
        <ele>38.400001525879</ele>
        <time>2017-04-17T18:53:08.000Z</time>
      </trkpt>
      <trkpt lat="48.85242" lon="2.28585">
        <ele>39.799999237061</ele>
        <time>2017-04-17T18:53:11.000Z</time>
      </trkpt>
      <trkpt lat="48.85227" lon="2.28558">
        <ele>38.200000762939</ele>
        <time>2017-04-17T18:53:14.000Z</time>
      </trkpt>
      <trkpt lat="48.8521" lon="2.28531">
        <ele>36</ele>
        <time>2017-04-17T18:53:17.000Z</time>
      </trkpt>
      <trkpt lat="48.85194" lon="2.28502">
        <ele>33.400001525879</ele>
        <time>2017-04-17T18:53:20.000Z</time>
      </trkpt>
      <trkpt lat="48.85175" lon="2.28485">
        <ele>33.200000762939</ele>
        <time>2017-04-17T18:53:22.000Z</time>
      </trkpt>
      <trkpt lat="48.85161" lon="2.28467">
        <ele>33.200000762939</ele>
        <time>2017-04-17T18:53:24.000Z</time>
      </trkpt>
      <trkpt lat="48.85147" lon="2.28447">
        <ele>33.200000762939</ele>
        <time>2017-04-17T18:53:26.000Z</time>
      </trkpt>
      <trkpt lat="48.85134" lon="2.28428">
        <ele>33</ele>
        <time>2017-04-17T18:53:28.000Z</time>
      </trkpt>
      <trkpt lat="48.85111" lon="2.28399">
        <ele>33</ele>
        <time>2017-04-17T18:53:31.000Z</time>
      </trkpt>
      <trkpt lat="48.85095" lon="2.2838">
        <ele>33.799999237061</ele>
        <time>2017-04-17T18:53:33.000Z</time>
      </trkpt>
      <trkpt lat="48.85076" lon="2.28351">
        <ele>34.599998474121</ele>
        <time>2017-04-17T18:53:36.000Z</time>
      </trkpt>
      <trkpt lat="48.85059" lon="2.28323">
        <ele>35</ele>
        <time>2017-04-17T18:53:39.000Z</time>
      </trkpt>
      <trkpt lat="48.85041" lon="2.28298">
        <ele>34.799999237061</ele>
        <time>2017-04-17T18:53:42.000Z</time>
      </trkpt>
      <trkpt lat="48.85026" lon="2.28275">
        <ele>34.400001525879</ele>
        <time>2017-04-17T18:53:45.000Z</time>
      </trkpt>
      <trkpt lat="48.85012" lon="2.28253">
        <ele>33.200000762939</ele>
        <time>2017-04-17T18:53:48.000Z</time>
      </trkpt>
      <trkpt lat="48.84997" lon="2.28231">
        <ele>32.400001525879</ele>
        <time>2017-04-17T18:53:51.000Z</time>
      </trkpt>
      <trkpt lat="48.84982" lon="2.28213">
        <ele>32</ele>
        <time>2017-04-17T18:53:54.000Z</time>
      </trkpt>
      <trkpt lat="48.84969" lon="2.28195">
        <ele>31.39999961853</ele>
        <time>2017-04-17T18:53:57.000Z</time>
      </trkpt>
      <trkpt lat="48.84953" lon="2.28173">
        <ele>31</ele>
        <time>2017-04-17T18:54:01.000Z</time>
      </trkpt>
      <trkpt lat="48.8495" lon="2.28168">
        <ele>30.799999237061</ele>
        <time>2017-04-17T18:54:02.000Z</time>
      </trkpt>
      <trkpt lat="48.84945" lon="2.28158">
        <ele>30.799999237061</ele>
        <time>2017-04-17T18:54:07.000Z</time>
      </trkpt>
      <trkpt lat="48.84945" lon="2.28131">
        <ele>31.200000762939</ele>
        <time>2017-04-17T18:55:00.000Z</time>
      </trkpt>
      <trkpt lat="48.84961" lon="2.2811">
        <ele>30.799999237061</ele>
        <time>2017-04-17T18:55:08.000Z</time>
      </trkpt>
      <trkpt lat="48.84977" lon="2.28093">
        <ele>29.39999961853</ele>
        <time>2017-04-17T18:55:12.000Z</time>
      </trkpt>
      <trkpt lat="48.84992" lon="2.28071">
        <ele>27.60000038147</ele>
        <time>2017-04-17T18:55:15.000Z</time>
      </trkpt>
      <trkpt lat="48.84999" lon="2.28064">
        <ele>27</ele>
        <time>2017-04-17T18:55:16.000Z</time>
      </trkpt>
      <trkpt lat="48.85015" lon="2.2804">
        <ele>27.60000038147</ele>
        <time>2017-04-17T18:55:19.000Z</time>
      </trkpt>
      <trkpt lat="48.8503" lon="2.28018">
        <ele>29.39999961853</ele>
        <time>2017-04-17T18:55:22.000Z</time>
      </trkpt>
      <trkpt lat="48.85044" lon="2.27995">
        <ele>29.60000038147</ele>
        <time>2017-04-17T18:55:25.000Z</time>
      </trkpt>
      <trkpt lat="48.85058" lon="2.27973">
        <ele>30.60000038147</ele>
        <time>2017-04-17T18:55:28.000Z</time>
      </trkpt>
      <trkpt lat="48.85072" lon="2.27948">
        <ele>31.60000038147</ele>
        <time>2017-04-17T18:55:31.000Z</time>
      </trkpt>
      <trkpt lat="48.85085" lon="2.27927">
        <ele>32</ele>
        <time>2017-04-17T18:55:34.000Z</time>
      </trkpt>
      <trkpt lat="48.85102" lon="2.27903">
        <ele>32.400001525879</ele>
        <time>2017-04-17T18:55:38.000Z</time>
      </trkpt>
      <trkpt lat="48.85109" lon="2.27895">
        <ele>33.200000762939</ele>
        <time>2017-04-17T18:55:40.000Z</time>
      </trkpt>
      <trkpt lat="48.85119" lon="2.27876">
        <ele>34.799999237061</ele>
        <time>2017-04-17T18:55:45.000Z</time>
      </trkpt>
      <trkpt lat="48.85133" lon="2.27864">
        <ele>36.200000762939</ele>
        <time>2017-04-17T18:55:51.000Z</time>
      </trkpt>
      <trkpt lat="48.85132" lon="2.27863">
        <ele>36.200000762939</ele>
        <time>2017-04-17T18:55:52.000Z</time>
      </trkpt>
      <trkpt lat="48.8513" lon="2.27863">
        <ele>36.200000762939</ele>
        <time>2017-04-17T18:55:55.000Z</time>
      </trkpt>
      <trkpt lat="48.85144" lon="2.2785">
        <ele>36.799999237061</ele>
        <time>2017-04-17T18:56:32.000Z</time>
      </trkpt>
      <trkpt lat="48.85145" lon="2.27835">
        <ele>37</ele>
        <time>2017-04-17T18:56:39.000Z</time>
      </trkpt>
      <trkpt lat="48.85131" lon="2.27817">
        <ele>37</ele>
        <time>2017-04-17T18:56:45.000Z</time>
      </trkpt>
      <trkpt lat="48.85127" lon="2.27813">
        <ele>37</ele>
        <time>2017-04-17T18:56:46.000Z</time>
      </trkpt>
      <trkpt lat="48.8511" lon="2.27792">
        <ele>37</ele>
        <time>2017-04-17T18:56:50.000Z</time>
      </trkpt>
      <trkpt lat="48.85095" lon="2.27774">
        <ele>37</ele>
        <time>2017-04-17T18:56:53.000Z</time>
      </trkpt>
      <trkpt lat="48.85081" lon="2.27752">
        <ele>37</ele>
        <time>2017-04-17T18:56:57.000Z</time>
      </trkpt>
      <trkpt lat="48.85064" lon="2.2773">
        <ele>38.400001525879</ele>
        <time>2017-04-17T18:57:01.000Z</time>
      </trkpt>
      <trkpt lat="48.85052" lon="2.27708">
        <ele>40.200000762939</ele>
        <time>2017-04-17T18:57:04.000Z</time>
      </trkpt>
      <trkpt lat="48.85036" lon="2.27683">
        <ele>42.400001525879</ele>
        <time>2017-04-17T18:57:07.000Z</time>
      </trkpt>
      <trkpt lat="48.85019" lon="2.27661">
        <ele>44.200000762939</ele>
        <time>2017-04-17T18:57:10.000Z</time>
      </trkpt>
      <trkpt lat="48.84999" lon="2.27643">
        <ele>45</ele>
        <time>2017-04-17T18:57:14.000Z</time>
      </trkpt>
      <trkpt lat="48.8498" lon="2.27633">
        <ele>45.599998474121</ele>
        <time>2017-04-17T18:57:18.000Z</time>
      </trkpt>
      <trkpt lat="48.84976" lon="2.2763">
        <ele>45.799999237061</ele>
        <time>2017-04-17T18:57:19.000Z</time>
      </trkpt>
      <trkpt lat="48.84958" lon="2.2761">
        <ele>46.599998474121</ele>
        <time>2017-04-17T18:57:25.000Z</time>
      </trkpt>
      <trkpt lat="48.84942" lon="2.27595">
        <ele>47.400001525879</ele>
        <time>2017-04-17T18:57:29.000Z</time>
      </trkpt>
      <trkpt lat="48.84924" lon="2.27575">
        <ele>47.599998474121</ele>
        <time>2017-04-17T18:57:33.000Z</time>
      </trkpt>
      <trkpt lat="48.84907" lon="2.27557">
        <ele>47.200000762939</ele>
        <time>2017-04-17T18:57:37.000Z</time>
      </trkpt>
      <trkpt lat="48.84889" lon="2.27538">
        <ele>46.799999237061</ele>
        <time>2017-04-17T18:57:41.000Z</time>
      </trkpt>
      <trkpt lat="48.8487" lon="2.27521">
        <ele>46.400001525879</ele>
        <time>2017-04-17T18:57:46.000Z</time>
      </trkpt>
      <trkpt lat="48.84853" lon="2.27503">
        <ele>46</ele>
        <time>2017-04-17T18:57:50.000Z</time>
      </trkpt>
      <trkpt lat="48.84834" lon="2.27487">
        <ele>45.200000762939</ele>
        <time>2017-04-17T18:57:55.000Z</time>
      </trkpt>
      <trkpt lat="48.84816" lon="2.27468">
        <ele>44.400001525879</ele>
        <time>2017-04-17T18:57:59.000Z</time>
      </trkpt>
      <trkpt lat="48.84788" lon="2.2744">
        <ele>43</ele>
        <time>2017-04-17T18:58:00.000Z</time>
      </trkpt>
      <trkpt lat="48.84772" lon="2.27422">
        <ele>42.200000762939</ele>
        <time>2017-04-17T18:58:02.000Z</time>
      </trkpt>
      <trkpt lat="48.84758" lon="2.27396">
        <ele>41.799999237061</ele>
        <time>2017-04-17T18:58:06.000Z</time>
      </trkpt>
      <trkpt lat="48.84754" lon="2.27389">
        <ele>41.799999237061</ele>
        <time>2017-04-17T18:58:08.000Z</time>
      </trkpt>
      <trkpt lat="48.84755" lon="2.27382">
        <ele>42</ele>
        <time>2017-04-17T18:58:10.000Z</time>
      </trkpt>
      <trkpt lat="48.84758" lon="2.27374">
        <ele>42.599998474121</ele>
        <time>2017-04-17T18:58:16.000Z</time>
      </trkpt>
      <trkpt lat="48.84761" lon="2.27363">
        <ele>43.200000762939</ele>
        <time>2017-04-17T18:58:26.000Z</time>
      </trkpt>
      <trkpt lat="48.84744" lon="2.2735">
        <ele>42.599998474121</ele>
        <time>2017-04-17T18:58:41.000Z</time>
      </trkpt>
      <trkpt lat="48.84724" lon="2.27335">
        <ele>42</ele>
        <time>2017-04-17T18:58:48.000Z</time>
      </trkpt>
      <trkpt lat="48.84704" lon="2.27321">
        <ele>41.400001525879</ele>
        <time>2017-04-17T18:58:52.000Z</time>
      </trkpt>
      <trkpt lat="48.84685" lon="2.27306">
        <ele>41</ele>
        <time>2017-04-17T18:58:56.000Z</time>
      </trkpt>
      <trkpt lat="48.84668" lon="2.27293">
        <ele>40</ele>
        <time>2017-04-17T18:58:59.000Z</time>
      </trkpt>
      <trkpt lat="48.84649" lon="2.27277">
        <ele>38.799999237061</ele>
        <time>2017-04-17T18:59:03.000Z</time>
      </trkpt>
      <trkpt lat="48.84628" lon="2.27257">
        <ele>37.799999237061</ele>
        <time>2017-04-17T18:59:07.000Z</time>
      </trkpt>
      <trkpt lat="48.84606" lon="2.27235">
        <ele>37.200000762939</ele>
        <time>2017-04-17T18:59:10.000Z</time>
      </trkpt>
      <trkpt lat="48.84586" lon="2.27217">
        <ele>38.400001525879</ele>
        <time>2017-04-17T18:59:12.000Z</time>
      </trkpt>
      <trkpt lat="48.84571" lon="2.27195">
        <ele>40.200000762939</ele>
        <time>2017-04-17T18:59:15.000Z</time>
      </trkpt>
      <trkpt lat="48.84564" lon="2.27184">
        <ele>41.200000762939</ele>
        <time>2017-04-17T18:59:18.000Z</time>
      </trkpt>
      <trkpt lat="48.84561" lon="2.27179">
        <ele>41.599998474121</ele>
        <time>2017-04-17T18:59:20.000Z</time>
      </trkpt>
      <trkpt lat="48.84545" lon="2.27161">
        <ele>42.799999237061</ele>
        <time>2017-04-17T18:59:29.000Z</time>
      </trkpt>
      <trkpt lat="48.84529" lon="2.27148">
        <ele>41.799999237061</ele>
        <time>2017-04-17T18:59:33.000Z</time>
      </trkpt>
      <trkpt lat="48.8451" lon="2.27131">
        <ele>42.200000762939</ele>
        <time>2017-04-17T18:59:37.000Z</time>
      </trkpt>
      <trkpt lat="48.84491" lon="2.27111">
        <ele>43</ele>
        <time>2017-04-17T18:59:41.000Z</time>
      </trkpt>
      <trkpt lat="48.84471" lon="2.27094">
        <ele>44</ele>
        <time>2017-04-17T18:59:45.000Z</time>
      </trkpt>
      <trkpt lat="48.84453" lon="2.27083">
        <ele>45</ele>
        <time>2017-04-17T18:59:48.000Z</time>
      </trkpt>
      <trkpt lat="48.84436" lon="2.2707">
        <ele>46</ele>
        <time>2017-04-17T18:59:51.000Z</time>
      </trkpt>
      <trkpt lat="48.84416" lon="2.27056">
        <ele>46.200000762939</ele>
        <time>2017-04-17T18:59:54.000Z</time>
      </trkpt>
      <trkpt lat="48.84397" lon="2.27046">
        <ele>46.400001525879</ele>
        <time>2017-04-17T18:59:57.000Z</time>
      </trkpt>
      <trkpt lat="48.8438" lon="2.27029">
        <ele>46.599998474121</ele>
        <time>2017-04-17T19:00:01.000Z</time>
      </trkpt>
      <trkpt lat="48.84362" lon="2.27014">
        <ele>46.799999237061</ele>
        <time>2017-04-17T19:00:05.000Z</time>
      </trkpt>
      <trkpt lat="48.84343" lon="2.26994">
        <ele>46</ele>
        <time>2017-04-17T19:00:09.000Z</time>
      </trkpt>
      <trkpt lat="48.8433" lon="2.26974">
        <ele>45.799999237061</ele>
        <time>2017-04-17T19:00:12.000Z</time>
      </trkpt>
      <trkpt lat="48.84313" lon="2.2695">
        <ele>45.400001525879</ele>
        <time>2017-04-17T19:00:15.000Z</time>
      </trkpt>
      <trkpt lat="48.84297" lon="2.26928">
        <ele>44.599998474121</ele>
        <time>2017-04-17T19:00:18.000Z</time>
      </trkpt>
      <trkpt lat="48.84283" lon="2.26907">
        <ele>44</ele>
        <time>2017-04-17T19:00:21.000Z</time>
      </trkpt>
      <trkpt lat="48.8427" lon="2.26879">
        <ele>44.200000762939</ele>
        <time>2017-04-17T19:00:25.000Z</time>
      </trkpt>
      <trkpt lat="48.84256" lon="2.26854">
        <ele>43.400001525879</ele>
        <time>2017-04-17T19:00:27.000Z</time>
      </trkpt>
      <trkpt lat="48.84242" lon="2.26824">
        <ele>42.799999237061</ele>
        <time>2017-04-17T19:00:29.000Z</time>
      </trkpt>
      <trkpt lat="48.84229" lon="2.26792">
        <ele>43.599998474121</ele>
        <time>2017-04-17T19:00:32.000Z</time>
      </trkpt>
      <trkpt lat="48.84212" lon="2.26762">
        <ele>43.200000762939</ele>
        <time>2017-04-17T19:00:35.000Z</time>
      </trkpt>
      <trkpt lat="48.84196" lon="2.26734">
        <ele>43</ele>
        <time>2017-04-17T19:00:38.000Z</time>
      </trkpt>
      <trkpt lat="48.8418" lon="2.26707">
        <ele>43.799999237061</ele>
        <time>2017-04-17T19:00:41.000Z</time>
      </trkpt>
      <trkpt lat="48.84165" lon="2.26681">
        <ele>44.200000762939</ele>
        <time>2017-04-17T19:00:44.000Z</time>
      </trkpt>
      <trkpt lat="48.84151" lon="2.26658">
        <ele>44.599998474121</ele>
        <time>2017-04-17T19:00:47.000Z</time>
      </trkpt>
      <trkpt lat="48.8414" lon="2.26631">
        <ele>44.799999237061</ele>
        <time>2017-04-17T19:00:50.000Z</time>
      </trkpt>
      <trkpt lat="48.8413" lon="2.26608">
        <ele>45</ele>
        <time>2017-04-17T19:00:53.000Z</time>
      </trkpt>
      <trkpt lat="48.84119" lon="2.26583">
        <ele>44.799999237061</ele>
        <time>2017-04-17T19:00:57.000Z</time>
      </trkpt>
      <trkpt lat="48.84113" lon="2.26574">
        <ele>45</ele>
        <time>2017-04-17T19:00:59.000Z</time>
      </trkpt>
      <trkpt lat="48.84103" lon="2.26557">
        <ele>45.200000762939</ele>
        <time>2017-04-17T19:01:07.000Z</time>
      </trkpt>
      <trkpt lat="48.84104" lon="2.26558">
        <ele>45</ele>
        <time>2017-04-17T19:01:17.000Z</time>
      </trkpt>
      <trkpt lat="48.84106" lon="2.26563">
        <ele>45</ele>
        <time>2017-04-17T19:02:38.000Z</time>
      </trkpt>
      <trkpt lat="48.84095" lon="2.26549">
        <ele>45.400001525879</ele>
        <time>2017-04-17T19:03:14.000Z</time>
      </trkpt>
      <trkpt lat="48.84099" lon="2.26535">
        <ele>45.400001525879</ele>
        <time>2017-04-17T19:03:27.000Z</time>
      </trkpt>
      <trkpt lat="48.84088" lon="2.2651">
        <ele>45.799999237061</ele>
        <time>2017-04-17T19:03:42.000Z</time>
      </trkpt>
      <trkpt lat="48.84074" lon="2.2649">
        <ele>46.200000762939</ele>
        <time>2017-04-17T19:03:46.000Z</time>
      </trkpt>
      <trkpt lat="48.84058" lon="2.2647">
        <ele>46</ele>
        <time>2017-04-17T19:03:51.000Z</time>
      </trkpt>
      <trkpt lat="48.84043" lon="2.26451">
        <ele>45.799999237061</ele>
        <time>2017-04-17T19:03:55.000Z</time>
      </trkpt>
      <trkpt lat="48.84031" lon="2.26422">
        <ele>45</ele>
        <time>2017-04-17T19:03:58.000Z</time>
      </trkpt>
      <trkpt lat="48.84017" lon="2.26396">
        <ele>45</ele>
        <time>2017-04-17T19:04:01.000Z</time>
      </trkpt>
      <trkpt lat="48.83996" lon="2.26363">
        <ele>45</ele>
        <time>2017-04-17T19:04:04.000Z</time>
      </trkpt>
      <trkpt lat="48.83982" lon="2.26332">
        <ele>45</ele>
        <time>2017-04-17T19:04:07.000Z</time>
      </trkpt>
      <trkpt lat="48.83971" lon="2.26306">
        <ele>45.599998474121</ele>
        <time>2017-04-17T19:04:10.000Z</time>
      </trkpt>
      <trkpt lat="48.83963" lon="2.2628">
        <ele>46</ele>
        <time>2017-04-17T19:04:13.000Z</time>
      </trkpt>
      <trkpt lat="48.83954" lon="2.26246">
        <ele>47.200000762939</ele>
        <time>2017-04-17T19:04:17.000Z</time>
      </trkpt>
      <trkpt lat="48.83946" lon="2.2622">
        <ele>46.200000762939</ele>
        <time>2017-04-17T19:04:20.000Z</time>
      </trkpt>
      <trkpt lat="48.83936" lon="2.26196">
        <ele>45.200000762939</ele>
        <time>2017-04-17T19:04:23.000Z</time>
      </trkpt>
      <trkpt lat="48.83929" lon="2.2617">
        <ele>44.200000762939</ele>
        <time>2017-04-17T19:04:26.000Z</time>
      </trkpt>
      <trkpt lat="48.83921" lon="2.26146">
        <ele>44.400001525879</ele>
        <time>2017-04-17T19:04:29.000Z</time>
      </trkpt>
      <trkpt lat="48.83912" lon="2.26119">
        <ele>45</ele>
        <time>2017-04-17T19:04:32.000Z</time>
      </trkpt>
      <trkpt lat="48.83903" lon="2.26085">
        <ele>45.799999237061</ele>
        <time>2017-04-17T19:04:35.000Z</time>
      </trkpt>
      <trkpt lat="48.83894" lon="2.26055">
        <ele>45.799999237061</ele>
        <time>2017-04-17T19:04:38.000Z</time>
      </trkpt>
      <trkpt lat="48.83886" lon="2.26025">
        <ele>45.400001525879</ele>
        <time>2017-04-17T19:04:41.000Z</time>
      </trkpt>
      <trkpt lat="48.8388" lon="2.26004">
        <ele>45</ele>
        <time>2017-04-17T19:04:43.000Z</time>
      </trkpt>
      <trkpt lat="48.83873" lon="2.25975">
        <ele>44.200000762939</ele>
        <time>2017-04-17T19:04:46.000Z</time>
      </trkpt>
      <trkpt lat="48.83865" lon="2.25947">
        <ele>43.200000762939</ele>
        <time>2017-04-17T19:04:49.000Z</time>
      </trkpt>
      <trkpt lat="48.83856" lon="2.25921">
        <ele>42.200000762939</ele>
        <time>2017-04-17T19:04:52.000Z</time>
      </trkpt>
      <trkpt lat="48.83846" lon="2.25896">
        <ele>42.200000762939</ele>
        <time>2017-04-17T19:04:55.000Z</time>
      </trkpt>
      <trkpt lat="48.8384" lon="2.25875">
        <ele>42.400001525879</ele>
        <time>2017-04-17T19:04:58.000Z</time>
      </trkpt>
      <trkpt lat="48.83831" lon="2.25845">
        <ele>42.599998474121</ele>
        <time>2017-04-17T19:05:02.000Z</time>
      </trkpt>
      <trkpt lat="48.83825" lon="2.25813">
        <ele>41.799999237061</ele>
        <time>2017-04-17T19:05:06.000Z</time>
      </trkpt>
      <trkpt lat="48.8382" lon="2.2578">
        <ele>40.400001525879</ele>
        <time>2017-04-17T19:05:10.000Z</time>
      </trkpt>
      <trkpt lat="48.83818" lon="2.2576">
        <ele>39.799999237061</ele>
        <time>2017-04-17T19:05:15.000Z</time>
      </trkpt>
      <trkpt lat="48.83828" lon="2.25765">
        <ele>40.200000762939</ele>
        <time>2017-04-17T19:06:09.000Z</time>
      </trkpt>
      <trkpt lat="48.8383" lon="2.25756">
        <ele>40</ele>
        <time>2017-04-17T19:06:45.000Z</time>
      </trkpt>
      <trkpt lat="48.83839" lon="2.25729">
        <ele>39.200000762939</ele>
        <time>2017-04-17T19:06:53.000Z</time>
      </trkpt>
      <trkpt lat="48.83843" lon="2.25699">
        <ele>39.799999237061</ele>
        <time>2017-04-17T19:06:59.000Z</time>
      </trkpt>
      <trkpt lat="48.83837" lon="2.25671">
        <ele>39.799999237061</ele>
        <time>2017-04-17T19:07:04.000Z</time>
      </trkpt>
      <trkpt lat="48.83824" lon="2.25647">
        <ele>39.200000762939</ele>
        <time>2017-04-17T19:07:09.000Z</time>
      </trkpt>
      <trkpt lat="48.83804" lon="2.25641">
        <ele>37.799999237061</ele>
        <time>2017-04-17T19:07:14.000Z</time>
      </trkpt>
      <trkpt lat="48.83784" lon="2.25645">
        <ele>36.799999237061</ele>
        <time>2017-04-17T19:07:18.000Z</time>
      </trkpt>
      <trkpt lat="48.83766" lon="2.25653">
        <ele>36</ele>
        <time>2017-04-17T19:07:22.000Z</time>
      </trkpt>
      <trkpt lat="48.83746" lon="2.25659">
        <ele>36.599998474121</ele>
        <time>2017-04-17T19:07:26.000Z</time>
      </trkpt>
      <trkpt lat="48.83737" lon="2.25657">
        <ele>36.599998474121</ele>
        <time>2017-04-17T19:07:28.000Z</time>
      </trkpt>
      <trkpt lat="48.8372" lon="2.25646">
        <ele>36.599998474121</ele>
        <time>2017-04-17T19:07:32.000Z</time>
      </trkpt>
      <trkpt lat="48.83701" lon="2.25631">
        <ele>36.599998474121</ele>
        <time>2017-04-17T19:07:37.000Z</time>
      </trkpt>
      <trkpt lat="48.83684" lon="2.25614">
        <ele>36.400001525879</ele>
        <time>2017-04-17T19:07:43.000Z</time>
      </trkpt>
      <trkpt lat="48.83682" lon="2.25611">
        <ele>36.400001525879</ele>
        <time>2017-04-17T19:07:44.000Z</time>
      </trkpt>
      <trkpt lat="48.83669" lon="2.25601">
        <ele>36.200000762939</ele>
        <time>2017-04-17T19:07:48.000Z</time>
      </trkpt>
      <trkpt lat="48.83666" lon="2.25598">
        <ele>36.200000762939</ele>
        <time>2017-04-17T19:07:49.000Z</time>
      </trkpt>
      <trkpt lat="48.83661" lon="2.25593">
        <ele>36.200000762939</ele>
        <time>2017-04-17T19:07:51.000Z</time>
      </trkpt>
      <trkpt lat="48.83641" lon="2.25587">
        <ele>36.400001525879</ele>
        <time>2017-04-17T19:07:57.000Z</time>
      </trkpt>
      <trkpt lat="48.8362" lon="2.25583">
        <ele>36.799999237061</ele>
        <time>2017-04-17T19:08:02.000Z</time>
      </trkpt>
      <trkpt lat="48.836" lon="2.25576">
        <ele>37</ele>
        <time>2017-04-17T19:08:06.000Z</time>
      </trkpt>
      <trkpt lat="48.83579" lon="2.25562">
        <ele>37.200000762939</ele>
        <time>2017-04-17T19:08:10.000Z</time>
      </trkpt>
      <trkpt lat="48.83561" lon="2.25553">
        <ele>37.400001525879</ele>
        <time>2017-04-17T19:08:13.000Z</time>
      </trkpt>
      <trkpt lat="48.83544" lon="2.25544">
        <ele>37.599998474121</ele>
        <time>2017-04-17T19:08:16.000Z</time>
      </trkpt>
      <trkpt lat="48.83526" lon="2.25532">
        <ele>37.799999237061</ele>
        <time>2017-04-17T19:08:20.000Z</time>
      </trkpt>
      <trkpt lat="48.83508" lon="2.25518">
        <ele>38.400001525879</ele>
        <time>2017-04-17T19:08:25.000Z</time>
      </trkpt>
      <trkpt lat="48.8349" lon="2.25505">
        <ele>39.200000762939</ele>
        <time>2017-04-17T19:08:29.000Z</time>
      </trkpt>
      <trkpt lat="48.83486" lon="2.255">
        <ele>39.200000762939</ele>
        <time>2017-04-17T19:08:30.000Z</time>
      </trkpt>
      <trkpt lat="48.83469" lon="2.25482">
        <ele>39.799999237061</ele>
        <time>2017-04-17T19:08:34.000Z</time>
      </trkpt>
      <trkpt lat="48.83451" lon="2.25468">
        <ele>40.599998474121</ele>
        <time>2017-04-17T19:08:38.000Z</time>
      </trkpt>
      <trkpt lat="48.83442" lon="2.25465">
        <ele>41</ele>
        <time>2017-04-17T19:08:40.000Z</time>
      </trkpt>
      <trkpt lat="48.83423" lon="2.25458">
        <ele>40.799999237061</ele>
        <time>2017-04-17T19:08:44.000Z</time>
      </trkpt>
      <trkpt lat="48.83403" lon="2.25452">
        <ele>40</ele>
        <time>2017-04-17T19:08:48.000Z</time>
      </trkpt>
      <trkpt lat="48.83381" lon="2.2545">
        <ele>39.200000762939</ele>
        <time>2017-04-17T19:08:53.000Z</time>
      </trkpt>
      <trkpt lat="48.83363" lon="2.25437">
        <ele>38.400001525879</ele>
        <time>2017-04-17T19:08:58.000Z</time>
      </trkpt>
      <trkpt lat="48.83351" lon="2.25431">
        <ele>38.200000762939</ele>
        <time>2017-04-17T19:09:02.000Z</time>
      </trkpt>
      <trkpt lat="48.83331" lon="2.25418">
        <ele>38.599998474121</ele>
        <time>2017-04-17T19:09:06.000Z</time>
      </trkpt>
      <trkpt lat="48.83313" lon="2.25402">
        <ele>38.799999237061</ele>
        <time>2017-04-17T19:09:09.000Z</time>
      </trkpt>
      <trkpt lat="48.83297" lon="2.25389">
        <ele>38.799999237061</ele>
        <time>2017-04-17T19:09:12.000Z</time>
      </trkpt>
      <trkpt lat="48.83279" lon="2.25376">
        <ele>39</ele>
        <time>2017-04-17T19:09:15.000Z</time>
      </trkpt>
      <trkpt lat="48.83261" lon="2.25363">
        <ele>38.599998474121</ele>
        <time>2017-04-17T19:09:18.000Z</time>
      </trkpt>
      <trkpt lat="48.83244" lon="2.25348">
        <ele>37.799999237061</ele>
        <time>2017-04-17T19:09:22.000Z</time>
      </trkpt>
      <trkpt lat="48.83229" lon="2.25329">
        <ele>37</ele>
        <time>2017-04-17T19:09:26.000Z</time>
      </trkpt>
      <trkpt lat="48.8322" lon="2.2532">
        <ele>36.599998474121</ele>
        <time>2017-04-17T19:09:28.000Z</time>
      </trkpt>
      <trkpt lat="48.83199" lon="2.25306">
        <ele>36</ele>
        <time>2017-04-17T19:09:33.000Z</time>
      </trkpt>
      <trkpt lat="48.83196" lon="2.25303">
        <ele>35.799999237061</ele>
        <time>2017-04-17T19:09:34.000Z</time>
      </trkpt>
      <trkpt lat="48.83177" lon="2.25289">
        <ele>35.799999237061</ele>
        <time>2017-04-17T19:09:39.000Z</time>
      </trkpt>
      <trkpt lat="48.8316" lon="2.25279">
        <ele>36</ele>
        <time>2017-04-17T19:09:44.000Z</time>
      </trkpt>
      <trkpt lat="48.8315" lon="2.25269">
        <ele>36.200000762939</ele>
        <time>2017-04-17T19:09:48.000Z</time>
      </trkpt>
      <trkpt lat="48.83143" lon="2.25259">
        <ele>36.200000762939</ele>
        <time>2017-04-17T19:09:53.000Z</time>
      </trkpt>
      <trkpt lat="48.83141" lon="2.25255">
        <ele>36.200000762939</ele>
        <time>2017-04-17T19:09:56.000Z</time>
      </trkpt>
      <trkpt lat="48.83138" lon="2.25259">
        <ele>36.400001525879</ele>
        <time>2017-04-17T19:10:07.000Z</time>
      </trkpt>
      <trkpt lat="48.83122" lon="2.25241">
        <ele>36.599998474121</ele>
        <time>2017-04-17T19:10:23.000Z</time>
      </trkpt>
      <trkpt lat="48.83104" lon="2.2523">
        <ele>37.200000762939</ele>
        <time>2017-04-17T19:10:28.000Z</time>
      </trkpt>
      <trkpt lat="48.83085" lon="2.25216">
        <ele>37.200000762939</ele>
        <time>2017-04-17T19:10:32.000Z</time>
      </trkpt>
      <trkpt lat="48.83066" lon="2.25201">
        <ele>37</ele>
        <time>2017-04-17T19:10:36.000Z</time>
      </trkpt>
      <trkpt lat="48.83044" lon="2.25193">
        <ele>36.799999237061</ele>
        <time>2017-04-17T19:10:41.000Z</time>
      </trkpt>
      <trkpt lat="48.83026" lon="2.25184">
        <ele>36.599998474121</ele>
        <time>2017-04-17T19:10:45.000Z</time>
      </trkpt>
      <trkpt lat="48.83006" lon="2.25173">
        <ele>36.799999237061</ele>
        <time>2017-04-17T19:10:49.000Z</time>
      </trkpt>
      <trkpt lat="48.82988" lon="2.25164">
        <ele>37</ele>
        <time>2017-04-17T19:10:53.000Z</time>
      </trkpt>
      <trkpt lat="48.82967" lon="2.2515">
        <ele>37.200000762939</ele>
        <time>2017-04-17T19:10:57.000Z</time>
      </trkpt>
      <trkpt lat="48.82947" lon="2.25138">
        <ele>37.200000762939</ele>
        <time>2017-04-17T19:11:00.000Z</time>
      </trkpt>
      <trkpt lat="48.82927" lon="2.25126">
        <ele>37.200000762939</ele>
        <time>2017-04-17T19:11:03.000Z</time>
      </trkpt>
      <trkpt lat="48.82909" lon="2.25109">
        <ele>37.200000762939</ele>
        <time>2017-04-17T19:11:07.000Z</time>
      </trkpt>
      <trkpt lat="48.82887" lon="2.25097">
        <ele>37.200000762939</ele>
        <time>2017-04-17T19:11:11.000Z</time>
      </trkpt>
      <trkpt lat="48.82866" lon="2.25074">
        <ele>37.200000762939</ele>
        <time>2017-04-17T19:11:13.000Z</time>
      </trkpt>
      <trkpt lat="48.82847" lon="2.25063">
        <ele>37.200000762939</ele>
        <time>2017-04-17T19:11:15.000Z</time>
      </trkpt>
      <trkpt lat="48.82843" lon="2.2506">
        <ele>37.200000762939</ele>
        <time>2017-04-17T19:11:16.000Z</time>
      </trkpt>
      <trkpt lat="48.82826" lon="2.25044">
        <ele>37.400001525879</ele>
        <time>2017-04-17T19:11:19.000Z</time>
      </trkpt>
      <trkpt lat="48.82806" lon="2.25027">
        <ele>37.599998474121</ele>
        <time>2017-04-17T19:11:23.000Z</time>
      </trkpt>
      <trkpt lat="48.82785" lon="2.25012">
        <ele>37.799999237061</ele>
        <time>2017-04-17T19:11:27.000Z</time>
      </trkpt>
      <trkpt lat="48.82767" lon="2.25001">
        <ele>37.599998474121</ele>
        <time>2017-04-17T19:11:30.000Z</time>
      </trkpt>
      <trkpt lat="48.82738" lon="2.2498">
        <ele>37.400001525879</ele>
        <time>2017-04-17T19:11:34.000Z</time>
      </trkpt>
      <trkpt lat="48.82713" lon="2.24961">
        <ele>37.400001525879</ele>
        <time>2017-04-17T19:11:37.000Z</time>
      </trkpt>
      <trkpt lat="48.82689" lon="2.24945">
        <ele>37.200000762939</ele>
        <time>2017-04-17T19:11:40.000Z</time>
      </trkpt>
      <trkpt lat="48.82667" lon="2.24929">
        <ele>38</ele>
        <time>2017-04-17T19:11:43.000Z</time>
      </trkpt>
      <trkpt lat="48.82647" lon="2.24915">
        <ele>38.799999237061</ele>
        <time>2017-04-17T19:11:46.000Z</time>
      </trkpt>
      <trkpt lat="48.82629" lon="2.24903">
        <ele>38.799999237061</ele>
        <time>2017-04-17T19:11:49.000Z</time>
      </trkpt>
      <trkpt lat="48.82611" lon="2.24899">
        <ele>38.400001525879</ele>
        <time>2017-04-17T19:11:54.000Z</time>
      </trkpt>
      <trkpt lat="48.82592" lon="2.24891">
        <ele>37.200000762939</ele>
        <time>2017-04-17T19:11:59.000Z</time>
      </trkpt>
      <trkpt lat="48.82566" lon="2.2486">
        <ele>35.400001525879</ele>
        <time>2017-04-17T19:12:03.000Z</time>
      </trkpt>
      <trkpt lat="48.82548" lon="2.24846">
        <ele>34</ele>
        <time>2017-04-17T19:12:07.000Z</time>
      </trkpt>
      <trkpt lat="48.82545" lon="2.24847">
        <ele>33.799999237061</ele>
        <time>2017-04-17T19:12:10.000Z</time>
      </trkpt>
      <trkpt lat="48.82551" lon="2.24847">
        <ele>34.200000762939</ele>
        <time>2017-04-17T19:12:48.000Z</time>
      </trkpt>
      <trkpt lat="48.8254" lon="2.2483">
        <ele>33.599998474121</ele>
        <time>2017-04-17T19:13:17.000Z</time>
      </trkpt>
      <trkpt lat="48.82525" lon="2.24812">
        <ele>32.200000762939</ele>
        <time>2017-04-17T19:13:24.000Z</time>
      </trkpt>
      <trkpt lat="48.82508" lon="2.24799">
        <ele>30.799999237061</ele>
        <time>2017-04-17T19:13:35.000Z</time>
      </trkpt>
      <trkpt lat="48.82499" lon="2.2477">
        <ele>30</ele>
        <time>2017-04-17T19:13:43.000Z</time>
      </trkpt>
      <trkpt lat="48.82491" lon="2.24744">
        <ele>29.39999961853</ele>
        <time>2017-04-17T19:13:47.000Z</time>
      </trkpt>
      <trkpt lat="48.82484" lon="2.24715">
        <ele>29.60000038147</ele>
        <time>2017-04-17T19:13:50.000Z</time>
      </trkpt>
      <trkpt lat="48.82477" lon="2.2469">
        <ele>29.39999961853</ele>
        <time>2017-04-17T19:13:53.000Z</time>
      </trkpt>
      <trkpt lat="48.82469" lon="2.24657">
        <ele>29.39999961853</ele>
        <time>2017-04-17T19:13:57.000Z</time>
      </trkpt>
      <trkpt lat="48.82459" lon="2.24625">
        <ele>29.799999237061</ele>
        <time>2017-04-17T19:14:01.000Z</time>
      </trkpt>
      <trkpt lat="48.82449" lon="2.24592">
        <ele>30.200000762939</ele>
        <time>2017-04-17T19:14:05.000Z</time>
      </trkpt>
      <trkpt lat="48.82441" lon="2.24568">
        <ele>30.60000038147</ele>
        <time>2017-04-17T19:14:08.000Z</time>
      </trkpt>
      <trkpt lat="48.82432" lon="2.24536">
        <ele>31.39999961853</ele>
        <time>2017-04-17T19:14:12.000Z</time>
      </trkpt>
      <trkpt lat="48.82422" lon="2.24505">
        <ele>32</ele>
        <time>2017-04-17T19:14:16.000Z</time>
      </trkpt>
      <trkpt lat="48.82408" lon="2.2448">
        <ele>32.200000762939</ele>
        <time>2017-04-17T19:14:20.000Z</time>
      </trkpt>
      <trkpt lat="48.82397" lon="2.24453">
        <ele>32.400001525879</ele>
        <time>2017-04-17T19:14:25.000Z</time>
      </trkpt>
      <trkpt lat="48.82387" lon="2.24424">
        <ele>31.799999237061</ele>
        <time>2017-04-17T19:14:30.000Z</time>
      </trkpt>
      <trkpt lat="48.82378" lon="2.24391">
        <ele>31.799999237061</ele>
        <time>2017-04-17T19:14:34.000Z</time>
      </trkpt>
      <trkpt lat="48.82371" lon="2.24363">
        <ele>31.799999237061</ele>
        <time>2017-04-17T19:14:38.000Z</time>
      </trkpt>
      <trkpt lat="48.82368" lon="2.24332">
        <ele>31.799999237061</ele>
        <time>2017-04-17T19:14:43.000Z</time>
      </trkpt>
      <trkpt lat="48.82373" lon="2.24333">
        <ele>31.799999237061</ele>
        <time>2017-04-17T19:15:10.000Z</time>
      </trkpt>
      <trkpt lat="48.82362" lon="2.24307">
        <ele>32.200000762939</ele>
        <time>2017-04-17T19:15:20.000Z</time>
      </trkpt>
      <trkpt lat="48.82359" lon="2.24285">
        <ele>32.400001525879</ele>
        <time>2017-04-17T19:15:24.000Z</time>
      </trkpt>
      <trkpt lat="48.82355" lon="2.24254">
        <ele>32.799999237061</ele>
        <time>2017-04-17T19:15:29.000Z</time>
      </trkpt>
      <trkpt lat="48.82351" lon="2.24233">
        <ele>32.599998474121</ele>
        <time>2017-04-17T19:15:32.000Z</time>
      </trkpt>
      <trkpt lat="48.82346" lon="2.24203">
        <ele>31.799999237061</ele>
        <time>2017-04-17T19:15:36.000Z</time>
      </trkpt>
      <trkpt lat="48.82343" lon="2.24175">
        <ele>31.200000762939</ele>
        <time>2017-04-17T19:15:40.000Z</time>
      </trkpt>
      <trkpt lat="48.8234" lon="2.24147">
        <ele>30.60000038147</ele>
        <time>2017-04-17T19:15:44.000Z</time>
      </trkpt>
      <trkpt lat="48.82337" lon="2.24118">
        <ele>30.60000038147</ele>
        <time>2017-04-17T19:15:48.000Z</time>
      </trkpt>
      <trkpt lat="48.82335" lon="2.24089">
        <ele>30.60000038147</ele>
        <time>2017-04-17T19:15:52.000Z</time>
      </trkpt>
      <trkpt lat="48.82333" lon="2.24059">
        <ele>32.799999237061</ele>
        <time>2017-04-17T19:15:56.000Z</time>
      </trkpt>
      <trkpt lat="48.82334" lon="2.24027">
        <ele>32.599998474121</ele>
        <time>2017-04-17T19:16:00.000Z</time>
      </trkpt>
      <trkpt lat="48.82336" lon="2.23997">
        <ele>32.200000762939</ele>
        <time>2017-04-17T19:16:04.000Z</time>
      </trkpt>
      <trkpt lat="48.82339" lon="2.23967">
        <ele>32.200000762939</ele>
        <time>2017-04-17T19:16:08.000Z</time>
      </trkpt>
      <trkpt lat="48.82342" lon="2.23937">
        <ele>32.200000762939</ele>
        <time>2017-04-17T19:16:12.000Z</time>
      </trkpt>
      <trkpt lat="48.82348" lon="2.2391">
        <ele>32</ele>
        <time>2017-04-17T19:16:16.000Z</time>
      </trkpt>
      <trkpt lat="48.82356" lon="2.23884">
        <ele>31.799999237061</ele>
        <time>2017-04-17T19:16:20.000Z</time>
      </trkpt>
      <trkpt lat="48.8236" lon="2.2387">
        <ele>31.799999237061</ele>
        <time>2017-04-17T19:16:22.000Z</time>
      </trkpt>
      <trkpt lat="48.82371" lon="2.23841">
        <ele>32.400001525879</ele>
        <time>2017-04-17T19:16:27.000Z</time>
      </trkpt>
      <trkpt lat="48.82378" lon="2.23819">
        <ele>33.599998474121</ele>
        <time>2017-04-17T19:16:31.000Z</time>
      </trkpt>
      <trkpt lat="48.82382" lon="2.23808">
        <ele>34.599998474121</ele>
        <time>2017-04-17T19:16:33.000Z</time>
      </trkpt>
      <trkpt lat="48.82394" lon="2.23783">
        <ele>36.799999237061</ele>
        <time>2017-04-17T19:16:38.000Z</time>
      </trkpt>
      <trkpt lat="48.82397" lon="2.23775">
        <ele>36</ele>
        <time>2017-04-17T19:16:40.000Z</time>
      </trkpt>
      <trkpt lat="48.82406" lon="2.23751">
        <ele>33.599998474121</ele>
        <time>2017-04-17T19:16:55.000Z</time>
      </trkpt>
      <trkpt lat="48.82411" lon="2.23722">
        <ele>32.400001525879</ele>
        <time>2017-04-17T19:17:04.000Z</time>
      </trkpt>
      <trkpt lat="48.82422" lon="2.237">
        <ele>30.200000762939</ele>
        <time>2017-04-17T19:17:11.000Z</time>
      </trkpt>
      <trkpt lat="48.8243" lon="2.23697">
        <ele>29.200000762939</ele>
        <time>2017-04-17T19:17:16.000Z</time>
      </trkpt>
      <trkpt lat="48.82445" lon="2.23711">
        <ele>29.39999961853</ele>
        <time>2017-04-17T19:17:28.000Z</time>
      </trkpt>
      <trkpt lat="48.82451" lon="2.23725">
        <ele>30.60000038147</ele>
        <time>2017-04-17T19:17:32.000Z</time>
      </trkpt>
      <trkpt lat="48.82467" lon="2.23741">
        <ele>31.60000038147</ele>
        <time>2017-04-17T19:17:38.000Z</time>
      </trkpt>
      <trkpt lat="48.82484" lon="2.23759">
        <ele>32.599998474121</ele>
        <time>2017-04-17T19:17:44.000Z</time>
      </trkpt>
      <trkpt lat="48.82498" lon="2.23778">
        <ele>33.599998474121</ele>
        <time>2017-04-17T19:17:50.000Z</time>
      </trkpt>
      <trkpt lat="48.825" lon="2.23781">
        <ele>33.599998474121</ele>
        <time>2017-04-17T19:17:51.000Z</time>
      </trkpt>
      <trkpt lat="48.82503" lon="2.23784">
        <ele>33.799999237061</ele>
        <time>2017-04-17T19:17:55.000Z</time>
      </trkpt>
      <trkpt lat="48.82516" lon="2.23786">
        <ele>34</ele>
        <time>2017-04-17T19:18:25.000Z</time>
      </trkpt>
      <trkpt lat="48.82535" lon="2.23788">
        <ele>34</ele>
        <time>2017-04-17T19:18:32.000Z</time>
      </trkpt>
      <trkpt lat="48.82543" lon="2.23782">
        <ele>33.799999237061</ele>
        <time>2017-04-17T19:18:36.000Z</time>
      </trkpt>
      <trkpt lat="48.8256" lon="2.23778">
        <ele>33.400001525879</ele>
        <time>2017-04-17T19:18:45.000Z</time>
      </trkpt>
      <trkpt lat="48.82553" lon="2.23751">
        <ele>31.39999961853</ele>
        <time>2017-04-17T19:18:56.000Z</time>
      </trkpt>
      <trkpt lat="48.82528" lon="2.2374">
        <ele>31.60000038147</ele>
        <time>2017-04-17T19:19:08.000Z</time>
      </trkpt>
      <trkpt lat="48.8251" lon="2.23734">
        <ele>31.200000762939</ele>
        <time>2017-04-17T19:19:14.000Z</time>
      </trkpt>
      <trkpt lat="48.82491" lon="2.23741">
        <ele>31.60000038147</ele>
        <time>2017-04-17T19:19:26.000Z</time>
      </trkpt>
      <trkpt lat="48.82496" lon="2.23755">
        <ele>32.400001525879</ele>
        <time>2017-04-17T19:19:35.000Z</time>
      </trkpt>
      <trkpt lat="48.8251" lon="2.23735">
        <ele>31.200000762939</ele>
        <time>2017-04-17T19:19:43.000Z</time>
      </trkpt>
      <trkpt lat="48.82522" lon="2.23712">
        <ele>31.200000762939</ele>
        <time>2017-04-17T19:19:49.000Z</time>
      </trkpt>
      <trkpt lat="48.82534" lon="2.23689">
        <ele>30.200000762939</ele>
        <time>2017-04-17T19:19:55.000Z</time>
      </trkpt>
      <trkpt lat="48.82545" lon="2.23664">
        <ele>30.200000762939</ele>
        <time>2017-04-17T19:20:00.000Z</time>
      </trkpt>
      <trkpt lat="48.82558" lon="2.23641">
        <ele>30.39999961853</ele>
        <time>2017-04-17T19:20:05.000Z</time>
      </trkpt>
      <trkpt lat="48.82569" lon="2.23619">
        <ele>30.60000038147</ele>
        <time>2017-04-17T19:20:09.000Z</time>
      </trkpt>
      <trkpt lat="48.82578" lon="2.2359">
        <ele>31.200000762939</ele>
        <time>2017-04-17T19:20:13.000Z</time>
      </trkpt>
      <trkpt lat="48.82585" lon="2.23565">
        <ele>31.200000762939</ele>
        <time>2017-04-17T19:20:17.000Z</time>
      </trkpt>
      <trkpt lat="48.82589" lon="2.23553">
        <ele>31.200000762939</ele>
        <time>2017-04-17T19:20:21.000Z</time>
      </trkpt>
      <trkpt lat="48.82599" lon="2.23533">
        <ele>31.60000038147</ele>
        <time>2017-04-17T19:20:41.000Z</time>
      </trkpt>
      <trkpt lat="48.82609" lon="2.2351">
        <ele>32</ele>
        <time>2017-04-17T19:20:50.000Z</time>
      </trkpt>
      <trkpt lat="48.82625" lon="2.23488">
        <ele>31.799999237061</ele>
        <time>2017-04-17T19:20:59.000Z</time>
      </trkpt>
      <trkpt lat="48.82636" lon="2.23467">
        <ele>31.60000038147</ele>
        <time>2017-04-17T19:21:06.000Z</time>
      </trkpt>
      <trkpt lat="48.82648" lon="2.23442">
        <ele>31.39999961853</ele>
        <time>2017-04-17T19:21:15.000Z</time>
      </trkpt>
      <trkpt lat="48.82657" lon="2.23417">
        <ele>30.799999237061</ele>
        <time>2017-04-17T19:21:24.000Z</time>
      </trkpt>
      <trkpt lat="48.82665" lon="2.23399">
        <ele>30</ele>
        <time>2017-04-17T19:21:30.000Z</time>
      </trkpt>
      <trkpt lat="48.82677" lon="2.23376">
        <ele>30.39999961853</ele>
        <time>2017-04-17T19:21:44.000Z</time>
      </trkpt>
      <trkpt lat="48.82678" lon="2.23373">
        <ele>30.60000038147</ele>
        <time>2017-04-17T19:21:45.000Z</time>
      </trkpt>
      <trkpt lat="48.8267" lon="2.23359">
        <ele>30.60000038147</ele>
        <time>2017-04-17T19:21:50.000Z</time>
      </trkpt>
      <trkpt lat="48.82652" lon="2.23349">
        <ele>30.200000762939</ele>
        <time>2017-04-17T19:21:58.000Z</time>
      </trkpt>
      <trkpt lat="48.82635" lon="2.23339">
        <ele>29.799999237061</ele>
        <time>2017-04-17T19:22:04.000Z</time>
      </trkpt>
      <trkpt lat="48.8262" lon="2.23322">
        <ele>29.39999961853</ele>
        <time>2017-04-17T19:22:09.000Z</time>
      </trkpt>
      <trkpt lat="48.82603" lon="2.23311">
        <ele>29</ele>
        <time>2017-04-17T19:22:13.000Z</time>
      </trkpt>
      <trkpt lat="48.82584" lon="2.23298">
        <ele>31.60000038147</ele>
        <time>2017-04-17T19:22:19.000Z</time>
      </trkpt>
      <trkpt lat="48.8257" lon="2.23278">
        <ele>33.400001525879</ele>
        <time>2017-04-17T19:22:24.000Z</time>
      </trkpt>
      <trkpt lat="48.82554" lon="2.23254">
        <ele>35.200000762939</ele>
        <time>2017-04-17T19:22:29.000Z</time>
      </trkpt>
      <trkpt lat="48.82541" lon="2.23234">
        <ele>37.200000762939</ele>
        <time>2017-04-17T19:22:33.000Z</time>
      </trkpt>
      <trkpt lat="48.82524" lon="2.23214">
        <ele>39.599998474121</ele>
        <time>2017-04-17T19:22:39.000Z</time>
      </trkpt>
      <trkpt lat="48.82518" lon="2.23204">
        <ele>39.599998474121</ele>
        <time>2017-04-17T19:22:44.000Z</time>
      </trkpt>
      <trkpt lat="48.82516" lon="2.23191">
        <ele>39.400001525879</ele>
        <time>2017-04-17T19:23:22.000Z</time>
      </trkpt>
      <trkpt lat="48.825" lon="2.23172">
        <ele>38.200000762939</ele>
        <time>2017-04-17T19:23:28.000Z</time>
      </trkpt>
      <trkpt lat="48.82486" lon="2.23155">
        <ele>36.400001525879</ele>
        <time>2017-04-17T19:23:35.000Z</time>
      </trkpt>
      <trkpt lat="48.82472" lon="2.23135">
        <ele>33.799999237061</ele>
        <time>2017-04-17T19:23:45.000Z</time>
      </trkpt>
      <trkpt lat="48.82472" lon="2.23129">
        <ele>33.400001525879</ele>
        <time>2017-04-17T19:23:50.000Z</time>
      </trkpt>
      <trkpt lat="48.82465" lon="2.23106">
        <ele>31</ele>
        <time>2017-04-17T19:24:11.000Z</time>
      </trkpt>
      <trkpt lat="48.82452" lon="2.23085">
        <ele>29</ele>
        <time>2017-04-17T19:24:23.000Z</time>
      </trkpt>
      <trkpt lat="48.82452" lon="2.23084">
        <ele>28.799999237061</ele>
        <time>2017-04-17T19:24:24.000Z</time>
      </trkpt>
      <trkpt lat="48.82447" lon="2.23086">
        <ele>28.200000762939</ele>
        <time>2017-04-17T19:25:50.000Z</time>
      </trkpt>
      <trkpt lat="48.82451" lon="2.23086">
        <ele>28.799999237061</ele>
        <time>2017-04-17T19:27:39.000Z</time>
      </trkpt>
      <trkpt lat="48.82452" lon="2.2309">
        <ele>29</ele>
        <time>2017-04-17T19:29:39.000Z</time>
      </trkpt>
      <trkpt lat="48.82468" lon="2.23079">
        <ele>31</ele>
        <time>2017-04-17T19:29:51.000Z</time>
      </trkpt>
      <trkpt lat="48.82484" lon="2.2306">
        <ele>32.799999237061</ele>
        <time>2017-04-17T19:29:58.000Z</time>
      </trkpt>
      <trkpt lat="48.82499" lon="2.23042">
        <ele>33.799999237061</ele>
        <time>2017-04-17T19:30:04.000Z</time>
      </trkpt>
      <trkpt lat="48.82515" lon="2.23023">
        <ele>34</ele>
        <time>2017-04-17T19:30:09.000Z</time>
      </trkpt>
      <trkpt lat="48.82529" lon="2.23004">
        <ele>33.400001525879</ele>
        <time>2017-04-17T19:30:13.000Z</time>
      </trkpt>
      <trkpt lat="48.82546" lon="2.22983">
        <ele>34.599998474121</ele>
        <time>2017-04-17T19:30:17.000Z</time>
      </trkpt>
      <trkpt lat="48.82563" lon="2.22963">
        <ele>35</ele>
        <time>2017-04-17T19:30:21.000Z</time>
      </trkpt>
      <trkpt lat="48.8258" lon="2.22946">
        <ele>34.200000762939</ele>
        <time>2017-04-17T19:30:25.000Z</time>
      </trkpt>
      <trkpt lat="48.82596" lon="2.22934">
        <ele>33.200000762939</ele>
        <time>2017-04-17T19:30:29.000Z</time>
      </trkpt>
      <trkpt lat="48.8261" lon="2.22919">
        <ele>31.39999961853</ele>
        <time>2017-04-17T19:30:33.000Z</time>
      </trkpt>
      <trkpt lat="48.82626" lon="2.22902">
        <ele>31.60000038147</ele>
        <time>2017-04-17T19:30:38.000Z</time>
      </trkpt>
      <trkpt lat="48.82642" lon="2.22885">
        <ele>31.60000038147</ele>
        <time>2017-04-17T19:30:43.000Z</time>
      </trkpt>
      <trkpt lat="48.82649" lon="2.2288">
        <ele>31.799999237061</ele>
        <time>2017-04-17T19:30:45.000Z</time>
      </trkpt>
      <trkpt lat="48.82662" lon="2.22872">
        <ele>32.400001525879</ele>
        <time>2017-04-17T19:30:49.000Z</time>
      </trkpt>
      <trkpt lat="48.82667" lon="2.22868">
        <ele>32.799999237061</ele>
        <time>2017-04-17T19:30:51.000Z</time>
      </trkpt>
      <trkpt lat="48.82685" lon="2.22855">
        <ele>34.200000762939</ele>
        <time>2017-04-17T19:30:59.000Z</time>
      </trkpt>
      <trkpt lat="48.82702" lon="2.22842">
        <ele>33.599998474121</ele>
        <time>2017-04-17T19:31:07.000Z</time>
      </trkpt>
      <trkpt lat="48.8272" lon="2.22833">
        <ele>33.200000762939</ele>
        <time>2017-04-17T19:31:14.000Z</time>
      </trkpt>
      <trkpt lat="48.82728" lon="2.22826">
        <ele>32.799999237061</ele>
        <time>2017-04-17T19:31:19.000Z</time>
      </trkpt>
      <trkpt lat="48.82722" lon="2.22824">
        <ele>32.799999237061</ele>
        <time>2017-04-17T19:31:33.000Z</time>
      </trkpt>
      <trkpt lat="48.82704" lon="2.22838">
        <ele>33.599998474121</ele>
        <time>2017-04-17T19:31:46.000Z</time>
      </trkpt>
      <trkpt lat="48.82696" lon="2.22848">
        <ele>34</ele>
        <time>2017-04-17T19:31:50.000Z</time>
      </trkpt>
      <trkpt lat="48.82698" lon="2.22846">
        <ele>33.799999237061</ele>
        <time>2017-04-17T19:32:00.000Z</time>
      </trkpt>
      <trkpt lat="48.82698" lon="2.22872">
        <ele>34.599998474121</ele>
        <time>2017-04-17T19:32:18.000Z</time>
      </trkpt>
      <trkpt lat="48.82701" lon="2.22872">
        <ele>34.200000762939</ele>
        <time>2017-04-17T19:32:19.000Z</time>
      </trkpt>
      <trkpt lat="48.82694" lon="2.22852">
        <ele>34.200000762939</ele>
        <time>2017-04-17T19:32:33.000Z</time>
      </trkpt>
      <trkpt lat="48.82693" lon="2.22843">
        <ele>34</ele>
        <time>2017-04-17T19:32:39.000Z</time>
      </trkpt>
      <trkpt lat="48.82707" lon="2.22828">
        <ele>33.599998474121</ele>
        <time>2017-04-17T19:32:53.000Z</time>
      </trkpt>
      <trkpt lat="48.82725" lon="2.22817">
        <ele>32</ele>
        <time>2017-04-17T19:33:00.000Z</time>
      </trkpt>
      <trkpt lat="48.82727" lon="2.22818">
        <ele>32</ele>
        <time>2017-04-17T19:33:01.000Z</time>
      </trkpt>
      <trkpt lat="48.82727" lon="2.22823">
        <ele>32.599998474121</ele>
        <time>2017-04-17T19:35:18.000Z</time>
      </trkpt>
      <trkpt lat="48.82706" lon="2.22833">
        <ele>33.599998474121</ele>
        <time>2017-04-17T19:35:27.000Z</time>
      </trkpt>
      <trkpt lat="48.82697" lon="2.22843">
        <ele>33.799999237061</ele>
        <time>2017-04-17T19:35:31.000Z</time>
      </trkpt>
      <trkpt lat="48.82689" lon="2.22855">
        <ele>34.599998474121</ele>
        <time>2017-04-17T19:35:36.000Z</time>
      </trkpt>
      <trkpt lat="48.82672" lon="2.22871">
        <ele>33.400001525879</ele>
        <time>2017-04-17T19:35:42.000Z</time>
      </trkpt>
      <trkpt lat="48.82653" lon="2.22882">
        <ele>32</ele>
        <time>2017-04-17T19:35:47.000Z</time>
      </trkpt>
      <trkpt lat="48.82635" lon="2.22901">
        <ele>32</ele>
        <time>2017-04-17T19:35:52.000Z</time>
      </trkpt>
      <trkpt lat="48.82619" lon="2.22918">
        <ele>31.39999961853</ele>
        <time>2017-04-17T19:35:56.000Z</time>
      </trkpt>
      <trkpt lat="48.82604" lon="2.22938">
        <ele>34</ele>
        <time>2017-04-17T19:36:00.000Z</time>
      </trkpt>
      <trkpt lat="48.82587" lon="2.22955">
        <ele>35.599998474121</ele>
        <time>2017-04-17T19:36:04.000Z</time>
      </trkpt>
      <trkpt lat="48.82569" lon="2.22972">
        <ele>36.200000762939</ele>
        <time>2017-04-17T19:36:08.000Z</time>
      </trkpt>
      <trkpt lat="48.8255" lon="2.2299">
        <ele>35.400001525879</ele>
        <time>2017-04-17T19:36:12.000Z</time>
      </trkpt>
      <trkpt lat="48.82543" lon="2.23">
        <ele>34.799999237061</ele>
        <time>2017-04-17T19:36:14.000Z</time>
      </trkpt>
      <trkpt lat="48.82529" lon="2.2302">
        <ele>34.400001525879</ele>
        <time>2017-04-17T19:36:18.000Z</time>
      </trkpt>
      <trkpt lat="48.82515" lon="2.23038">
        <ele>35</ele>
        <time>2017-04-17T19:36:22.000Z</time>
      </trkpt>
      <trkpt lat="48.825" lon="2.23057">
        <ele>34.799999237061</ele>
        <time>2017-04-17T19:36:27.000Z</time>
      </trkpt>
      <trkpt lat="48.82499" lon="2.23062">
        <ele>34.599998474121</ele>
        <time>2017-04-17T19:36:28.000Z</time>
      </trkpt>
      <trkpt lat="48.82484" lon="2.23081">
        <ele>33</ele>
        <time>2017-04-17T19:36:34.000Z</time>
      </trkpt>
      <trkpt lat="48.82481" lon="2.23083">
        <ele>32.599998474121</ele>
        <time>2017-04-17T19:36:35.000Z</time>
      </trkpt>
      <trkpt lat="48.82465" lon="2.23093">
        <ele>30.799999237061</ele>
        <time>2017-04-17T19:36:42.000Z</time>
      </trkpt>
      <trkpt lat="48.82459" lon="2.23091">
        <ele>30</ele>
        <time>2017-04-17T19:36:46.000Z</time>
      </trkpt>
      <trkpt lat="48.82456" lon="2.23091">
        <ele>29.60000038147</ele>
        <time>2017-04-17T19:36:49.000Z</time>
      </trkpt>
      <trkpt lat="48.82454" lon="2.23107">
        <ele>30.39999961853</ele>
        <time>2017-04-17T19:37:26.000Z</time>
      </trkpt>
      <trkpt lat="48.82458" lon="2.23134">
        <ele>32.599998474121</ele>
        <time>2017-04-17T19:37:32.000Z</time>
      </trkpt>
      <trkpt lat="48.82464" lon="2.2316">
        <ele>35</ele>
        <time>2017-04-17T19:37:38.000Z</time>
      </trkpt>
      <trkpt lat="48.8248" lon="2.23173">
        <ele>36.400001525879</ele>
        <time>2017-04-17T19:37:46.000Z</time>
      </trkpt>
      <trkpt lat="48.82491" lon="2.23176">
        <ele>37.400001525879</ele>
        <time>2017-04-17T19:37:51.000Z</time>
      </trkpt>
      <trkpt lat="48.82507" lon="2.23193">
        <ele>38.799999237061</ele>
        <time>2017-04-17T19:37:58.000Z</time>
      </trkpt>
      <trkpt lat="48.82522" lon="2.2321">
        <ele>40</ele>
        <time>2017-04-17T19:38:05.000Z</time>
      </trkpt>
      <trkpt lat="48.82541" lon="2.23218">
        <ele>37</ele>
        <time>2017-04-17T19:38:13.000Z</time>
      </trkpt>
      <trkpt lat="48.82557" lon="2.23233">
        <ele>34.599998474121</ele>
        <time>2017-04-17T19:38:19.000Z</time>
      </trkpt>
      <trkpt lat="48.82573" lon="2.23249">
        <ele>32.200000762939</ele>
        <time>2017-04-17T19:38:26.000Z</time>
      </trkpt>
      <trkpt lat="48.82589" lon="2.23264">
        <ele>30</ele>
        <time>2017-04-17T19:38:32.000Z</time>
      </trkpt>
      <trkpt lat="48.82603" lon="2.2328">
        <ele>28.200000762939</ele>
        <time>2017-04-17T19:38:39.000Z</time>
      </trkpt>
      <trkpt lat="48.82615" lon="2.23292">
        <ele>28.39999961853</ele>
        <time>2017-04-17T19:39:05.000Z</time>
      </trkpt>
      <trkpt lat="48.82631" lon="2.23311">
        <ele>29.39999961853</ele>
        <time>2017-04-17T19:39:10.000Z</time>
      </trkpt>
      <trkpt lat="48.82648" lon="2.23331">
        <ele>30.39999961853</ele>
        <time>2017-04-17T19:39:14.000Z</time>
      </trkpt>
      <trkpt lat="48.82661" lon="2.23348">
        <ele>30.60000038147</ele>
        <time>2017-04-17T19:39:17.000Z</time>
      </trkpt>
      <trkpt lat="48.82679" lon="2.23369">
        <ele>30.60000038147</ele>
        <time>2017-04-17T19:39:21.000Z</time>
      </trkpt>
      <trkpt lat="48.82692" lon="2.23391">
        <ele>30.60000038147</ele>
        <time>2017-04-17T19:39:25.000Z</time>
      </trkpt>
      <trkpt lat="48.82706" lon="2.23411">
        <ele>30</ele>
        <time>2017-04-17T19:39:30.000Z</time>
      </trkpt>
      <trkpt lat="48.82708" lon="2.23414">
        <ele>30</ele>
        <time>2017-04-17T19:39:31.000Z</time>
      </trkpt>
      <trkpt lat="48.82713" lon="2.23419">
        <ele>30.200000762939</ele>
        <time>2017-04-17T19:39:33.000Z</time>
      </trkpt>
      <trkpt lat="48.8272" lon="2.2343">
        <ele>30.39999961853</ele>
        <time>2017-04-17T19:39:37.000Z</time>
      </trkpt>
      <trkpt lat="48.82722" lon="2.23431">
        <ele>30.39999961853</ele>
        <time>2017-04-17T19:39:38.000Z</time>
      </trkpt>
      <trkpt lat="48.82722" lon="2.2342">
        <ele>30.200000762939</ele>
        <time>2017-04-17T19:39:55.000Z</time>
      </trkpt>
      <trkpt lat="48.82725" lon="2.23412">
        <ele>30</ele>
        <time>2017-04-17T19:40:04.000Z</time>
      </trkpt>
      <trkpt lat="48.82724" lon="2.23384">
        <ele>30.60000038147</ele>
        <time>2017-04-17T19:40:13.000Z</time>
      </trkpt>
      <trkpt lat="48.82719" lon="2.23377">
        <ele>30.799999237061</ele>
        <time>2017-04-17T19:40:15.000Z</time>
      </trkpt>
      <trkpt lat="48.82711" lon="2.23362">
        <ele>31.200000762939</ele>
        <time>2017-04-17T19:40:20.000Z</time>
      </trkpt>
      <trkpt lat="48.82717" lon="2.23346">
        <ele>31.60000038147</ele>
        <time>2017-04-17T19:40:25.000Z</time>
      </trkpt>
      <trkpt lat="48.82725" lon="2.23336">
        <ele>31.799999237061</ele>
        <time>2017-04-17T19:40:31.000Z</time>
      </trkpt>
      <trkpt lat="48.82731" lon="2.23314">
        <ele>32.400001525879</ele>
        <time>2017-04-17T19:41:00.000Z</time>
      </trkpt>
      <trkpt lat="48.82748" lon="2.23303">
        <ele>32.599998474121</ele>
        <time>2017-04-17T19:41:05.000Z</time>
      </trkpt>
      <trkpt lat="48.82765" lon="2.23292">
        <ele>33.200000762939</ele>
        <time>2017-04-17T19:41:10.000Z</time>
      </trkpt>
      <trkpt lat="48.82775" lon="2.23286">
        <ele>33.599998474121</ele>
        <time>2017-04-17T19:41:13.000Z</time>
      </trkpt>
      <trkpt lat="48.82792" lon="2.23271">
        <ele>34.799999237061</ele>
        <time>2017-04-17T19:41:19.000Z</time>
      </trkpt>
      <trkpt lat="48.82807" lon="2.23255">
        <ele>36.200000762939</ele>
        <time>2017-04-17T19:41:27.000Z</time>
      </trkpt>
      <trkpt lat="48.82826" lon="2.23244">
        <ele>37.599998474121</ele>
        <time>2017-04-17T19:41:37.000Z</time>
      </trkpt>
      <trkpt lat="48.82835" lon="2.23237">
        <ele>38</ele>
        <time>2017-04-17T19:41:43.000Z</time>
      </trkpt>
      <trkpt lat="48.82838" lon="2.23231">
        <ele>38.200000762939</ele>
        <time>2017-04-17T19:41:49.000Z</time>
      </trkpt>
      <trkpt lat="48.82848" lon="2.23262">
        <ele>37.799999237061</ele>
        <time>2017-04-17T19:41:57.000Z</time>
      </trkpt>
      <trkpt lat="48.82854" lon="2.2326">
        <ele>38.200000762939</ele>
        <time>2017-04-17T19:42:00.000Z</time>
      </trkpt>
      <trkpt lat="48.82865" lon="2.2324">
        <ele>40</ele>
        <time>2017-04-17T19:42:04.000Z</time>
      </trkpt>
      <trkpt lat="48.82878" lon="2.23218">
        <ele>42.799999237061</ele>
        <time>2017-04-17T19:42:11.000Z</time>
      </trkpt>
      <trkpt lat="48.82882" lon="2.23213">
        <ele>43.400001525879</ele>
        <time>2017-04-17T19:42:13.000Z</time>
      </trkpt>
      <trkpt lat="48.82898" lon="2.23197">
        <ele>44.799999237061</ele>
        <time>2017-04-17T19:42:19.000Z</time>
      </trkpt>
      <trkpt lat="48.82898" lon="2.23193">
        <ele>44.799999237061</ele>
        <time>2017-04-17T19:42:20.000Z</time>
      </trkpt>
      <trkpt lat="48.82904" lon="2.23182">
        <ele>44.400001525879</ele>
        <time>2017-04-17T19:42:24.000Z</time>
      </trkpt>
      <trkpt lat="48.82914" lon="2.23171">
        <ele>43.599998474121</ele>
        <time>2017-04-17T19:42:31.000Z</time>
      </trkpt>
      <trkpt lat="48.82929" lon="2.23151">
        <ele>42.200000762939</ele>
        <time>2017-04-17T19:42:40.000Z</time>
      </trkpt>
      <trkpt lat="48.82942" lon="2.23131">
        <ele>39.599998474121</ele>
        <time>2017-04-17T19:42:47.000Z</time>
      </trkpt>
      <trkpt lat="48.82958" lon="2.23124">
        <ele>38.799999237061</ele>
        <time>2017-04-17T19:42:57.000Z</time>
      </trkpt>
      <trkpt lat="48.82959" lon="2.23128">
        <ele>39</ele>
        <time>2017-04-17T19:43:01.000Z</time>
      </trkpt>
      <trkpt lat="48.8297" lon="2.23133">
        <ele>39.200000762939</ele>
        <time>2017-04-17T19:43:56.000Z</time>
      </trkpt>
      <trkpt lat="48.82982" lon="2.23152">
        <ele>40.200000762939</ele>
        <time>2017-04-17T19:44:27.000Z</time>
      </trkpt>
      <trkpt lat="48.8299" lon="2.2318">
        <ele>42.200000762939</ele>
        <time>2017-04-17T19:44:35.000Z</time>
      </trkpt>
      <trkpt lat="48.83004" lon="2.23203">
        <ele>44</ele>
        <time>2017-04-17T19:44:42.000Z</time>
      </trkpt>
      <trkpt lat="48.83015" lon="2.23227">
        <ele>45.599998474121</ele>
        <time>2017-04-17T19:44:48.000Z</time>
      </trkpt>
      <trkpt lat="48.83032" lon="2.2325">
        <ele>46.400001525879</ele>
        <time>2017-04-17T19:44:53.000Z</time>
      </trkpt>
      <trkpt lat="48.83042" lon="2.23273">
        <ele>46</ele>
        <time>2017-04-17T19:44:58.000Z</time>
      </trkpt>
      <trkpt lat="48.8305" lon="2.23301">
        <ele>45.599998474121</ele>
        <time>2017-04-17T19:45:03.000Z</time>
      </trkpt>
      <trkpt lat="48.83058" lon="2.2333">
        <ele>45.400001525879</ele>
        <time>2017-04-17T19:45:08.000Z</time>
      </trkpt>
      <trkpt lat="48.83062" lon="2.23361">
        <ele>44.799999237061</ele>
        <time>2017-04-17T19:45:14.000Z</time>
      </trkpt>
      <trkpt lat="48.83069" lon="2.23388">
        <ele>44.599998474121</ele>
        <time>2017-04-17T19:45:20.000Z</time>
      </trkpt>
      <trkpt lat="48.83074" lon="2.23416">
        <ele>44.599998474121</ele>
        <time>2017-04-17T19:45:26.000Z</time>
      </trkpt>
      <trkpt lat="48.83077" lon="2.23444">
        <ele>43.200000762939</ele>
        <time>2017-04-17T19:45:32.000Z</time>
      </trkpt>
      <trkpt lat="48.83082" lon="2.23475">
        <ele>41.400001525879</ele>
        <time>2017-04-17T19:45:39.000Z</time>
      </trkpt>
      <trkpt lat="48.83088" lon="2.23503">
        <ele>40.200000762939</ele>
        <time>2017-04-17T19:45:44.000Z</time>
      </trkpt>
      <trkpt lat="48.83096" lon="2.23528">
        <ele>42</ele>
        <time>2017-04-17T19:45:49.000Z</time>
      </trkpt>
      <trkpt lat="48.83109" lon="2.2355">
        <ele>43</ele>
        <time>2017-04-17T19:45:55.000Z</time>
      </trkpt>
      <trkpt lat="48.83125" lon="2.23569">
        <ele>43.599998474121</ele>
        <time>2017-04-17T19:46:02.000Z</time>
      </trkpt>
      <trkpt lat="48.83131" lon="2.23598">
        <ele>44.599998474121</ele>
        <time>2017-04-17T19:46:07.000Z</time>
      </trkpt>
      <trkpt lat="48.83137" lon="2.23625">
        <ele>44.200000762939</ele>
        <time>2017-04-17T19:46:11.000Z</time>
      </trkpt>
      <trkpt lat="48.83142" lon="2.23658">
        <ele>43.200000762939</ele>
        <time>2017-04-17T19:46:16.000Z</time>
      </trkpt>
      <trkpt lat="48.8315" lon="2.23683">
        <ele>43</ele>
        <time>2017-04-17T19:46:20.000Z</time>
      </trkpt>
      <trkpt lat="48.8316" lon="2.23712">
        <ele>42.799999237061</ele>
        <time>2017-04-17T19:46:25.000Z</time>
      </trkpt>
      <trkpt lat="48.83173" lon="2.23738">
        <ele>42</ele>
        <time>2017-04-17T19:46:31.000Z</time>
      </trkpt>
      <trkpt lat="48.83183" lon="2.23761">
        <ele>42</ele>
        <time>2017-04-17T19:46:36.000Z</time>
      </trkpt>
      <trkpt lat="48.83195" lon="2.23789">
        <ele>42.200000762939</ele>
        <time>2017-04-17T19:46:42.000Z</time>
      </trkpt>
      <trkpt lat="48.83207" lon="2.23811">
        <ele>42</ele>
        <time>2017-04-17T19:46:47.000Z</time>
      </trkpt>
      <trkpt lat="48.83214" lon="2.23841">
        <ele>41.599998474121</ele>
        <time>2017-04-17T19:46:56.000Z</time>
      </trkpt>
      <trkpt lat="48.83226" lon="2.23867">
        <ele>40.799999237061</ele>
        <time>2017-04-17T19:47:02.000Z</time>
      </trkpt>
      <trkpt lat="48.83237" lon="2.2389">
        <ele>39.799999237061</ele>
        <time>2017-04-17T19:47:07.000Z</time>
      </trkpt>
      <trkpt lat="48.83249" lon="2.23917">
        <ele>38.799999237061</ele>
        <time>2017-04-17T19:47:12.000Z</time>
      </trkpt>
      <trkpt lat="48.83246" lon="2.23951">
        <ele>38.400001525879</ele>
        <time>2017-04-17T19:47:17.000Z</time>
      </trkpt>
      <trkpt lat="48.83251" lon="2.23978">
        <ele>37.799999237061</ele>
        <time>2017-04-17T19:47:22.000Z</time>
      </trkpt>
      <trkpt lat="48.8326" lon="2.24002">
        <ele>37</ele>
        <time>2017-04-17T19:47:27.000Z</time>
      </trkpt>
      <trkpt lat="48.83272" lon="2.24027">
        <ele>37</ele>
        <time>2017-04-17T19:47:32.000Z</time>
      </trkpt>
      <trkpt lat="48.83268" lon="2.24056">
        <ele>37</ele>
        <time>2017-04-17T19:47:40.000Z</time>
      </trkpt>
      <trkpt lat="48.83278" lon="2.24079">
        <ele>37</ele>
        <time>2017-04-17T19:47:55.000Z</time>
      </trkpt>
      <trkpt lat="48.83289" lon="2.24108">
        <ele>37.599998474121</ele>
        <time>2017-04-17T19:48:00.000Z</time>
      </trkpt>
      <trkpt lat="48.83296" lon="2.24134">
        <ele>38</ele>
        <time>2017-04-17T19:48:04.000Z</time>
      </trkpt>
      <trkpt lat="48.83305" lon="2.2416">
        <ele>38.400001525879</ele>
        <time>2017-04-17T19:48:08.000Z</time>
      </trkpt>
      <trkpt lat="48.83315" lon="2.24188">
        <ele>38.599998474121</ele>
        <time>2017-04-17T19:48:12.000Z</time>
      </trkpt>
      <trkpt lat="48.83325" lon="2.24214">
        <ele>38.599998474121</ele>
        <time>2017-04-17T19:48:16.000Z</time>
      </trkpt>
      <trkpt lat="48.83338" lon="2.24238">
        <ele>39.200000762939</ele>
        <time>2017-04-17T19:48:20.000Z</time>
      </trkpt>
      <trkpt lat="48.8335" lon="2.24266">
        <ele>38.599998474121</ele>
        <time>2017-04-17T19:48:24.000Z</time>
      </trkpt>
      <trkpt lat="48.83355" lon="2.24294">
        <ele>37.799999237061</ele>
        <time>2017-04-17T19:48:26.000Z</time>
      </trkpt>
      <trkpt lat="48.83362" lon="2.24321">
        <ele>37.400001525879</ele>
        <time>2017-04-17T19:48:30.000Z</time>
      </trkpt>
      <trkpt lat="48.83364" lon="2.24331">
        <ele>37.200000762939</ele>
        <time>2017-04-17T19:48:32.000Z</time>
      </trkpt>
      <trkpt lat="48.83356" lon="2.24344">
        <ele>37</ele>
        <time>2017-04-17T19:48:40.000Z</time>
      </trkpt>
      <trkpt lat="48.83356" lon="2.24345">
        <ele>37</ele>
        <time>2017-04-17T19:48:41.000Z</time>
      </trkpt>
      <trkpt lat="48.83363" lon="2.24369">
        <ele>37.200000762939</ele>
        <time>2017-04-17T19:48:56.000Z</time>
      </trkpt>
      <trkpt lat="48.83381" lon="2.24377">
        <ele>38</ele>
        <time>2017-04-17T19:49:03.000Z</time>
      </trkpt>
      <trkpt lat="48.83399" lon="2.2438">
        <ele>38.599998474121</ele>
        <time>2017-04-17T19:49:08.000Z</time>
      </trkpt>
      <trkpt lat="48.83419" lon="2.24391">
        <ele>39.200000762939</ele>
        <time>2017-04-17T19:49:13.000Z</time>
      </trkpt>
      <trkpt lat="48.83439" lon="2.24402">
        <ele>39.799999237061</ele>
        <time>2017-04-17T19:49:18.000Z</time>
      </trkpt>
      <trkpt lat="48.83458" lon="2.24411">
        <ele>40</ele>
        <time>2017-04-17T19:49:22.000Z</time>
      </trkpt>
      <trkpt lat="48.83476" lon="2.24424">
        <ele>39.799999237061</ele>
        <time>2017-04-17T19:49:26.000Z</time>
      </trkpt>
      <trkpt lat="48.83493" lon="2.24437">
        <ele>39.400001525879</ele>
        <time>2017-04-17T19:49:30.000Z</time>
      </trkpt>
      <trkpt lat="48.83514" lon="2.24449">
        <ele>39.200000762939</ele>
        <time>2017-04-17T19:49:34.000Z</time>
      </trkpt>
      <trkpt lat="48.83521" lon="2.24452">
        <ele>39</ele>
        <time>2017-04-17T19:49:35.000Z</time>
      </trkpt>
      <trkpt lat="48.83542" lon="2.24466">
        <ele>38.799999237061</ele>
        <time>2017-04-17T19:49:39.000Z</time>
      </trkpt>
      <trkpt lat="48.83562" lon="2.24477">
        <ele>38.400001525879</ele>
        <time>2017-04-17T19:49:42.000Z</time>
      </trkpt>
      <trkpt lat="48.83584" lon="2.24494">
        <ele>38</ele>
        <time>2017-04-17T19:49:45.000Z</time>
      </trkpt>
      <trkpt lat="48.83605" lon="2.2451">
        <ele>37.799999237061</ele>
        <time>2017-04-17T19:49:48.000Z</time>
      </trkpt>
      <trkpt lat="48.83625" lon="2.24525">
        <ele>37.400001525879</ele>
        <time>2017-04-17T19:49:51.000Z</time>
      </trkpt>
      <trkpt lat="48.83647" lon="2.24537">
        <ele>37</ele>
        <time>2017-04-17T19:49:54.000Z</time>
      </trkpt>
      <trkpt lat="48.8367" lon="2.24544">
        <ele>36.400001525879</ele>
        <time>2017-04-17T19:49:57.000Z</time>
      </trkpt>
      <trkpt lat="48.83678" lon="2.2455">
        <ele>36.200000762939</ele>
        <time>2017-04-17T19:49:58.000Z</time>
      </trkpt>
      <trkpt lat="48.837" lon="2.24563">
        <ele>36.400001525879</ele>
        <time>2017-04-17T19:50:01.000Z</time>
      </trkpt>
      <trkpt lat="48.83718" lon="2.24574">
        <ele>37</ele>
        <time>2017-04-17T19:50:04.000Z</time>
      </trkpt>
      <trkpt lat="48.8373" lon="2.24583">
        <ele>37.400001525879</ele>
        <time>2017-04-17T19:50:06.000Z</time>
      </trkpt>
      <trkpt lat="48.83747" lon="2.24594">
        <ele>38</ele>
        <time>2017-04-17T19:50:10.000Z</time>
      </trkpt>
      <trkpt lat="48.83751" lon="2.24594">
        <ele>38</ele>
        <time>2017-04-17T19:50:11.000Z</time>
      </trkpt>
      <trkpt lat="48.83762" lon="2.246">
        <ele>38.400001525879</ele>
        <time>2017-04-17T19:50:14.000Z</time>
      </trkpt>
      <trkpt lat="48.83784" lon="2.24614">
        <ele>39.200000762939</ele>
        <time>2017-04-17T19:50:18.000Z</time>
      </trkpt>
      <trkpt lat="48.83804" lon="2.24624">
        <ele>40</ele>
        <time>2017-04-17T19:50:22.000Z</time>
      </trkpt>
      <trkpt lat="48.83826" lon="2.2463">
        <ele>40.799999237061</ele>
        <time>2017-04-17T19:50:26.000Z</time>
      </trkpt>
      <trkpt lat="48.83831" lon="2.24632">
        <ele>41</ele>
        <time>2017-04-17T19:50:27.000Z</time>
      </trkpt>
      <trkpt lat="48.83849" lon="2.24644">
        <ele>41.400001525879</ele>
        <time>2017-04-17T19:50:32.000Z</time>
      </trkpt>
      <trkpt lat="48.83856" lon="2.24648">
        <ele>41.599998474121</ele>
        <time>2017-04-17T19:50:34.000Z</time>
      </trkpt>
      <trkpt lat="48.83867" lon="2.24655">
        <ele>42</ele>
        <time>2017-04-17T19:50:39.000Z</time>
      </trkpt>
      <trkpt lat="48.83869" lon="2.24656">
        <ele>42</ele>
        <time>2017-04-17T19:50:40.000Z</time>
      </trkpt>
      <trkpt lat="48.8388" lon="2.24657">
        <ele>42.200000762939</ele>
        <time>2017-04-17T19:50:44.000Z</time>
      </trkpt>
      <trkpt lat="48.83891" lon="2.24668">
        <ele>42.400001525879</ele>
        <time>2017-04-17T19:50:48.000Z</time>
      </trkpt>
      <trkpt lat="48.83895" lon="2.24675">
        <ele>42.599998474121</ele>
        <time>2017-04-17T19:50:50.000Z</time>
      </trkpt>
      <trkpt lat="48.83902" lon="2.24687">
        <ele>42.799999237061</ele>
        <time>2017-04-17T19:51:32.000Z</time>
      </trkpt>
      <trkpt lat="48.83905" lon="2.24697">
        <ele>43</ele>
        <time>2017-04-17T19:51:57.000Z</time>
      </trkpt>
      <trkpt lat="48.83925" lon="2.24702">
        <ele>43.400001525879</ele>
        <time>2017-04-17T19:52:04.000Z</time>
      </trkpt>
      <trkpt lat="48.83929" lon="2.24703">
        <ele>43.400001525879</ele>
        <time>2017-04-17T19:52:05.000Z</time>
      </trkpt>
      <trkpt lat="48.83945" lon="2.24718">
        <ele>43.599998474121</ele>
        <time>2017-04-17T19:52:11.000Z</time>
      </trkpt>
      <trkpt lat="48.83963" lon="2.24729">
        <ele>43.799999237061</ele>
        <time>2017-04-17T19:52:16.000Z</time>
      </trkpt>
      <trkpt lat="48.83984" lon="2.2474">
        <ele>44</ele>
        <time>2017-04-17T19:52:20.000Z</time>
      </trkpt>
      <trkpt lat="48.84004" lon="2.24749">
        <ele>44</ele>
        <time>2017-04-17T19:52:24.000Z</time>
      </trkpt>
      <trkpt lat="48.84026" lon="2.2476">
        <ele>43.799999237061</ele>
        <time>2017-04-17T19:52:29.000Z</time>
      </trkpt>
      <trkpt lat="48.84047" lon="2.24769">
        <ele>43.799999237061</ele>
        <time>2017-04-17T19:52:34.000Z</time>
      </trkpt>
      <trkpt lat="48.8405" lon="2.2477">
        <ele>43.599998474121</ele>
        <time>2017-04-17T19:52:35.000Z</time>
      </trkpt>
      <trkpt lat="48.84071" lon="2.24774">
        <ele>43.400001525879</ele>
        <time>2017-04-17T19:52:42.000Z</time>
      </trkpt>
      <trkpt lat="48.8409" lon="2.24781">
        <ele>43.200000762939</ele>
        <time>2017-04-17T19:52:48.000Z</time>
      </trkpt>
      <trkpt lat="48.8411" lon="2.24789">
        <ele>43</ele>
        <time>2017-04-17T19:52:53.000Z</time>
      </trkpt>
      <trkpt lat="48.84126" lon="2.24801">
        <ele>42.799999237061</ele>
        <time>2017-04-17T19:52:58.000Z</time>
      </trkpt>
      <trkpt lat="48.84144" lon="2.24811">
        <ele>42.599998474121</ele>
        <time>2017-04-17T19:53:03.000Z</time>
      </trkpt>
      <trkpt lat="48.84164" lon="2.24822">
        <ele>42.400001525879</ele>
        <time>2017-04-17T19:53:08.000Z</time>
      </trkpt>
      <trkpt lat="48.84181" lon="2.24831">
        <ele>42</ele>
        <time>2017-04-17T19:53:12.000Z</time>
      </trkpt>
      <trkpt lat="48.84198" lon="2.24842">
        <ele>41.799999237061</ele>
        <time>2017-04-17T19:53:16.000Z</time>
      </trkpt>
      <trkpt lat="48.84217" lon="2.24854">
        <ele>41.599998474121</ele>
        <time>2017-04-17T19:53:20.000Z</time>
      </trkpt>
      <trkpt lat="48.84236" lon="2.24866">
        <ele>41.599998474121</ele>
        <time>2017-04-17T19:53:24.000Z</time>
      </trkpt>
      <trkpt lat="48.84255" lon="2.24875">
        <ele>41.400001525879</ele>
        <time>2017-04-17T19:53:28.000Z</time>
      </trkpt>
      <trkpt lat="48.84264" lon="2.24882">
        <ele>41.400001525879</ele>
        <time>2017-04-17T19:53:30.000Z</time>
      </trkpt>
      <trkpt lat="48.84285" lon="2.24898">
        <ele>41.200000762939</ele>
        <time>2017-04-17T19:53:34.000Z</time>
      </trkpt>
      <trkpt lat="48.84303" lon="2.24912">
        <ele>41</ele>
        <time>2017-04-17T19:53:38.000Z</time>
      </trkpt>
      <trkpt lat="48.8432" lon="2.24923">
        <ele>41.200000762939</ele>
        <time>2017-04-17T19:53:42.000Z</time>
      </trkpt>
      <trkpt lat="48.84337" lon="2.24935">
        <ele>41.599998474121</ele>
        <time>2017-04-17T19:53:47.000Z</time>
      </trkpt>
      <trkpt lat="48.84354" lon="2.24945">
        <ele>41.799999237061</ele>
        <time>2017-04-17T19:53:51.000Z</time>
      </trkpt>
      <trkpt lat="48.84374" lon="2.24957">
        <ele>41.200000762939</ele>
        <time>2017-04-17T19:53:55.000Z</time>
      </trkpt>
      <trkpt lat="48.84394" lon="2.2497">
        <ele>40.599998474121</ele>
        <time>2017-04-17T19:53:58.000Z</time>
      </trkpt>
      <trkpt lat="48.8441" lon="2.24979">
        <ele>40</ele>
        <time>2017-04-17T19:54:02.000Z</time>
      </trkpt>
      <trkpt lat="48.84423" lon="2.24987">
        <ele>39.599998474121</ele>
        <time>2017-04-17T19:54:05.000Z</time>
      </trkpt>
      <trkpt lat="48.84439" lon="2.24994">
        <ele>39</ele>
        <time>2017-04-17T19:54:09.000Z</time>
      </trkpt>
      <trkpt lat="48.84456" lon="2.25002">
        <ele>39</ele>
        <time>2017-04-17T19:54:13.000Z</time>
      </trkpt>
      <trkpt lat="48.84477" lon="2.25016">
        <ele>38.799999237061</ele>
        <time>2017-04-17T19:54:18.000Z</time>
      </trkpt>
      <trkpt lat="48.84496" lon="2.25031">
        <ele>38.599998474121</ele>
        <time>2017-04-17T19:54:23.000Z</time>
      </trkpt>
      <trkpt lat="48.84516" lon="2.25045">
        <ele>38.400001525879</ele>
        <time>2017-04-17T19:54:28.000Z</time>
      </trkpt>
      <trkpt lat="48.84535" lon="2.25057">
        <ele>38.200000762939</ele>
        <time>2017-04-17T19:54:33.000Z</time>
      </trkpt>
      <trkpt lat="48.8454" lon="2.2506">
        <ele>38</ele>
        <time>2017-04-17T19:54:35.000Z</time>
      </trkpt>
      <trkpt lat="48.84546" lon="2.25063">
        <ele>38</ele>
        <time>2017-04-17T19:54:39.000Z</time>
      </trkpt>
      <trkpt lat="48.84547" lon="2.25063">
        <ele>37.799999237061</ele>
        <time>2017-04-17T19:54:40.000Z</time>
      </trkpt>
      <trkpt lat="48.84555" lon="2.25078">
        <ele>37.599998474121</ele>
        <time>2017-04-17T19:55:36.000Z</time>
      </trkpt>
      <trkpt lat="48.84554" lon="2.25106">
        <ele>38</ele>
        <time>2017-04-17T19:55:43.000Z</time>
      </trkpt>
      <trkpt lat="48.84554" lon="2.25134">
        <ele>38.200000762939</ele>
        <time>2017-04-17T19:55:48.000Z</time>
      </trkpt>
      <trkpt lat="48.84554" lon="2.25163">
        <ele>38.599998474121</ele>
        <time>2017-04-17T19:55:53.000Z</time>
      </trkpt>
      <trkpt lat="48.84555" lon="2.25194">
        <ele>38.599998474121</ele>
        <time>2017-04-17T19:55:58.000Z</time>
      </trkpt>
      <trkpt lat="48.84556" lon="2.2523">
        <ele>38.599998474121</ele>
        <time>2017-04-17T19:56:02.000Z</time>
      </trkpt>
      <trkpt lat="48.84556" lon="2.25254">
        <ele>38.200000762939</ele>
        <time>2017-04-17T19:56:04.000Z</time>
      </trkpt>
      <trkpt lat="48.84555" lon="2.25294">
        <ele>36.799999237061</ele>
        <time>2017-04-17T19:56:07.000Z</time>
      </trkpt>
      <trkpt lat="48.84553" lon="2.25332">
        <ele>35</ele>
        <time>2017-04-17T19:56:10.000Z</time>
      </trkpt>
      <trkpt lat="48.84552" lon="2.25372">
        <ele>34.200000762939</ele>
        <time>2017-04-17T19:56:13.000Z</time>
      </trkpt>
      <trkpt lat="48.84551" lon="2.25412">
        <ele>34.400001525879</ele>
        <time>2017-04-17T19:56:16.000Z</time>
      </trkpt>
      <trkpt lat="48.84549" lon="2.25445">
        <ele>34.599998474121</ele>
        <time>2017-04-17T19:56:19.000Z</time>
      </trkpt>
      <trkpt lat="48.84545" lon="2.25468">
        <ele>34.799999237061</ele>
        <time>2017-04-17T19:56:22.000Z</time>
      </trkpt>
      <trkpt lat="48.84536" lon="2.25484">
        <ele>34.799999237061</ele>
        <time>2017-04-17T19:56:26.000Z</time>
      </trkpt>
      <trkpt lat="48.84527" lon="2.25496">
        <ele>35</ele>
        <time>2017-04-17T19:56:57.000Z</time>
      </trkpt>
      <trkpt lat="48.8452" lon="2.25523">
        <ele>35.799999237061</ele>
        <time>2017-04-17T19:57:04.000Z</time>
      </trkpt>
      <trkpt lat="48.84517" lon="2.2555">
        <ele>36.599998474121</ele>
        <time>2017-04-17T19:57:12.000Z</time>
      </trkpt>
      <trkpt lat="48.84517" lon="2.2555">
        <ele>36.599998474121</ele>
        <time>2017-04-17T19:57:13.000Z</time>
      </trkpt>
      <trkpt lat="48.84519" lon="2.25576">
        <ele>37</ele>
        <time>2017-04-17T19:57:28.000Z</time>
      </trkpt>
      <trkpt lat="48.84532" lon="2.25598">
        <ele>37.599998474121</ele>
        <time>2017-04-17T19:57:34.000Z</time>
      </trkpt>
      <trkpt lat="48.84537" lon="2.25616">
        <ele>38.200000762939</ele>
        <time>2017-04-17T19:57:37.000Z</time>
      </trkpt>
      <trkpt lat="48.8454" lon="2.25648">
        <ele>39.200000762939</ele>
        <time>2017-04-17T19:57:42.000Z</time>
      </trkpt>
      <trkpt lat="48.84539" lon="2.25679">
        <ele>40</ele>
        <time>2017-04-17T19:57:47.000Z</time>
      </trkpt>
      <trkpt lat="48.84536" lon="2.25707">
        <ele>41.200000762939</ele>
        <time>2017-04-17T19:57:52.000Z</time>
      </trkpt>
      <trkpt lat="48.84535" lon="2.25733">
        <ele>42</ele>
        <time>2017-04-17T19:58:02.000Z</time>
      </trkpt>
      <trkpt lat="48.84535" lon="2.25732">
        <ele>42</ele>
        <time>2017-04-17T19:58:03.000Z</time>
      </trkpt>
      <trkpt lat="48.84532" lon="2.2576">
        <ele>43.599998474121</ele>
        <time>2017-04-17T19:58:24.000Z</time>
      </trkpt>
      <trkpt lat="48.84537" lon="2.25786">
        <ele>45</ele>
        <time>2017-04-17T19:58:30.000Z</time>
      </trkpt>
      <trkpt lat="48.84537" lon="2.25814">
        <ele>46.799999237061</ele>
        <time>2017-04-17T19:58:36.000Z</time>
      </trkpt>
      <trkpt lat="48.84535" lon="2.25842">
        <ele>48.200000762939</ele>
        <time>2017-04-17T19:58:43.000Z</time>
      </trkpt>
      <trkpt lat="48.84532" lon="2.25869">
        <ele>47.799999237061</ele>
        <time>2017-04-17T19:58:50.000Z</time>
      </trkpt>
      <trkpt lat="48.84532" lon="2.2587">
        <ele>47.799999237061</ele>
        <time>2017-04-17T19:58:51.000Z</time>
      </trkpt>
      <trkpt lat="48.84534" lon="2.25895">
        <ele>47.599998474121</ele>
        <time>2017-04-17T19:59:05.000Z</time>
      </trkpt>
      <trkpt lat="48.8454" lon="2.25927">
        <ele>47.799999237061</ele>
        <time>2017-04-17T19:59:10.000Z</time>
      </trkpt>
      <trkpt lat="48.84544" lon="2.25956">
        <ele>48.200000762939</ele>
        <time>2017-04-17T19:59:14.000Z</time>
      </trkpt>
      <trkpt lat="48.84546" lon="2.25986">
        <ele>48.799999237061</ele>
        <time>2017-04-17T19:59:18.000Z</time>
      </trkpt>
      <trkpt lat="48.84546" lon="2.26019">
        <ele>49.200000762939</ele>
        <time>2017-04-17T19:59:23.000Z</time>
      </trkpt>
      <trkpt lat="48.84546" lon="2.2605">
        <ele>49.400001525879</ele>
        <time>2017-04-17T19:59:28.000Z</time>
      </trkpt>
      <trkpt lat="48.84547" lon="2.26082">
        <ele>49.799999237061</ele>
        <time>2017-04-17T19:59:33.000Z</time>
      </trkpt>
      <trkpt lat="48.84547" lon="2.26095">
        <ele>49.400001525879</ele>
        <time>2017-04-17T19:59:35.000Z</time>
      </trkpt>
      <trkpt lat="48.84546" lon="2.26128">
        <ele>49.599998474121</ele>
        <time>2017-04-17T19:59:40.000Z</time>
      </trkpt>
      <trkpt lat="48.84541" lon="2.26158">
        <ele>50</ele>
        <time>2017-04-17T19:59:45.000Z</time>
      </trkpt>
      <trkpt lat="48.84535" lon="2.26179">
        <ele>49.599998474121</ele>
        <time>2017-04-17T19:59:49.000Z</time>
      </trkpt>
      <trkpt lat="48.84533" lon="2.26203">
        <ele>48</ele>
        <time>2017-04-17T20:00:06.000Z</time>
      </trkpt>
      <trkpt lat="48.84538" lon="2.2623">
        <ele>46.599998474121</ele>
        <time>2017-04-17T20:00:10.000Z</time>
      </trkpt>
      <trkpt lat="48.84537" lon="2.26261">
        <ele>45.599998474121</ele>
        <time>2017-04-17T20:00:14.000Z</time>
      </trkpt>
      <trkpt lat="48.84537" lon="2.26293">
        <ele>45.599998474121</ele>
        <time>2017-04-17T20:00:18.000Z</time>
      </trkpt>
      <trkpt lat="48.84539" lon="2.26302">
        <ele>45.599998474121</ele>
        <time>2017-04-17T20:00:19.000Z</time>
      </trkpt>
      <trkpt lat="48.84538" lon="2.26335">
        <ele>45.599998474121</ele>
        <time>2017-04-17T20:00:23.000Z</time>
      </trkpt>
      <trkpt lat="48.84539" lon="2.26363">
        <ele>46.400001525879</ele>
        <time>2017-04-17T20:00:27.000Z</time>
      </trkpt>
      <trkpt lat="48.84537" lon="2.2638">
        <ele>47</ele>
        <time>2017-04-17T20:00:29.000Z</time>
      </trkpt>
      <trkpt lat="48.84536" lon="2.26412">
        <ele>48.200000762939</ele>
        <time>2017-04-17T20:00:33.000Z</time>
      </trkpt>
      <trkpt lat="48.84534" lon="2.26445">
        <ele>47</ele>
        <time>2017-04-17T20:00:39.000Z</time>
      </trkpt>
      <trkpt lat="48.84533" lon="2.2648">
        <ele>46.599998474121</ele>
        <time>2017-04-17T20:00:44.000Z</time>
      </trkpt>
      <trkpt lat="48.84533" lon="2.26511">
        <ele>46.400001525879</ele>
        <time>2017-04-17T20:00:48.000Z</time>
      </trkpt>
      <trkpt lat="48.84534" lon="2.26542">
        <ele>45.799999237061</ele>
        <time>2017-04-17T20:00:52.000Z</time>
      </trkpt>
      <trkpt lat="48.84533" lon="2.26576">
        <ele>45.599998474121</ele>
        <time>2017-04-17T20:00:57.000Z</time>
      </trkpt>
      <trkpt lat="48.84531" lon="2.26608">
        <ele>45</ele>
        <time>2017-04-17T20:01:02.000Z</time>
      </trkpt>
      <trkpt lat="48.84531" lon="2.2663">
        <ele>44.200000762939</ele>
        <time>2017-04-17T20:01:06.000Z</time>
      </trkpt>
      <trkpt lat="48.84533" lon="2.2665">
        <ele>43.599998474121</ele>
        <time>2017-04-17T20:01:10.000Z</time>
      </trkpt>
      <trkpt lat="48.8453" lon="2.26667">
        <ele>43</ele>
        <time>2017-04-17T20:01:14.000Z</time>
      </trkpt>
      <trkpt lat="48.84533" lon="2.26677">
        <ele>42.599998474121</ele>
        <time>2017-04-17T20:01:18.000Z</time>
      </trkpt>
      <trkpt lat="48.84545" lon="2.26702">
        <ele>42</ele>
        <time>2017-04-17T20:01:27.000Z</time>
      </trkpt>
      <trkpt lat="48.84554" lon="2.26733">
        <ele>41.400001525879</ele>
        <time>2017-04-17T20:01:32.000Z</time>
      </trkpt>
      <trkpt lat="48.84561" lon="2.26759">
        <ele>41</ele>
        <time>2017-04-17T20:01:36.000Z</time>
      </trkpt>
      <trkpt lat="48.84571" lon="2.26786">
        <ele>41</ele>
        <time>2017-04-17T20:01:40.000Z</time>
      </trkpt>
      <trkpt lat="48.84579" lon="2.26818">
        <ele>40.200000762939</ele>
        <time>2017-04-17T20:01:44.000Z</time>
      </trkpt>
      <trkpt lat="48.84588" lon="2.2685">
        <ele>39</ele>
        <time>2017-04-17T20:01:48.000Z</time>
      </trkpt>
      <trkpt lat="48.84596" lon="2.26879">
        <ele>38</ele>
        <time>2017-04-17T20:01:52.000Z</time>
      </trkpt>
      <trkpt lat="48.84603" lon="2.26906">
        <ele>37.200000762939</ele>
        <time>2017-04-17T20:01:56.000Z</time>
      </trkpt>
      <trkpt lat="48.84613" lon="2.26936">
        <ele>37.799999237061</ele>
        <time>2017-04-17T20:02:01.000Z</time>
      </trkpt>
      <trkpt lat="48.84614" lon="2.26942">
        <ele>37.799999237061</ele>
        <time>2017-04-17T20:02:02.000Z</time>
      </trkpt>
      <trkpt lat="48.84621" lon="2.26971">
        <ele>38.599998474121</ele>
        <time>2017-04-17T20:02:06.000Z</time>
      </trkpt>
      <trkpt lat="48.84627" lon="2.26999">
        <ele>39.400001525879</ele>
        <time>2017-04-17T20:02:10.000Z</time>
      </trkpt>
      <trkpt lat="48.84637" lon="2.27024">
        <ele>41</ele>
        <time>2017-04-17T20:02:14.000Z</time>
      </trkpt>
      <trkpt lat="48.84643" lon="2.2704">
        <ele>42.200000762939</ele>
        <time>2017-04-17T20:02:17.000Z</time>
      </trkpt>
      <trkpt lat="48.8465" lon="2.27057">
        <ele>43.599998474121</ele>
        <time>2017-04-17T20:02:20.000Z</time>
      </trkpt>
      <trkpt lat="48.84658" lon="2.27086">
        <ele>45.400001525879</ele>
        <time>2017-04-17T20:02:25.000Z</time>
      </trkpt>
      <trkpt lat="48.8466" lon="2.27091">
        <ele>45.400001525879</ele>
        <time>2017-04-17T20:02:26.000Z</time>
      </trkpt>
      <trkpt lat="48.84667" lon="2.27118">
        <ele>45.599998474121</ele>
        <time>2017-04-17T20:02:31.000Z</time>
      </trkpt>
      <trkpt lat="48.8467" lon="2.27137">
        <ele>45.799999237061</ele>
        <time>2017-04-17T20:02:34.000Z</time>
      </trkpt>
      <trkpt lat="48.84676" lon="2.27159">
        <ele>46.400001525879</ele>
        <time>2017-04-17T20:02:37.000Z</time>
      </trkpt>
      <trkpt lat="48.84686" lon="2.27183">
        <ele>46.400001525879</ele>
        <time>2017-04-17T20:02:41.000Z</time>
      </trkpt>
      <trkpt lat="48.84696" lon="2.27207">
        <ele>46</ele>
        <time>2017-04-17T20:02:45.000Z</time>
      </trkpt>
      <trkpt lat="48.84706" lon="2.27232">
        <ele>45.599998474121</ele>
        <time>2017-04-17T20:02:49.000Z</time>
      </trkpt>
      <trkpt lat="48.84715" lon="2.2726">
        <ele>45.200000762939</ele>
        <time>2017-04-17T20:02:53.000Z</time>
      </trkpt>
      <trkpt lat="48.84725" lon="2.27288">
        <ele>44.599998474121</ele>
        <time>2017-04-17T20:02:57.000Z</time>
      </trkpt>
      <trkpt lat="48.8473" lon="2.27315">
        <ele>43.400001525879</ele>
        <time>2017-04-17T20:03:02.000Z</time>
      </trkpt>
      <trkpt lat="48.84732" lon="2.27318">
        <ele>43.200000762939</ele>
        <time>2017-04-17T20:03:03.000Z</time>
      </trkpt>
      <trkpt lat="48.84736" lon="2.27327">
        <ele>43</ele>
        <time>2017-04-17T20:03:05.000Z</time>
      </trkpt>
      <trkpt lat="48.84741" lon="2.27335">
        <ele>42.799999237061</ele>
        <time>2017-04-17T20:03:08.000Z</time>
      </trkpt>
      <trkpt lat="48.84743" lon="2.27338">
        <ele>42.799999237061</ele>
        <time>2017-04-17T20:03:10.000Z</time>
      </trkpt>
      <trkpt lat="48.84751" lon="2.27365">
        <ele>42.400001525879</ele>
        <time>2017-04-17T20:03:22.000Z</time>
      </trkpt>
      <trkpt lat="48.84753" lon="2.2737">
        <ele>42.400001525879</ele>
        <time>2017-04-17T20:03:24.000Z</time>
      </trkpt>
      <trkpt lat="48.84765" lon="2.27394">
        <ele>42.200000762939</ele>
        <time>2017-04-17T20:03:33.000Z</time>
      </trkpt>
      <trkpt lat="48.8478" lon="2.27413">
        <ele>42</ele>
        <time>2017-04-17T20:03:40.000Z</time>
      </trkpt>
      <trkpt lat="48.84794" lon="2.27434">
        <ele>43</ele>
        <time>2017-04-17T20:03:47.000Z</time>
      </trkpt>
      <trkpt lat="48.8481" lon="2.27451">
        <ele>43.799999237061</ele>
        <time>2017-04-17T20:03:52.000Z</time>
      </trkpt>
      <trkpt lat="48.8483" lon="2.27468">
        <ele>44.599998474121</ele>
        <time>2017-04-17T20:03:55.000Z</time>
      </trkpt>
      <trkpt lat="48.84846" lon="2.27484">
        <ele>45.400001525879</ele>
        <time>2017-04-17T20:03:58.000Z</time>
      </trkpt>
      <trkpt lat="48.84864" lon="2.27501">
        <ele>46.200000762939</ele>
        <time>2017-04-17T20:04:02.000Z</time>
      </trkpt>
      <trkpt lat="48.8488" lon="2.27514">
        <ele>46.400001525879</ele>
        <time>2017-04-17T20:04:06.000Z</time>
      </trkpt>
      <trkpt lat="48.84897" lon="2.27525">
        <ele>46.799999237061</ele>
        <time>2017-04-17T20:04:10.000Z</time>
      </trkpt>
      <trkpt lat="48.84914" lon="2.27543">
        <ele>47.200000762939</ele>
        <time>2017-04-17T20:04:16.000Z</time>
      </trkpt>
      <trkpt lat="48.84929" lon="2.27558">
        <ele>47.400001525879</ele>
        <time>2017-04-17T20:04:21.000Z</time>
      </trkpt>
      <trkpt lat="48.84946" lon="2.27574">
        <ele>47.400001525879</ele>
        <time>2017-04-17T20:04:28.000Z</time>
      </trkpt>
      <trkpt lat="48.84965" lon="2.27581">
        <ele>46.400001525879</ele>
        <time>2017-04-17T20:04:35.000Z</time>
      </trkpt>
      <trkpt lat="48.84983" lon="2.27592">
        <ele>45.599998474121</ele>
        <time>2017-04-17T20:04:40.000Z</time>
      </trkpt>
      <trkpt lat="48.85007" lon="2.27616">
        <ele>44.400001525879</ele>
        <time>2017-04-17T20:04:44.000Z</time>
      </trkpt>
      <trkpt lat="48.85023" lon="2.27635">
        <ele>43.599998474121</ele>
        <time>2017-04-17T20:04:47.000Z</time>
      </trkpt>
      <trkpt lat="48.85039" lon="2.27659">
        <ele>43</ele>
        <time>2017-04-17T20:04:51.000Z</time>
      </trkpt>
      <trkpt lat="48.85053" lon="2.27681">
        <ele>41.799999237061</ele>
        <time>2017-04-17T20:04:54.000Z</time>
      </trkpt>
      <trkpt lat="48.85069" lon="2.27705">
        <ele>40.200000762939</ele>
        <time>2017-04-17T20:04:58.000Z</time>
      </trkpt>
      <trkpt lat="48.85081" lon="2.27731">
        <ele>38.400001525879</ele>
        <time>2017-04-17T20:05:04.000Z</time>
      </trkpt>
      <trkpt lat="48.85084" lon="2.2774">
        <ele>37.599998474121</ele>
        <time>2017-04-17T20:05:06.000Z</time>
      </trkpt>
      <trkpt lat="48.85091" lon="2.27758">
        <ele>37</ele>
        <time>2017-04-17T20:05:10.000Z</time>
      </trkpt>
      <trkpt lat="48.85093" lon="2.27763">
        <ele>37</ele>
        <time>2017-04-17T20:05:11.000Z</time>
      </trkpt>
      <trkpt lat="48.85101" lon="2.27784">
        <ele>37</ele>
        <time>2017-04-17T20:05:16.000Z</time>
      </trkpt>
      <trkpt lat="48.85105" lon="2.27791">
        <ele>37</ele>
        <time>2017-04-17T20:05:18.000Z</time>
      </trkpt>
      <trkpt lat="48.85113" lon="2.27811">
        <ele>37</ele>
        <time>2017-04-17T20:05:24.000Z</time>
      </trkpt>
      <trkpt lat="48.85117" lon="2.27821">
        <ele>37</ele>
        <time>2017-04-17T20:05:28.000Z</time>
      </trkpt>
      <trkpt lat="48.85131" lon="2.27838">
        <ele>36.799999237061</ele>
        <time>2017-04-17T20:05:36.000Z</time>
      </trkpt>
      <trkpt lat="48.85132" lon="2.27841">
        <ele>36.799999237061</ele>
        <time>2017-04-17T20:05:37.000Z</time>
      </trkpt>
      <trkpt lat="48.85142" lon="2.27857">
        <ele>36.599998474121</ele>
        <time>2017-04-17T20:05:47.000Z</time>
      </trkpt>
      <trkpt lat="48.85155" lon="2.27878">
        <ele>36.400001525879</ele>
        <time>2017-04-17T20:05:53.000Z</time>
      </trkpt>
      <trkpt lat="48.85169" lon="2.27902">
        <ele>35.599998474121</ele>
        <time>2017-04-17T20:05:59.000Z</time>
      </trkpt>
      <trkpt lat="48.85184" lon="2.27925">
        <ele>35.200000762939</ele>
        <time>2017-04-17T20:06:05.000Z</time>
      </trkpt>
      <trkpt lat="48.85197" lon="2.2795">
        <ele>34.799999237061</ele>
        <time>2017-04-17T20:06:10.000Z</time>
      </trkpt>
      <trkpt lat="48.8521" lon="2.27973">
        <ele>34.400001525879</ele>
        <time>2017-04-17T20:06:15.000Z</time>
      </trkpt>
      <trkpt lat="48.85223" lon="2.27997">
        <ele>34</ele>
        <time>2017-04-17T20:06:20.000Z</time>
      </trkpt>
      <trkpt lat="48.85234" lon="2.28019">
        <ele>33.400001525879</ele>
        <time>2017-04-17T20:06:24.000Z</time>
      </trkpt>
      <trkpt lat="48.85249" lon="2.28044">
        <ele>32.599998474121</ele>
        <time>2017-04-17T20:06:27.000Z</time>
      </trkpt>
      <trkpt lat="48.85261" lon="2.28067">
        <ele>32</ele>
        <time>2017-04-17T20:06:30.000Z</time>
      </trkpt>
      <trkpt lat="48.85275" lon="2.28094">
        <ele>32</ele>
        <time>2017-04-17T20:06:34.000Z</time>
      </trkpt>
      <trkpt lat="48.85287" lon="2.28118">
        <ele>33.200000762939</ele>
        <time>2017-04-17T20:06:38.000Z</time>
      </trkpt>
      <trkpt lat="48.85295" lon="2.28133">
        <ele>33.799999237061</ele>
        <time>2017-04-17T20:06:40.000Z</time>
      </trkpt>
      <trkpt lat="48.85314" lon="2.28156">
        <ele>35.599998474121</ele>
        <time>2017-04-17T20:06:42.000Z</time>
      </trkpt>
      <trkpt lat="48.85325" lon="2.28168">
        <ele>36.200000762939</ele>
        <time>2017-04-17T20:06:43.000Z</time>
      </trkpt>
      <trkpt lat="48.85342" lon="2.28194">
        <ele>35</ele>
        <time>2017-04-17T20:06:46.000Z</time>
      </trkpt>
      <trkpt lat="48.85356" lon="2.28221">
        <ele>33.599998474121</ele>
        <time>2017-04-17T20:06:49.000Z</time>
      </trkpt>
      <trkpt lat="48.85372" lon="2.28249">
        <ele>32.200000762939</ele>
        <time>2017-04-17T20:06:52.000Z</time>
      </trkpt>
      <trkpt lat="48.85389" lon="2.28277">
        <ele>33.799999237061</ele>
        <time>2017-04-17T20:06:55.000Z</time>
      </trkpt>
      <trkpt lat="48.85407" lon="2.28302">
        <ele>35</ele>
        <time>2017-04-17T20:06:58.000Z</time>
      </trkpt>
      <trkpt lat="48.85425" lon="2.28322">
        <ele>36.200000762939</ele>
        <time>2017-04-17T20:07:01.000Z</time>
      </trkpt>
      <trkpt lat="48.8544" lon="2.28341">
        <ele>37.599998474121</ele>
        <time>2017-04-17T20:07:04.000Z</time>
      </trkpt>
      <trkpt lat="48.85456" lon="2.28362">
        <ele>39</ele>
        <time>2017-04-17T20:07:08.000Z</time>
      </trkpt>
      <trkpt lat="48.8547" lon="2.28383">
        <ele>40.200000762939</ele>
        <time>2017-04-17T20:07:12.000Z</time>
      </trkpt>
      <trkpt lat="48.85488" lon="2.28406">
        <ele>41.799999237061</ele>
        <time>2017-04-17T20:07:16.000Z</time>
      </trkpt>
      <trkpt lat="48.85504" lon="2.28425">
        <ele>42.599998474121</ele>
        <time>2017-04-17T20:07:19.000Z</time>
      </trkpt>
      <trkpt lat="48.85518" lon="2.28443">
        <ele>43.400001525879</ele>
        <time>2017-04-17T20:07:22.000Z</time>
      </trkpt>
      <trkpt lat="48.85533" lon="2.28459">
        <ele>42.799999237061</ele>
        <time>2017-04-17T20:07:25.000Z</time>
      </trkpt>
      <trkpt lat="48.85551" lon="2.28482">
        <ele>41.400001525879</ele>
        <time>2017-04-17T20:07:29.000Z</time>
      </trkpt>
      <trkpt lat="48.85568" lon="2.28499">
        <ele>40.400001525879</ele>
        <time>2017-04-17T20:07:33.000Z</time>
      </trkpt>
      <trkpt lat="48.85579" lon="2.28513">
        <ele>40.200000762939</ele>
        <time>2017-04-17T20:07:36.000Z</time>
      </trkpt>
      <trkpt lat="48.85588" lon="2.28533">
        <ele>39.799999237061</ele>
        <time>2017-04-17T20:07:41.000Z</time>
      </trkpt>
      <trkpt lat="48.85587" lon="2.28537">
        <ele>39.799999237061</ele>
        <time>2017-04-17T20:07:43.000Z</time>
      </trkpt>
      <trkpt lat="48.85594" lon="2.28545">
        <ele>39.599998474121</ele>
        <time>2017-04-17T20:08:37.000Z</time>
      </trkpt>
      <trkpt lat="48.85612" lon="2.28565">
        <ele>40</ele>
        <time>2017-04-17T20:08:42.000Z</time>
      </trkpt>
      <trkpt lat="48.85627" lon="2.28583">
        <ele>41</ele>
        <time>2017-04-17T20:08:46.000Z</time>
      </trkpt>
      <trkpt lat="48.85643" lon="2.28601">
        <ele>41.400001525879</ele>
        <time>2017-04-17T20:08:50.000Z</time>
      </trkpt>
      <trkpt lat="48.85654" lon="2.28615">
        <ele>41.799999237061</ele>
        <time>2017-04-17T20:08:53.000Z</time>
      </trkpt>
      <trkpt lat="48.85668" lon="2.28637">
        <ele>41.599998474121</ele>
        <time>2017-04-17T20:08:57.000Z</time>
      </trkpt>
      <trkpt lat="48.85682" lon="2.28655">
        <ele>41.799999237061</ele>
        <time>2017-04-17T20:09:01.000Z</time>
      </trkpt>
      <trkpt lat="48.85696" lon="2.28677">
        <ele>41.400001525879</ele>
        <time>2017-04-17T20:09:05.000Z</time>
      </trkpt>
      <trkpt lat="48.85714" lon="2.28697">
        <ele>42</ele>
        <time>2017-04-17T20:09:09.000Z</time>
      </trkpt>
      <trkpt lat="48.85733" lon="2.28712">
        <ele>43.599998474121</ele>
        <time>2017-04-17T20:09:12.000Z</time>
      </trkpt>
      <trkpt lat="48.85754" lon="2.28727">
        <ele>45.200000762939</ele>
        <time>2017-04-17T20:09:16.000Z</time>
      </trkpt>
      <trkpt lat="48.8577" lon="2.28745">
        <ele>45.599998474121</ele>
        <time>2017-04-17T20:09:20.000Z</time>
      </trkpt>
      <trkpt lat="48.85777" lon="2.28752">
        <ele>45.599998474121</ele>
        <time>2017-04-17T20:09:22.000Z</time>
      </trkpt>
      <trkpt lat="48.85784" lon="2.2876">
        <ele>45.200000762939</ele>
        <time>2017-04-17T20:09:24.000Z</time>
      </trkpt>
      <trkpt lat="48.85798" lon="2.2878">
        <ele>43.799999237061</ele>
        <time>2017-04-17T20:09:29.000Z</time>
      </trkpt>
      <trkpt lat="48.85801" lon="2.28783">
        <ele>43.599998474121</ele>
        <time>2017-04-17T20:09:30.000Z</time>
      </trkpt>
      <trkpt lat="48.85807" lon="2.28789">
        <ele>43.200000762939</ele>
        <time>2017-04-17T20:09:32.000Z</time>
      </trkpt>
      <trkpt lat="48.85816" lon="2.28807">
        <ele>41.400001525879</ele>
        <time>2017-04-17T20:09:37.000Z</time>
      </trkpt>
      <trkpt lat="48.8582" lon="2.28814">
        <ele>40.799999237061</ele>
        <time>2017-04-17T20:09:39.000Z</time>
      </trkpt>
      <trkpt lat="48.85825" lon="2.28825">
        <ele>39.400001525879</ele>
        <time>2017-04-17T20:09:42.000Z</time>
      </trkpt>
      <trkpt lat="48.85828" lon="2.28829">
        <ele>39.200000762939</ele>
        <time>2017-04-17T20:09:44.000Z</time>
      </trkpt>
      <trkpt lat="48.85825" lon="2.2883">
        <ele>38.599998474121</ele>
        <time>2017-04-17T20:09:50.000Z</time>
      </trkpt>
      <trkpt lat="48.85818" lon="2.28832">
        <ele>37.200000762939</ele>
        <time>2017-04-17T20:09:55.000Z</time>
      </trkpt>
      <trkpt lat="48.8582" lon="2.28845">
        <ele>36</ele>
        <time>2017-04-17T20:09:59.000Z</time>
      </trkpt>
      <trkpt lat="48.85835" lon="2.28864">
        <ele>35.799999237061</ele>
        <time>2017-04-17T20:10:06.000Z</time>
      </trkpt>
      <trkpt lat="48.85851" lon="2.28881">
        <ele>36.200000762939</ele>
        <time>2017-04-17T20:10:11.000Z</time>
      </trkpt>
      <trkpt lat="48.85866" lon="2.28899">
        <ele>35.599998474121</ele>
        <time>2017-04-17T20:10:16.000Z</time>
      </trkpt>
      <trkpt lat="48.85879" lon="2.28919">
        <ele>34.599998474121</ele>
        <time>2017-04-17T20:10:21.000Z</time>
      </trkpt>
      <trkpt lat="48.85892" lon="2.28945">
        <ele>33.400001525879</ele>
        <time>2017-04-17T20:10:26.000Z</time>
      </trkpt>
      <trkpt lat="48.85905" lon="2.28967">
        <ele>32.599998474121</ele>
        <time>2017-04-17T20:10:30.000Z</time>
      </trkpt>
      <trkpt lat="48.85922" lon="2.28985">
        <ele>32.599998474121</ele>
        <time>2017-04-17T20:10:34.000Z</time>
      </trkpt>
      <trkpt lat="48.85938" lon="2.29001">
        <ele>32.799999237061</ele>
        <time>2017-04-17T20:10:38.000Z</time>
      </trkpt>
      <trkpt lat="48.85955" lon="2.2902">
        <ele>32.799999237061</ele>
        <time>2017-04-17T20:10:43.000Z</time>
      </trkpt>
      <trkpt lat="48.85972" lon="2.29039">
        <ele>32.599998474121</ele>
        <time>2017-04-17T20:10:48.000Z</time>
      </trkpt>
      <trkpt lat="48.85981" lon="2.29051">
        <ele>32.599998474121</ele>
        <time>2017-04-17T20:10:52.000Z</time>
      </trkpt>
      <trkpt lat="48.85993" lon="2.29073">
        <ele>32.200000762939</ele>
        <time>2017-04-17T20:10:59.000Z</time>
      </trkpt>
      <trkpt lat="48.85996" lon="2.29075">
        <ele>32.200000762939</ele>
        <time>2017-04-17T20:11:00.000Z</time>
      </trkpt>
      <trkpt lat="48.86011" lon="2.2909">
        <ele>32</ele>
        <time>2017-04-17T20:11:08.000Z</time>
      </trkpt>
      <trkpt lat="48.86025" lon="2.29105">
        <ele>31.60000038147</ele>
        <time>2017-04-17T20:11:18.000Z</time>
      </trkpt>
      <trkpt lat="48.86022" lon="2.29114">
        <ele>31</ele>
        <time>2017-04-17T20:11:26.000Z</time>
      </trkpt>
      <trkpt lat="48.8603" lon="2.29124">
        <ele>30.60000038147</ele>
        <time>2017-04-17T20:12:04.000Z</time>
      </trkpt>
      <trkpt lat="48.86031" lon="2.29124">
        <ele>30.799999237061</ele>
        <time>2017-04-17T20:12:06.000Z</time>
      </trkpt>
      <trkpt lat="48.86035" lon="2.29126">
        <ele>30.799999237061</ele>
        <time>2017-04-17T20:12:23.000Z</time>
      </trkpt>
      <trkpt lat="48.86051" lon="2.29139">
        <ele>30.799999237061</ele>
        <time>2017-04-17T20:12:30.000Z</time>
      </trkpt>
      <trkpt lat="48.86056" lon="2.29146">
        <ele>30.60000038147</ele>
        <time>2017-04-17T20:12:32.000Z</time>
      </trkpt>
      <trkpt lat="48.8607" lon="2.29164">
        <ele>30.200000762939</ele>
        <time>2017-04-17T20:12:37.000Z</time>
      </trkpt>
      <trkpt lat="48.86084" lon="2.29183">
        <ele>30.60000038147</ele>
        <time>2017-04-17T20:12:42.000Z</time>
      </trkpt>
      <trkpt lat="48.86099" lon="2.29202">
        <ele>31.200000762939</ele>
        <time>2017-04-17T20:12:47.000Z</time>
      </trkpt>
      <trkpt lat="48.86112" lon="2.2922">
        <ele>31.60000038147</ele>
        <time>2017-04-17T20:12:51.000Z</time>
      </trkpt>
      <trkpt lat="48.86126" lon="2.29243">
        <ele>32.200000762939</ele>
        <time>2017-04-17T20:12:56.000Z</time>
      </trkpt>
      <trkpt lat="48.86144" lon="2.2927">
        <ele>31.60000038147</ele>
        <time>2017-04-17T20:13:01.000Z</time>
      </trkpt>
      <trkpt lat="48.8616" lon="2.29288">
        <ele>31.200000762939</ele>
        <time>2017-04-17T20:13:04.000Z</time>
      </trkpt>
      <trkpt lat="48.86177" lon="2.29307">
        <ele>31</ele>
        <time>2017-04-17T20:13:07.000Z</time>
      </trkpt>
      <trkpt lat="48.86193" lon="2.29324">
        <ele>31</ele>
        <time>2017-04-17T20:13:10.000Z</time>
      </trkpt>
      <trkpt lat="48.86197" lon="2.29331">
        <ele>31.200000762939</ele>
        <time>2017-04-17T20:13:11.000Z</time>
      </trkpt>
      <trkpt lat="48.86212" lon="2.29353">
        <ele>31.799999237061</ele>
        <time>2017-04-17T20:13:14.000Z</time>
      </trkpt>
      <trkpt lat="48.86224" lon="2.29373">
        <ele>33</ele>
        <time>2017-04-17T20:13:17.000Z</time>
      </trkpt>
      <trkpt lat="48.86241" lon="2.29403">
        <ele>34.400001525879</ele>
        <time>2017-04-17T20:13:21.000Z</time>
      </trkpt>
      <trkpt lat="48.86256" lon="2.29428">
        <ele>34.799999237061</ele>
        <time>2017-04-17T20:13:25.000Z</time>
      </trkpt>
      <trkpt lat="48.86267" lon="2.29451">
        <ele>34.799999237061</ele>
        <time>2017-04-17T20:13:28.000Z</time>
      </trkpt>
      <trkpt lat="48.86277" lon="2.29485">
        <ele>33.799999237061</ele>
        <time>2017-04-17T20:13:32.000Z</time>
      </trkpt>
      <trkpt lat="48.86285" lon="2.29511">
        <ele>33.200000762939</ele>
        <time>2017-04-17T20:13:35.000Z</time>
      </trkpt>
      <trkpt lat="48.86298" lon="2.29541">
        <ele>33.200000762939</ele>
        <time>2017-04-17T20:13:39.000Z</time>
      </trkpt>
      <trkpt lat="48.86306" lon="2.2957">
        <ele>32.799999237061</ele>
        <time>2017-04-17T20:13:42.000Z</time>
      </trkpt>
      <trkpt lat="48.86313" lon="2.29605">
        <ele>32.599998474121</ele>
        <time>2017-04-17T20:13:45.000Z</time>
      </trkpt>
      <trkpt lat="48.86321" lon="2.29633">
        <ele>32.400001525879</ele>
        <time>2017-04-17T20:13:48.000Z</time>
      </trkpt>
      <trkpt lat="48.8633" lon="2.29665">
        <ele>31.799999237061</ele>
        <time>2017-04-17T20:13:52.000Z</time>
      </trkpt>
      <trkpt lat="48.86337" lon="2.29695">
        <ele>32.400001525879</ele>
        <time>2017-04-17T20:13:56.000Z</time>
      </trkpt>
      <trkpt lat="48.86343" lon="2.29726">
        <ele>33</ele>
        <time>2017-04-17T20:14:00.000Z</time>
      </trkpt>
      <trkpt lat="48.86349" lon="2.29758">
        <ele>33.200000762939</ele>
        <time>2017-04-17T20:14:04.000Z</time>
      </trkpt>
      <trkpt lat="48.86355" lon="2.29794">
        <ele>33.400001525879</ele>
        <time>2017-04-17T20:14:08.000Z</time>
      </trkpt>
      <trkpt lat="48.8636" lon="2.29825">
        <ele>33.400001525879</ele>
        <time>2017-04-17T20:14:11.000Z</time>
      </trkpt>
      <trkpt lat="48.86365" lon="2.29856">
        <ele>33.799999237061</ele>
        <time>2017-04-17T20:14:14.000Z</time>
      </trkpt>
      <trkpt lat="48.86369" lon="2.29889">
        <ele>33.599998474121</ele>
        <time>2017-04-17T20:14:17.000Z</time>
      </trkpt>
      <trkpt lat="48.86376" lon="2.29924">
        <ele>34.799999237061</ele>
        <time>2017-04-17T20:14:20.000Z</time>
      </trkpt>
      <trkpt lat="48.86381" lon="2.29963">
        <ele>38.400001525879</ele>
        <time>2017-04-17T20:14:23.000Z</time>
      </trkpt>
      <trkpt lat="48.86388" lon="2.29998">
        <ele>41.799999237061</ele>
        <time>2017-04-17T20:14:26.000Z</time>
      </trkpt>
      <trkpt lat="48.86394" lon="2.3003">
        <ele>37.200000762939</ele>
        <time>2017-04-17T20:14:29.000Z</time>
      </trkpt>
      <trkpt lat="48.86399" lon="2.3006">
        <ele>34.400001525879</ele>
        <time>2017-04-17T20:14:32.000Z</time>
      </trkpt>
      <trkpt lat="48.86404" lon="2.30088">
        <ele>32</ele>
        <time>2017-04-17T20:14:35.000Z</time>
      </trkpt>
      <trkpt lat="48.86409" lon="2.30115">
        <ele>28.39999961853</ele>
        <time>2017-04-17T20:14:39.000Z</time>
      </trkpt>
      <trkpt lat="48.86414" lon="2.30136">
        <ele>25.799999237061</ele>
        <time>2017-04-17T20:14:44.000Z</time>
      </trkpt>
      <trkpt lat="48.86413" lon="2.30144">
        <ele>25.39999961853</ele>
        <time>2017-04-17T20:15:55.000Z</time>
      </trkpt>
      <trkpt lat="48.86417" lon="2.3017">
        <ele>25.200000762939</ele>
        <time>2017-04-17T20:16:15.000Z</time>
      </trkpt>
      <trkpt lat="48.86424" lon="2.30199">
        <ele>26.60000038147</ele>
        <time>2017-04-17T20:16:22.000Z</time>
      </trkpt>
      <trkpt lat="48.86426" lon="2.30232">
        <ele>28.60000038147</ele>
        <time>2017-04-17T20:16:27.000Z</time>
      </trkpt>
      <trkpt lat="48.86427" lon="2.30265">
        <ele>29.60000038147</ele>
        <time>2017-04-17T20:16:31.000Z</time>
      </trkpt>
      <trkpt lat="48.86427" lon="2.303">
        <ele>31</ele>
        <time>2017-04-17T20:16:35.000Z</time>
      </trkpt>
      <trkpt lat="48.86427" lon="2.30334">
        <ele>31.200000762939</ele>
        <time>2017-04-17T20:16:39.000Z</time>
      </trkpt>
      <trkpt lat="48.86429" lon="2.30366">
        <ele>31.799999237061</ele>
        <time>2017-04-17T20:16:43.000Z</time>
      </trkpt>
      <trkpt lat="48.86433" lon="2.30396">
        <ele>32.400001525879</ele>
        <time>2017-04-17T20:16:47.000Z</time>
      </trkpt>
      <trkpt lat="48.8644" lon="2.30424">
        <ele>32.799999237061</ele>
        <time>2017-04-17T20:16:52.000Z</time>
      </trkpt>
      <trkpt lat="48.86444" lon="2.30439">
        <ele>33</ele>
        <time>2017-04-17T20:16:56.000Z</time>
      </trkpt>
      <trkpt lat="48.86445" lon="2.30445">
        <ele>33.200000762939</ele>
        <time>2017-04-17T20:16:58.000Z</time>
      </trkpt>
      <trkpt lat="48.86447" lon="2.30462">
        <ele>33</ele>
        <time>2017-04-17T20:17:02.000Z</time>
      </trkpt>
      <trkpt lat="48.86446" lon="2.30492">
        <ele>32.200000762939</ele>
        <time>2017-04-17T20:17:07.000Z</time>
      </trkpt>
      <trkpt lat="48.86443" lon="2.30524">
        <ele>31.799999237061</ele>
        <time>2017-04-17T20:17:12.000Z</time>
      </trkpt>
      <trkpt lat="48.86439" lon="2.30552">
        <ele>31.60000038147</ele>
        <time>2017-04-17T20:17:17.000Z</time>
      </trkpt>
      <trkpt lat="48.86441" lon="2.30581">
        <ele>32.200000762939</ele>
        <time>2017-04-17T20:17:22.000Z</time>
      </trkpt>
      <trkpt lat="48.86442" lon="2.30609">
        <ele>33.200000762939</ele>
        <time>2017-04-17T20:17:26.000Z</time>
      </trkpt>
      <trkpt lat="48.86443" lon="2.30638">
        <ele>34</ele>
        <time>2017-04-17T20:17:30.000Z</time>
      </trkpt>
      <trkpt lat="48.86443" lon="2.30671">
        <ele>34.400001525879</ele>
        <time>2017-04-17T20:17:35.000Z</time>
      </trkpt>
      <trkpt lat="48.86445" lon="2.30697">
        <ele>33.799999237061</ele>
        <time>2017-04-17T20:17:39.000Z</time>
      </trkpt>
      <trkpt lat="48.86448" lon="2.30729">
        <ele>33.599998474121</ele>
        <time>2017-04-17T20:17:43.000Z</time>
      </trkpt>
      <trkpt lat="48.8645" lon="2.30759">
        <ele>33.200000762939</ele>
        <time>2017-04-17T20:17:47.000Z</time>
      </trkpt>
      <trkpt lat="48.86449" lon="2.30788">
        <ele>33</ele>
        <time>2017-04-17T20:17:51.000Z</time>
      </trkpt>
      <trkpt lat="48.8645" lon="2.30821">
        <ele>33.200000762939</ele>
        <time>2017-04-17T20:17:56.000Z</time>
      </trkpt>
      <trkpt lat="48.86449" lon="2.30851">
        <ele>32.799999237061</ele>
        <time>2017-04-17T20:18:00.000Z</time>
      </trkpt>
      <trkpt lat="48.86452" lon="2.3088">
        <ele>32.400001525879</ele>
        <time>2017-04-17T20:18:05.000Z</time>
      </trkpt>
      <trkpt lat="48.86456" lon="2.30908">
        <ele>32.400001525879</ele>
        <time>2017-04-17T20:18:10.000Z</time>
      </trkpt>
      <trkpt lat="48.8646" lon="2.30948">
        <ele>32.799999237061</ele>
        <time>2017-04-17T20:18:15.000Z</time>
      </trkpt>
      <trkpt lat="48.86455" lon="2.30984">
        <ele>32</ele>
        <time>2017-04-17T20:18:18.000Z</time>
      </trkpt>
      <trkpt lat="48.86453" lon="2.31006">
        <ele>31.200000762939</ele>
        <time>2017-04-17T20:18:22.000Z</time>
      </trkpt>
      <trkpt lat="48.86455" lon="2.31032">
        <ele>30.39999961853</ele>
        <time>2017-04-17T20:18:31.000Z</time>
      </trkpt>
      <trkpt lat="48.86456" lon="2.31045">
        <ele>30</ele>
        <time>2017-04-17T20:18:34.000Z</time>
      </trkpt>
      <trkpt lat="48.86457" lon="2.31061">
        <ele>29.60000038147</ele>
        <time>2017-04-17T20:18:37.000Z</time>
      </trkpt>
      <trkpt lat="48.86458" lon="2.31089">
        <ele>29.200000762939</ele>
        <time>2017-04-17T20:18:42.000Z</time>
      </trkpt>
      <trkpt lat="48.86458" lon="2.31121">
        <ele>29.200000762939</ele>
        <time>2017-04-17T20:18:47.000Z</time>
      </trkpt>
      <trkpt lat="48.86462" lon="2.31154">
        <ele>29.60000038147</ele>
        <time>2017-04-17T20:18:52.000Z</time>
      </trkpt>
      <trkpt lat="48.86462" lon="2.31187">
        <ele>31.200000762939</ele>
        <time>2017-04-17T20:18:57.000Z</time>
      </trkpt>
      <trkpt lat="48.86458" lon="2.31219">
        <ele>33.799999237061</ele>
        <time>2017-04-17T20:19:03.000Z</time>
      </trkpt>
      <trkpt lat="48.86457" lon="2.31251">
        <ele>36.599998474121</ele>
        <time>2017-04-17T20:19:07.000Z</time>
      </trkpt>
      <trkpt lat="48.86458" lon="2.31282">
        <ele>36.200000762939</ele>
        <time>2017-04-17T20:19:11.000Z</time>
      </trkpt>
      <trkpt lat="48.86458" lon="2.31315">
        <ele>35</ele>
        <time>2017-04-17T20:19:15.000Z</time>
      </trkpt>
      <trkpt lat="48.86455" lon="2.31337">
        <ele>33.599998474121</ele>
        <time>2017-04-17T20:19:20.000Z</time>
      </trkpt>
      <trkpt lat="48.86458" lon="2.31364">
        <ele>32.799999237061</ele>
        <time>2017-04-17T20:19:50.000Z</time>
      </trkpt>
      <trkpt lat="48.86462" lon="2.31394">
        <ele>32.400001525879</ele>
        <time>2017-04-17T20:19:58.000Z</time>
      </trkpt>
      <trkpt lat="48.86465" lon="2.3142">
        <ele>32.799999237061</ele>
        <time>2017-04-17T20:20:03.000Z</time>
      </trkpt>
      <trkpt lat="48.86469" lon="2.31452">
        <ele>34.799999237061</ele>
        <time>2017-04-17T20:20:08.000Z</time>
      </trkpt>
      <trkpt lat="48.8647" lon="2.31467">
        <ele>34.799999237061</ele>
        <time>2017-04-17T20:20:10.000Z</time>
      </trkpt>
      <trkpt lat="48.8647" lon="2.31496">
        <ele>34.400001525879</ele>
        <time>2017-04-17T20:20:14.000Z</time>
      </trkpt>
      <trkpt lat="48.8647" lon="2.31525">
        <ele>31.39999961853</ele>
        <time>2017-04-17T20:20:18.000Z</time>
      </trkpt>
      <trkpt lat="48.8647" lon="2.31553">
        <ele>30.200000762939</ele>
        <time>2017-04-17T20:20:22.000Z</time>
      </trkpt>
      <trkpt lat="48.8647" lon="2.31585">
        <ele>29</ele>
        <time>2017-04-17T20:20:26.000Z</time>
      </trkpt>
      <trkpt lat="48.8647" lon="2.31619">
        <ele>27.200000762939</ele>
        <time>2017-04-17T20:20:30.000Z</time>
      </trkpt>
      <trkpt lat="48.86471" lon="2.31652">
        <ele>27.200000762939</ele>
        <time>2017-04-17T20:20:34.000Z</time>
      </trkpt>
      <trkpt lat="48.86473" lon="2.31683">
        <ele>28.39999961853</ele>
        <time>2017-04-17T20:20:38.000Z</time>
      </trkpt>
      <trkpt lat="48.86473" lon="2.31714">
        <ele>32.400001525879</ele>
        <time>2017-04-17T20:20:42.000Z</time>
      </trkpt>
      <trkpt lat="48.86476" lon="2.31742">
        <ele>37</ele>
        <time>2017-04-17T20:20:45.000Z</time>
      </trkpt>
      <trkpt lat="48.86477" lon="2.3175">
        <ele>37.799999237061</ele>
        <time>2017-04-17T20:20:46.000Z</time>
      </trkpt>
      <trkpt lat="48.8648" lon="2.31772">
        <ele>37.599998474121</ele>
        <time>2017-04-17T20:20:49.000Z</time>
      </trkpt>
      <trkpt lat="48.8648" lon="2.31801">
        <ele>36.400001525879</ele>
        <time>2017-04-17T20:20:53.000Z</time>
      </trkpt>
      <trkpt lat="48.86479" lon="2.31813">
        <ele>35.200000762939</ele>
        <time>2017-04-17T20:20:55.000Z</time>
      </trkpt>
      <trkpt lat="48.86479" lon="2.31834">
        <ele>33.400001525879</ele>
        <time>2017-04-17T20:20:58.000Z</time>
      </trkpt>
      <trkpt lat="48.86466" lon="2.31857">
        <ele>32.400001525879</ele>
        <time>2017-04-17T20:21:02.000Z</time>
      </trkpt>
      <trkpt lat="48.86454" lon="2.31868">
        <ele>31</ele>
        <time>2017-04-17T20:21:05.000Z</time>
      </trkpt>
      <trkpt lat="48.86443" lon="2.31888">
        <ele>29</ele>
        <time>2017-04-17T20:21:09.000Z</time>
      </trkpt>
      <trkpt lat="48.86435" lon="2.31917">
        <ele>27</ele>
        <time>2017-04-17T20:21:14.000Z</time>
      </trkpt>
      <trkpt lat="48.86429" lon="2.31938">
        <ele>27.799999237061</ele>
        <time>2017-04-17T20:21:18.000Z</time>
      </trkpt>
      <trkpt lat="48.86423" lon="2.31957">
        <ele>28.39999961853</ele>
        <time>2017-04-17T20:21:22.000Z</time>
      </trkpt>
      <trkpt lat="48.86418" lon="2.31977">
        <ele>29</ele>
        <time>2017-04-17T20:21:27.000Z</time>
      </trkpt>
      <trkpt lat="48.86417" lon="2.3198">
        <ele>29</ele>
        <time>2017-04-17T20:21:28.000Z</time>
      </trkpt>
      <trkpt lat="48.86408" lon="2.31998">
        <ele>29.200000762939</ele>
        <time>2017-04-17T20:22:09.000Z</time>
      </trkpt>
      <trkpt lat="48.86404" lon="2.32026">
        <ele>30.200000762939</ele>
        <time>2017-04-17T20:22:16.000Z</time>
      </trkpt>
      <trkpt lat="48.86396" lon="2.32053">
        <ele>30.39999961853</ele>
        <time>2017-04-17T20:22:20.000Z</time>
      </trkpt>
      <trkpt lat="48.86392" lon="2.32068">
        <ele>30.200000762939</ele>
        <time>2017-04-17T20:22:22.000Z</time>
      </trkpt>
      <trkpt lat="48.86383" lon="2.32099">
        <ele>30.200000762939</ele>
        <time>2017-04-17T20:22:26.000Z</time>
      </trkpt>
      <trkpt lat="48.86372" lon="2.32132">
        <ele>30</ele>
        <time>2017-04-17T20:22:30.000Z</time>
      </trkpt>
      <trkpt lat="48.86364" lon="2.3216">
        <ele>29.60000038147</ele>
        <time>2017-04-17T20:22:33.000Z</time>
      </trkpt>
      <trkpt lat="48.86355" lon="2.32191">
        <ele>30.200000762939</ele>
        <time>2017-04-17T20:22:36.000Z</time>
      </trkpt>
      <trkpt lat="48.86344" lon="2.32221">
        <ele>31.39999961853</ele>
        <time>2017-04-17T20:22:39.000Z</time>
      </trkpt>
      <trkpt lat="48.86333" lon="2.32256">
        <ele>31.799999237061</ele>
        <time>2017-04-17T20:22:42.000Z</time>
      </trkpt>
      <trkpt lat="48.86321" lon="2.32292">
        <ele>30.799999237061</ele>
        <time>2017-04-17T20:22:45.000Z</time>
      </trkpt>
      <trkpt lat="48.86313" lon="2.32317">
        <ele>30.39999961853</ele>
        <time>2017-04-17T20:22:47.000Z</time>
      </trkpt>
      <trkpt lat="48.86301" lon="2.32351">
        <ele>30</ele>
        <time>2017-04-17T20:22:50.000Z</time>
      </trkpt>
      <trkpt lat="48.86289" lon="2.32386">
        <ele>28.60000038147</ele>
        <time>2017-04-17T20:22:53.000Z</time>
      </trkpt>
      <trkpt lat="48.86277" lon="2.3242">
        <ele>27.39999961853</ele>
        <time>2017-04-17T20:22:56.000Z</time>
      </trkpt>
      <trkpt lat="48.86266" lon="2.32456">
        <ele>28</ele>
        <time>2017-04-17T20:22:59.000Z</time>
      </trkpt>
      <trkpt lat="48.86255" lon="2.32491">
        <ele>28.799999237061</ele>
        <time>2017-04-17T20:23:02.000Z</time>
      </trkpt>
      <trkpt lat="48.86244" lon="2.32522">
        <ele>29.60000038147</ele>
        <time>2017-04-17T20:23:05.000Z</time>
      </trkpt>
      <trkpt lat="48.86233" lon="2.32554">
        <ele>30.200000762939</ele>
        <time>2017-04-17T20:23:08.000Z</time>
      </trkpt>
      <trkpt lat="48.86224" lon="2.32585">
        <ele>30.60000038147</ele>
        <time>2017-04-17T20:23:11.000Z</time>
      </trkpt>
      <trkpt lat="48.86214" lon="2.32617">
        <ele>30.799999237061</ele>
        <time>2017-04-17T20:23:14.000Z</time>
      </trkpt>
      <trkpt lat="48.86202" lon="2.32649">
        <ele>29.799999237061</ele>
        <time>2017-04-17T20:23:17.000Z</time>
      </trkpt>
      <trkpt lat="48.8619" lon="2.32681">
        <ele>29.60000038147</ele>
        <time>2017-04-17T20:23:20.000Z</time>
      </trkpt>
      <trkpt lat="48.86178" lon="2.32713">
        <ele>30.799999237061</ele>
        <time>2017-04-17T20:23:23.000Z</time>
      </trkpt>
      <trkpt lat="48.86168" lon="2.32746">
        <ele>30.799999237061</ele>
        <time>2017-04-17T20:23:26.000Z</time>
      </trkpt>
      <trkpt lat="48.86157" lon="2.32777">
        <ele>31.39999961853</ele>
        <time>2017-04-17T20:23:29.000Z</time>
      </trkpt>
      <trkpt lat="48.86146" lon="2.32809">
        <ele>31</ele>
        <time>2017-04-17T20:23:32.000Z</time>
      </trkpt>
      <trkpt lat="48.86135" lon="2.32843">
        <ele>29.60000038147</ele>
        <time>2017-04-17T20:23:35.000Z</time>
      </trkpt>
      <trkpt lat="48.86126" lon="2.32875">
        <ele>30.799999237061</ele>
        <time>2017-04-17T20:23:38.000Z</time>
      </trkpt>
      <trkpt lat="48.86117" lon="2.32905">
        <ele>32.799999237061</ele>
        <time>2017-04-17T20:23:41.000Z</time>
      </trkpt>
      <trkpt lat="48.86108" lon="2.32932">
        <ele>35.200000762939</ele>
        <time>2017-04-17T20:23:44.000Z</time>
      </trkpt>
      <trkpt lat="48.86098" lon="2.32964">
        <ele>40.200000762939</ele>
        <time>2017-04-17T20:23:48.000Z</time>
      </trkpt>
      <trkpt lat="48.8609" lon="2.32991">
        <ele>43.200000762939</ele>
        <time>2017-04-17T20:23:52.000Z</time>
      </trkpt>
      <trkpt lat="48.86089" lon="2.33001">
        <ele>43</ele>
        <time>2017-04-17T20:23:54.000Z</time>
      </trkpt>
      <trkpt lat="48.86102" lon="2.33007">
        <ele>43.200000762939</ele>
        <time>2017-04-17T20:24:00.000Z</time>
      </trkpt>
      <trkpt lat="48.86103" lon="2.33007">
        <ele>43.200000762939</ele>
        <time>2017-04-17T20:24:01.000Z</time>
      </trkpt>
      <trkpt lat="48.86104" lon="2.33014">
        <ele>42.799999237061</ele>
        <time>2017-04-17T20:26:12.000Z</time>
      </trkpt>
      <trkpt lat="48.86106" lon="2.3302">
        <ele>42.599998474121</ele>
        <time>2017-04-17T20:26:46.000Z</time>
      </trkpt>
      <trkpt lat="48.86123" lon="2.33032">
        <ele>41.400001525879</ele>
        <time>2017-04-17T20:26:51.000Z</time>
      </trkpt>
      <trkpt lat="48.8614" lon="2.33045">
        <ele>40</ele>
        <time>2017-04-17T20:26:55.000Z</time>
      </trkpt>
      <trkpt lat="48.8616" lon="2.33058">
        <ele>38.400001525879</ele>
        <time>2017-04-17T20:26:58.000Z</time>
      </trkpt>
      <trkpt lat="48.86179" lon="2.3307">
        <ele>37</ele>
        <time>2017-04-17T20:27:01.000Z</time>
      </trkpt>
      <trkpt lat="48.86201" lon="2.33078">
        <ele>35.799999237061</ele>
        <time>2017-04-17T20:27:05.000Z</time>
      </trkpt>
      <trkpt lat="48.86222" lon="2.33093">
        <ele>35.599998474121</ele>
        <time>2017-04-17T20:27:08.000Z</time>
      </trkpt>
      <trkpt lat="48.86319" lon="2.33186">
        <ele>39.400001525879</ele>
        <time>2017-04-17T20:27:22.000Z</time>
      </trkpt>
      <trkpt lat="48.86337" lon="2.33198">
        <ele>40.599998474121</ele>
        <time>2017-04-17T20:27:26.000Z</time>
      </trkpt>
      <trkpt lat="48.86343" lon="2.33199">
        <ele>40.799999237061</ele>
        <time>2017-04-17T20:27:28.000Z</time>
      </trkpt>
      <trkpt lat="48.86361" lon="2.33211">
        <ele>42</ele>
        <time>2017-04-17T20:27:35.000Z</time>
      </trkpt>
      <trkpt lat="48.86369" lon="2.33217">
        <ele>42.599998474121</ele>
        <time>2017-04-17T20:27:41.000Z</time>
      </trkpt>
      <trkpt lat="48.86374" lon="2.33226">
        <ele>43.400001525879</ele>
        <time>2017-04-17T20:27:51.000Z</time>
      </trkpt>
      <trkpt lat="48.8639" lon="2.33221">
        <ele>43.599998474121</ele>
        <time>2017-04-17T20:28:13.000Z</time>
      </trkpt>
      <trkpt lat="48.86411" lon="2.33232">
        <ele>45</ele>
        <time>2017-04-17T20:28:18.000Z</time>
      </trkpt>
      <trkpt lat="48.86429" lon="2.33247">
        <ele>46.599998474121</ele>
        <time>2017-04-17T20:28:22.000Z</time>
      </trkpt>
      <trkpt lat="48.86439" lon="2.33255">
        <ele>47</ele>
        <time>2017-04-17T20:28:25.000Z</time>
      </trkpt>
      <trkpt lat="48.86426" lon="2.33286">
        <ele>47</ele>
        <time>2017-04-17T20:28:29.000Z</time>
      </trkpt>
      <trkpt lat="48.86413" lon="2.33308">
        <ele>47</ele>
        <time>2017-04-17T20:28:32.000Z</time>
      </trkpt>
      <trkpt lat="48.86399" lon="2.33333">
        <ele>48</ele>
        <time>2017-04-17T20:28:35.000Z</time>
      </trkpt>
      <trkpt lat="48.86388" lon="2.33358">
        <ele>48.599998474121</ele>
        <time>2017-04-17T20:28:38.000Z</time>
      </trkpt>
      <trkpt lat="48.86378" lon="2.33391">
        <ele>50</ele>
        <time>2017-04-17T20:28:42.000Z</time>
      </trkpt>
      <trkpt lat="48.86365" lon="2.33418">
        <ele>50.799999237061</ele>
        <time>2017-04-17T20:28:48.000Z</time>
      </trkpt>
      <trkpt lat="48.86357" lon="2.33437">
        <ele>50.200000762939</ele>
        <time>2017-04-17T20:28:51.000Z</time>
      </trkpt>
      <trkpt lat="48.86348" lon="2.33458">
        <ele>48.599998474121</ele>
        <time>2017-04-17T20:28:54.000Z</time>
      </trkpt>
      <trkpt lat="48.86339" lon="2.33488">
        <ele>47</ele>
        <time>2017-04-17T20:28:58.000Z</time>
      </trkpt>
      <trkpt lat="48.86329" lon="2.33516">
        <ele>46.599998474121</ele>
        <time>2017-04-17T20:29:02.000Z</time>
      </trkpt>
      <trkpt lat="48.86328" lon="2.33523">
        <ele>46.400001525879</ele>
        <time>2017-04-17T20:29:03.000Z</time>
      </trkpt>
      <trkpt lat="48.86323" lon="2.3354">
        <ele>45.799999237061</ele>
        <time>2017-04-17T20:29:06.000Z</time>
      </trkpt>
      <trkpt lat="48.86313" lon="2.33555">
        <ele>46.200000762939</ele>
        <time>2017-04-17T20:29:09.000Z</time>
      </trkpt>
      <trkpt lat="48.86309" lon="2.33565">
        <ele>46.799999237061</ele>
        <time>2017-04-17T20:29:11.000Z</time>
      </trkpt>
      <trkpt lat="48.86305" lon="2.33583">
        <ele>47.599998474121</ele>
        <time>2017-04-17T20:29:14.000Z</time>
      </trkpt>
      <trkpt lat="48.86303" lon="2.33616">
        <ele>46.599998474121</ele>
        <time>2017-04-17T20:29:19.000Z</time>
      </trkpt>
      <trkpt lat="48.86296" lon="2.33645">
        <ele>46.400001525879</ele>
        <time>2017-04-17T20:29:24.000Z</time>
      </trkpt>
      <trkpt lat="48.8628" lon="2.33659">
        <ele>46.799999237061</ele>
        <time>2017-04-17T20:29:30.000Z</time>
      </trkpt>
      <trkpt lat="48.86278" lon="2.33661">
        <ele>46.799999237061</ele>
        <time>2017-04-17T20:29:31.000Z</time>
      </trkpt>
      <trkpt lat="48.86267" lon="2.33669">
        <ele>47.200000762939</ele>
        <time>2017-04-17T20:29:37.000Z</time>
      </trkpt>
      <trkpt lat="48.86263" lon="2.33671">
        <ele>47.400001525879</ele>
        <time>2017-04-17T20:29:41.000Z</time>
      </trkpt>
      <trkpt lat="48.86257" lon="2.33693">
        <ele>47.400001525879</ele>
        <time>2017-04-17T20:30:11.000Z</time>
      </trkpt>
      <trkpt lat="48.86264" lon="2.33714">
        <ele>46.799999237061</ele>
        <time>2017-04-17T20:30:20.000Z</time>
      </trkpt>
      <trkpt lat="48.86271" lon="2.33722">
        <ele>46.400001525879</ele>
        <time>2017-04-17T20:30:28.000Z</time>
      </trkpt>
      <trkpt lat="48.86272" lon="2.33739">
        <ele>46.200000762939</ele>
        <time>2017-04-17T20:30:33.000Z</time>
      </trkpt>
      <trkpt lat="48.86266" lon="2.33765">
        <ele>45.799999237061</ele>
        <time>2017-04-17T20:30:38.000Z</time>
      </trkpt>
      <trkpt lat="48.86257" lon="2.33794">
        <ele>45.599998474121</ele>
        <time>2017-04-17T20:30:44.000Z</time>
      </trkpt>
      <trkpt lat="48.86249" lon="2.33823">
        <ele>44.799999237061</ele>
        <time>2017-04-17T20:30:50.000Z</time>
      </trkpt>
      <trkpt lat="48.86245" lon="2.33852">
        <ele>45</ele>
        <time>2017-04-17T20:30:55.000Z</time>
      </trkpt>
      <trkpt lat="48.8624" lon="2.33879">
        <ele>46</ele>
        <time>2017-04-17T20:31:00.000Z</time>
      </trkpt>
      <trkpt lat="48.86236" lon="2.33911">
        <ele>46.599998474121</ele>
        <time>2017-04-17T20:31:06.000Z</time>
      </trkpt>
      <trkpt lat="48.86234" lon="2.33941">
        <ele>47.200000762939</ele>
        <time>2017-04-17T20:31:11.000Z</time>
      </trkpt>
      <trkpt lat="48.86227" lon="2.33971">
        <ele>48.200000762939</ele>
        <time>2017-04-17T20:31:17.000Z</time>
      </trkpt>
      <trkpt lat="48.86223" lon="2.34">
        <ele>49.400001525879</ele>
        <time>2017-04-17T20:31:22.000Z</time>
      </trkpt>
      <trkpt lat="48.86213" lon="2.34025">
        <ele>49.799999237061</ele>
        <time>2017-04-17T20:31:27.000Z</time>
      </trkpt>
      <trkpt lat="48.86203" lon="2.34054">
        <ele>49.400001525879</ele>
        <time>2017-04-17T20:31:33.000Z</time>
      </trkpt>
      <trkpt lat="48.86198" lon="2.34084">
        <ele>49.200000762939</ele>
        <time>2017-04-17T20:31:39.000Z</time>
      </trkpt>
      <trkpt lat="48.86195" lon="2.34104">
        <ele>49.200000762939</ele>
        <time>2017-04-17T20:31:47.000Z</time>
      </trkpt>
      <trkpt lat="48.86185" lon="2.34107">
        <ele>49.200000762939</ele>
        <time>2017-04-17T20:32:00.000Z</time>
      </trkpt>
      <trkpt lat="48.86179" lon="2.3413">
        <ele>49.200000762939</ele>
        <time>2017-04-17T20:32:15.000Z</time>
      </trkpt>
      <trkpt lat="48.86179" lon="2.3416">
        <ele>49.599998474121</ele>
        <time>2017-04-17T20:32:21.000Z</time>
      </trkpt>
      <trkpt lat="48.86178" lon="2.34187">
        <ele>49.799999237061</ele>
        <time>2017-04-17T20:32:26.000Z</time>
      </trkpt>
      <trkpt lat="48.86182" lon="2.34218">
        <ele>49.799999237061</ele>
        <time>2017-04-17T20:32:31.000Z</time>
      </trkpt>
      <trkpt lat="48.86161" lon="2.3424">
        <ele>49.599998474121</ele>
        <time>2017-04-17T20:32:37.000Z</time>
      </trkpt>
      <trkpt lat="48.86155" lon="2.3427">
        <ele>49.400001525879</ele>
        <time>2017-04-17T20:32:43.000Z</time>
      </trkpt>
      <trkpt lat="48.86155" lon="2.343">
        <ele>49</ele>
        <time>2017-04-17T20:32:48.000Z</time>
      </trkpt>
      <trkpt lat="48.86153" lon="2.34332">
        <ele>49.799999237061</ele>
        <time>2017-04-17T20:32:54.000Z</time>
      </trkpt>
      <trkpt lat="48.86144" lon="2.34362">
        <ele>48.599998474121</ele>
        <time>2017-04-17T20:33:00.000Z</time>
      </trkpt>
      <trkpt lat="48.86138" lon="2.34388">
        <ele>48.400001525879</ele>
        <time>2017-04-17T20:33:04.000Z</time>
      </trkpt>
      <trkpt lat="48.86134" lon="2.34417">
        <ele>48</ele>
        <time>2017-04-17T20:33:09.000Z</time>
      </trkpt>
      <trkpt lat="48.86131" lon="2.34445">
        <ele>46.200000762939</ele>
        <time>2017-04-17T20:33:13.000Z</time>
      </trkpt>
      <trkpt lat="48.86125" lon="2.34473">
        <ele>47.599998474121</ele>
        <time>2017-04-17T20:33:17.000Z</time>
      </trkpt>
      <trkpt lat="48.86116" lon="2.34494">
        <ele>49.200000762939</ele>
        <time>2017-04-17T20:33:21.000Z</time>
      </trkpt>
      <trkpt lat="48.86102" lon="2.3451">
        <ele>51</ele>
        <time>2017-04-17T20:33:25.000Z</time>
      </trkpt>
      <trkpt lat="48.86089" lon="2.34534">
        <ele>51</ele>
        <time>2017-04-17T20:33:30.000Z</time>
      </trkpt>
      <trkpt lat="48.86084" lon="2.34548">
        <ele>51</ele>
        <time>2017-04-17T20:33:32.000Z</time>
      </trkpt>
      <trkpt lat="48.86077" lon="2.34575">
        <ele>50</ele>
        <time>2017-04-17T20:33:37.000Z</time>
      </trkpt>
      <trkpt lat="48.86072" lon="2.34585">
        <ele>49.200000762939</ele>
        <time>2017-04-17T20:33:39.000Z</time>
      </trkpt>
      <trkpt lat="48.86056" lon="2.34602">
        <ele>47.599998474121</ele>
        <time>2017-04-17T20:33:44.000Z</time>
      </trkpt>
      <trkpt lat="48.86037" lon="2.34618">
        <ele>47.200000762939</ele>
        <time>2017-04-17T20:33:49.000Z</time>
      </trkpt>
      <trkpt lat="48.86026" lon="2.34624">
        <ele>47.400001525879</ele>
        <time>2017-04-17T20:33:52.000Z</time>
      </trkpt>
      <trkpt lat="48.86008" lon="2.34634">
        <ele>47.400001525879</ele>
        <time>2017-04-17T20:33:56.000Z</time>
      </trkpt>
      <trkpt lat="48.85989" lon="2.34646">
        <ele>47.200000762939</ele>
        <time>2017-04-17T20:34:00.000Z</time>
      </trkpt>
      <trkpt lat="48.85977" lon="2.34655">
        <ele>47</ele>
        <time>2017-04-17T20:34:03.000Z</time>
      </trkpt>
      <trkpt lat="48.8596" lon="2.34673">
        <ele>46.599998474121</ele>
        <time>2017-04-17T20:34:09.000Z</time>
      </trkpt>
      <trkpt lat="48.85959" lon="2.34685">
        <ele>46.400001525879</ele>
        <time>2017-04-17T20:34:12.000Z</time>
      </trkpt>
      <trkpt lat="48.8596" lon="2.34694">
        <ele>46.200000762939</ele>
        <time>2017-04-17T20:34:16.000Z</time>
      </trkpt>
      <trkpt lat="48.85959" lon="2.34696">
        <ele>46</ele>
        <time>2017-04-17T20:34:17.000Z</time>
      </trkpt>
      <trkpt lat="48.85961" lon="2.34705">
        <ele>45.799999237061</ele>
        <time>2017-04-17T20:34:22.000Z</time>
      </trkpt>
      <trkpt lat="48.85966" lon="2.34709">
        <ele>45.599998474121</ele>
        <time>2017-04-17T20:34:32.000Z</time>
      </trkpt>
      <trkpt lat="48.85964" lon="2.34708">
        <ele>45.799999237061</ele>
        <time>2017-04-17T20:34:37.000Z</time>
      </trkpt>
    </trkseg>
  </trk>
</gpx>